Hent vejr tabel

Vejret historisk i Auning (faktisk Tirstrup)

Nedenstående er lavet så jeg på et tidspunkt kan lave noget koblet på vores varmeregnskab. Og dermed lave en model over sammenhæng mellem vejret og vores varmeregnskab.
Mon jeg nogen sinde når til det.

Insert fungerede ikke: INSERT INTO weather (metar,temperature,rdate) VALUES ("",,20200926)gav fejlen: You have an error in your SQL syntax; check the manual that corresponds to your MySQL server version for the right syntax to use near '20200926)' at line 1
#DatoTemp (grad C)Metar
27522018-02-201EKAH 200720Z AUTO 11006KT 9000NDV OVC036/// 01/00 Q1023 R99/390093
27512018-02-172EKAH 171920Z AUTO 22001KT 9999NDV OVC035/// 02/M00 Q1025
27502018-02-162EKAH 162020Z AUTO 29003KT 9999NDV OVC019/// 02/01 Q1021
27492018-02-151EKAH 151850Z AUTO 16010G22KT 110V210 1300NDV R10R/P1500N R28L/P1500N -SN OVC003/// 01/01 Q1010 R10R/290095
27482018-02-132EKAH 132050Z AUTO 16002KT 6000NDV SCT009/// 02/01 Q1014
27472018-02-100EKAH 100850Z AUTO 15006KT 110V200 5000NDV BKN018/// 00/M03 Q1015 R99/090095
27462018-02-092EKAH 090850Z AUTO 16007KT 120V200 7000NDV FEW016/// 02/00 Q1016 R10R/350195
27452018-02-081EKAH 080350Z AUTO 23005KT 170V280 9999NDV BKN032/// BKN055/// 01/M01 Q1018 R99/090095
27442018-02-07-3EKAH 070520Z AUTO 15003KT 8000NDV -SN OVC031/// M03/M04 Q1016 R10R/490195
27432018-02-06-7EKAH 060620Z AUTO 00000KT 9999NDV BKN029/// M07/M08 Q1021 R99/090095
27422018-02-041EKAH 032320Z AUTO 03017KT 9999NDV OVC014/// 01/M01 Q1013 R99/490295
27412018-02-023EKAH 020750Z AUTO 05008KT 5000NDV OVC003/// 03/03 Q0998
27402018-02-014EKAH 011650Z AUTO 18008KT 110V250 9999NDV SCT013/// BKN025/// BKN083/// 04/02 Q0990
27392018-01-316EKAH 311520Z AUTO 20004KT 130V240 8000NDV RA BKN014/// 06/05 Q0990
27382018-01-304EKAH 301950Z AUTO 22005KT 190V260 9999NDV FEW014/// SCT034/// 04/03 Q1016
27372018-01-296EKAH 282250Z AUTO 25006KT 210V280 9999NDV OVC083/// 06/04 Q1015
27362018-01-287EKAH 281550Z AUTO 27017G27KT 9999NDV NCD 07/03 Q1013
27352018-01-272EKAH 270050Z AUTO 24004KT 9000NDV NCD 02/01 Q1022
27342018-01-248EKAH 241120Z AUTO 19008KT 140V230 4300NDV -DZ BR OVC004/// 08/08 Q1002
27332018-01-221EKAH 220650Z AUTO 15006KT 110V200 9999NDV BKN007/// 01/00 Q1010 R10/090095
27322018-01-211EKAH 210050Z AUTO 13002KT 4400NDV BR BKN011/// BKN029/// BKN068/// 01/01 Q1006
27312018-01-163EKAH 160850Z AUTO 22007KT 180V260 9999NDV OVC013/// 03/03 Q0981
27302018-01-152EKAH 151750Z AUTO 15012G23KT 120V210 4400NDV -RASN OVC005/// 02/01 Q0995 R10R/550095
27292018-01-132EKAH 130150Z AUTO 12007KT 080V150 9999NDV OVC019/// 02/M01 Q1035
27282018-01-123EKAH 112320Z AUTO 08009KT 9999NDV BKN018/// 03/01 Q1027
27272018-01-114EKAH 110850Z AUTO 08003KT 3300NDV BR OVC003/// 04/04 Q1020
27262018-01-091EKAH 090120Z AUTO 13005KT 090V180 2000NDV BR OVC001/// 01/01 Q1033 R99/390195
27252018-01-08-3EKAH 082150Z AUTO 12004KT 0200NDV R10R/0350N R28L/P1500N FZFG VV005 M03/M03 Q1034 R99/390195
27242018-01-034EKAH 031520Z AUTO 00000KT 7000NDV SCT016/// SCT023/// BKN044/// BKN130/// 04/04 Q0976
27232018-01-025EKAH 021520Z AUTO 22004KT 170V260 9999NDV BKN029/// 05/04 Q1003
27222017-12-315EKAH 311120Z AUTO 17007KT 130V220 6000NDV -RA BKN003/// 05/05 Q0993
27212017-12-301EKAH 300050Z AUTO 12003KT 9999NDV BKN130/// 01/00 Q0999 R99/320195
27202017-12-293EKAH 282350Z AUTO 18005KT 130V230 9999NDV BKN012/// BKN110/// 03/02 Q0991
27192017-12-285EKAH 280120Z AUTO 19005KT 140V250 8000NDV -SHRA OVC005/// 05/05 Q0983
27182017-12-266EKAH 260250Z AUTO 20007KT 150V260 9999NDV OVC009/// 06/05 Q0996
27172017-12-238EKAH 230520Z AUTO 25015G25KT 9999NDV OVC007/// 08/08 Q1016
27162017-12-225EKAH 220920Z AUTO 28010KT 9999NDV NCD 05/04 Q1028
27152017-12-209EKAH 202050Z AUTO 26008KT 230V290 6000NDV OVC002/// 09/09 Q1025
27142017-12-170EKAH 171020Z AUTO 28003KT 9999NDV NCD 00/00 Q1018 R99/590195
27132017-12-160EKAH 161750Z AUTO 29007KT 9999NDV BKN064/// M00/M02 Q1006 R99/310095
27122017-12-132EKAH 130120Z AUTO 21005KT 150V260 9999NDV SCT035/// 02/02 Q1002 R10R/09//95
27112017-12-111EKAH 102350Z AUTO 12002KT 9999NDV -SN BKN025/// BKN056/// BKN090/// 01/M00 Q0983 R99/590294
27102017-12-102EKAH 100950Z AUTO 20003KT 9999NDV BKN009/// 02/01 Q0988 R99/390194
27092017-12-094EKAH 090620Z AUTO 28016KT 9999NDV BKN220/// 04/01 Q0993
27082017-12-086EKAH 081050Z AUTO 24010KT 200V280 9999NDV FEW035/// 06/02 Q0993
27072017-12-076EKAH 071220Z AUTO 21012G24KT 160V290 5000NDV OVC006/// 06/05 Q0998
27062017-12-069EKAH 061850Z AUTO 25012G23KT 210V290 9999NDV OVC012/// 09/07 Q1012
27052017-12-059EKAH 051820Z AUTO 27016KT 9999NDV BKN016/// 09/07 Q1017
27042017-12-042EKAH 042150Z AUTO 25005KT 9999NDV BKN035/// BKN096/// 02/00 Q1021
27032017-12-036EKAH 031450Z AUTO 29011KT 9999NDV NCD 06/03 Q1012
27022017-12-013EKAH 011220Z AUTO 36008KT 330V030 9999NDV OVC019/// 03/01 Q1017 R99/290193
27012017-11-300EKAH 301650Z AUTO 04001KT 1700NDV R10R/1000U R28L/P1500N BR FEW047/// 00/M00 Q1006
27002017-11-292EKAH 290120Z AUTO 28004KT 5000NDV SCT006/// 02/02 Q0999
26992017-11-285EKAH 280220Z AUTO 18003KT 9999NDV BKN012/// 05/04 Q0994
26982017-11-276EKAH 271050Z AUTO 19007G18KT 130V240 9999NDV DZ BKN010/// 06/04 Q1004
26972017-11-256EKAH 251020Z AUTO 25006KT 190V280 9999NDV BKN042/// 06/04 Q1006
26962017-11-246EKAH 240350Z AUTO 22004KT 180V260 9999NDV NCD 06/04 Q1002
26952017-11-225EKAH 220350Z AUTO 13011KT 100V170 3300NDV -RA BKN004/// 05/05 Q1000
26942017-11-212EKAH 211350Z AUTO 02001KT 1000NDV R10R/0500D R28L/0650D BR SCT100/// 02/02 Q1009
26932017-11-20-2EKAH 200320Z AUTO 28001KT 9999NDV BKN035/// M02/M03 Q1009
26922017-11-191EKAH 191850Z AUTO 29006KT 9999NDV NCD 01/M01 Q1008
26912017-11-185EKAH 180950Z AUTO 26011KT 220V280 9999NDV SCT013/// BKN041/// 05/03 Q1003
26902017-11-179EKAH 171220Z AUTO 25009KT 9999NDV NCD 09/04 Q1019
26892017-11-155EKAH 150650Z AUTO 24006KT 200V260 9999NDV FEW020/// 05/04 Q1019
26882017-11-145EKAH 140720Z AUTO 20004KT 160V260 9999NDV -RA OVC015/// 05/04 Q1013
26872017-11-13-1EKAH 131820Z AUTO 21001KT 9999NDV FEW041/// M01/M02 Q1016
26862017-11-125EKAH 112320Z AUTO 24008KT 9999NDV -RA BKN024/// BKN054/// 05/03 Q0996
26852017-11-117EKAH 111420Z AUTO 27014KT 9999NDV FEW031/// 07/02 Q0997
26842017-11-106EKAH 100520Z AUTO 22005KT 170V260 9999NDV OVC034/// 06/04 Q1006
26832017-11-086EKAH 081020Z AUTO 32001KT 9999NDV SCT010/// BKN110/// 06/06 Q1024
26822017-11-061EKAH 062150Z AUTO 18002KT 9999NDV NCD 01/M00 Q1025
26812017-11-057EKAH 051750Z AUTO 24004KT 9999NDV FEW093/// 07/05 Q1007
26802017-11-0410EKAH 041520Z AUTO 16006KT 130V220 7000NDV FEW009/// FEW010/// BKN110/// 10/09 Q1004
26792017-11-0210EKAH 021650Z AUTO 30004KT 270V020 9999NDV NCD 10/09 Q1007
26782017-11-0112EKAH 010750Z AUTO 25009KT 9999NDV OVC006/// 12/11 Q1010
26772017-10-318EKAH 310850Z AUTO 25006KT 210V280 9999NDV BKN099/// 08/06 Q1019
26762017-10-306EKAH 292250Z AUTO 31011KT 9999NDV NCD 06/00 Q1012
26752017-10-299EKAH 282250Z AUTO 28017KT 7000NDV -SHRA BKN012/// 09/08 Q0984
26742017-10-2812EKAH 281450Z AUTO 28016KT 9999NDV BKN022/// 12/08 Q0997
26732017-10-2514EKAH 242250Z AUTO 22005KT 150V280 9999NDV BKN003/// 14/14 Q1009
26722017-10-2411EKAH 241220Z AUTO 15008KT 100V180 9999NDV BKN007/// 11/11 Q1017
26712017-10-238EKAH 230050Z AUTO 00000KT 0450NDV R10R/P1500D R28L/P1500U FG FEW013/// BKN190/// 08/07 Q1010
26702017-10-2212EKAH 221520Z AUTO 16001KT 9999NDV FEW018/// 12/10 Q1008
26692017-10-2112EKAH 202350Z AUTO 12007KT 090V160 2700NDV DZ BR OVC003/// 12/12 Q1011
26682017-10-1912EKAH 190150Z AUTO 11003KT 3000NDV BR SCT002/// OVC012/// 12/12 Q1016
26672017-10-1813EKAH 181320Z AUTO 31003KT 9999NDV OVC015/// 13/12 Q1015
26662017-10-1614EKAH 161650Z AUTO 19003KT 9000NDV FEW120/// SCT150/// 14/13 Q1018
26652017-10-1514EKAH 152120Z AUTO 19004KT 120V230 2700NDV BR NCD 14/14 Q1016
26642017-10-1415EKAH 142020Z AUTO 25007KT 210V280 3100NDV -SHRA BR OVC003/// 15/15 Q1019
26632017-10-1310EKAH 122250Z AUTO 26008KT 9999NDV NCD 10/07 Q1015
26622017-10-101EKAH 092350Z AUTO 25001KT 9999NDV NCD 01/01 Q1012
26612017-10-097EKAH 090120Z AUTO 28008KT 9999NDV NCD 07/06 Q1015
26602017-10-0811EKAH 081120Z AUTO 32013KT 9999NDV NCD 11/04 Q1012
26592017-10-0710EKAH 070220Z AUTO 27010KT 9999NDV SCT037/// 10/08 Q1009
26582017-10-0613EKAH 061620Z AUTO 27006KT 9999NDV NCD 13/07 Q1010
26572017-10-0511EKAH 050950Z AUTO 28009KT 9999NDV NCD 11/08 Q0995
26562017-10-0312EKAH 030720Z AUTO 24007KT 190V270 9999NDV FEW140/// 12/10 Q1003
26552017-10-0215EKAH 021150Z AUTO 22009G21KT 170V280 6000NDV RA BKN017/// 15/13 Q1001
26542017-10-0113EKAH 011720Z AUTO 13004KT 100V160 9999NDV NCD 13/11 Q1018
26532017-09-3014EKAH 300120Z AUTO 12011KT 9999NDV NCD 14/10 Q1021
26522017-09-2814EKAH 272350Z AUTO 11008KT 9999NDV SCT190/// 14/13 Q1029
26512017-09-2715EKAH 271020Z AUTO 09012KT 5000NDV -RA BKN006/// BKN032/// 15/15 Q1031
26502017-09-2112EKAH 210350Z AUTO 27001KT 1600NDV -RA BR OVC055/// 12/12 Q1019
26492017-09-209EKAH 200520Z AUTO 26003KT 0150NDV R10R/0250N R28L/0400N FG VV001 09/09 Q1013
26482017-09-187EKAH 172320Z AUTO 28002KT 9999NDV BKN023/// 07/07 Q1014
26472017-09-1716EKAH 171220Z AUTO 09008KT 050V140 9999NDV SCT025/// SCT042/// 16/11 Q1014
26462017-09-1411EKAH 140120Z AUTO 29006KT 9999NDV FEW007/// BKN041/// 11/11 Q0986
26452017-09-1214EKAH 120250Z AUTO 19007G18KT 140V230 9999NDV SCT014/// BKN030/// 14/13 Q0992
26442017-09-1115EKAH 110350Z AUTO 16010G22KT 110V210 9999NDV -SHRA FEW019/// BKN058/// 15/12 Q0992
26432017-09-1015EKAH 100750Z AUTO 21007KT 150V280 9999NDV NCD 15/13 Q0999
26422017-09-0813EKAH 082020Z AUTO 23003KT 9999NDV NCD 13/13 Q0994
26412017-09-0714EKAH 062220Z AUTO 29014KT 3300NDV +DZ BKN005/// 14/14 Q1005
26402017-09-0617EKAH 061350Z AUTO 17004KT 130V200 8000NDV RA BKN002/// 17/17 Q1005
26392017-09-0517EKAH 051820Z AUTO 12004KT 100V160 9999NDV SCT120/// BKN170/// 17/14 Q1015
26382017-09-0411EKAH 042020Z AUTO 30003KT 9999NDV NCD 11/10 Q1017
26372017-09-038EKAH 022350Z AUTO 00000KT 9999NDV NCD 08/07 Q1019
26362017-09-027EKAH 020420Z AUTO 15001KT 2600NDV R10R/0600D R28L/P1500U FG NCD 07/07 Q1019
26352017-09-0113EKAH 010620Z AUTO 25005KT 210V270 9999NDV NCD 13/12 Q1019
26342017-08-3114EKAH 310120Z AUTO 33010KT 9999NDV -SHRA OVC006/// 14/13 Q1012
26332017-08-3017EKAH 292320Z AUTO 22002KT 3700NDV BR FEW019/// FEW170/// 17/16 Q1010
26322017-08-2922EKAH 291520Z AUTO 17008G18KT 120V220 9999NDV NCD 22/14 Q1010
26312017-08-2820EKAH 281420Z AUTO 16006KT 120V220 9999NDV NCD 20/13 Q1019
26302017-08-2713EKAH 272050Z AUTO 00000KT 1000NDV R10R/0750D R28L/P1500N FG SCT035/// 13/12 Q1018
26292017-08-2616EKAH 262020Z AUTO 01001KT 9999NDV FEW024/// BKN036/// BKN047/// 16/14 Q1014
26282017-08-2514EKAH 250320Z AUTO 25007KT 200V270 9999NDV FEW012/// SCT022/// 14/13 Q1012
26272017-08-249EKAH 240120Z AUTO 14001KT 1100NDV R10R/P1500N R28L/P1500N BR NCD 09/08 Q1015
26262017-08-2013EKAH 200050Z AUTO 20005KT 150V250 9999NDV NCD 13/11 Q1011
26252017-08-1916EKAH 182150Z AUTO 23006KT 190V270 6000NDV RA BKN008/// BKN071/// 16/16 Q1007
26242017-08-1820EKAH 181150Z AUTO 18006KT 130V230 9999NDV SCT016/// 20/17 Q1009
26232017-08-1712EKAH 170050Z AUTO 12001KT 0600NDV R10R/P1500U R28L/P1500D FG FEW220/// 12/10 Q1020
26222017-08-1621EKAH 161550Z AUTO 30002KT 9999NDV BKN055/// 21/12 Q1020
26212017-08-1514EKAH 142150Z AUTO 13005KT 9999NDV NCD 14/11 Q1023
26202017-08-1312EKAH 130320Z AUTO 25010KT 9999NDV NCD 12/10 Q1010
26192017-08-1218EKAH 121650Z AUTO 21003KT 9999NDV BKN009/// 18/17 Q1006
26182017-08-1117EKAH 110820Z AUTO 32003KT 9999NDV OVC018/// 17/12 Q1017
26172017-08-1022EKAH 101450Z AUTO 31010KT 9999NDV FEW042/// 22/12 Q1018
26162017-08-0824EKAH 081120Z AUTO 12007KT 060V180 9999NDV NCD 24/13 Q1015
26152017-08-0420EKAH 040920Z AUTO 24010G21KT 160V300 9999NDV FEW030/// SCT092/// 20/15 Q1001
26142017-08-0314EKAH 030020Z AUTO 18002KT 0350NDV R10R/P1500N R28L/P1500N FG FEW009/// 14/13 Q1013
26132017-08-0112EKAH 010420Z AUTO 00000KT 9999NDV FEW078/// 12/11 Q1015
26122017-07-3114EKAH 310320Z AUTO 23004KT 9999NDV SCT190/// 14/13 Q1010
26112017-07-2917EKAH 291150Z AUTO 18008KT 140V250 9999NDV OVC010/// 17/16 Q1005
26102017-07-2817EKAH 281350Z AUTO 19005KT 150V230 9999NDV SHRA BKN078/// 17/13 Q1005
26092017-07-2719EKAH 271020Z AUTO 16007KT 120V210 9999NDV -SHRA BKN050/// 19/15 Q1002
26082017-07-2317EKAH 230050Z AUTO 10007KT 9999NDV FEW039/// BKN096/// 17/13 Q1016
26072017-07-2219EKAH 221750Z AUTO 09003KT 9999NDV OVC067/// 19/15 Q1017
26062017-07-2014EKAH 200250Z AUTO 09004KT 9999NDV NCD 14/11 Q1013
26052017-07-1921EKAH 191350Z AUTO 14006KT 090V190 9999NDV NCD 21/11 Q1017
26042017-07-1712EKAH 162220Z AUTO 25007KT 220V280 9999NDV NCD 12/08 Q1017
26032017-07-1513EKAH 150550Z AUTO 30001KT 9999NDV NCD 13/12 Q1017
26022017-07-1319EKAH 131220Z AUTO 29017KT 260V320 9999NDV SCT045/// 19/04 Q1017
26012017-07-1216EKAH 120920Z AUTO 28010KT 240V310 9999NDV FEW028/// FEW150/// 16/07 Q1007
26002017-07-1014EKAH 092220Z AUTO 07001KT 9999NDV NCD 14/10 Q1013
25992017-07-0914EKAH 090620Z AUTO 28011KT 9999NDV FEW002/// 14/08 Q1014
25982017-07-0611EKAH 052220Z AUTO 28005KT 9999NDV NCD 11/07 Q1019
25972017-07-0512EKAH 050520Z AUTO 26006KT 230V300 9999NDV BKN014/// 12/09 Q1017
25962017-07-0418EKAH 041020Z AUTO 29011KT 9999NDV FEW029/// FEW043/// 18/10 Q1015
25952017-07-0312EKAH 032020Z AUTO 26007KT 9999NDV FEW029/// FEW055/// 12/08 Q1011
25942017-07-0215EKAH 020750Z AUTO 25006KT 9999NDV -SHRA BKN013/// 15/12 Q1008
25932017-06-3015EKAH 300720Z AUTO 04013KT 360V070 9999NDV -SHRA OVC027/// 15/12 Q0997
25922017-06-2918EKAH 291820Z AUTO 07009KT 9999NDV BKN031/// 18/12 Q0999
25912017-06-2613EKAH 261950Z AUTO 27012G22KT 9999NDV BKN039/// 13/04 Q1009
25902017-06-2513EKAH 242320Z AUTO 24007KT 200V270 9999NDV BKN062/// 13/07 Q1005
25892017-06-2415EKAH 240620Z AUTO 25007KT 220V280 9999NDV SCT012/// BKN033/// BKN064/// 15/14 Q1005
25882017-06-2316EKAH 231850Z AUTO 25009KT 220V280 9999NDV BKN016/// BKN055/// BKN110/// 16/12 Q1008
25872017-06-2211EKAH 220350Z AUTO 16001KT 9999NDV NCD 11/08 Q1013
25862017-06-2118EKAH 211350Z AUTO 27012KT 250V310 9999NDV SCT038/// 18/07 Q1016
25852017-06-2017EKAH 200850Z AUTO 31019KT 270V330 9999NDV FEW029/// 17/05 Q1016
25842017-06-1920EKAH 192120Z AUTO 26008KT 230V290 9999NDV BKN180/// 20/14 Q1015
25832017-06-1824EKAH 181750Z AUTO 28010KT 9999NDV NCD 24/14 Q1021
25822017-06-1717EKAH 170720Z AUTO 30014KT 9999NDV NCD 17/10 Q1017
25812017-06-1613EKAH 160320Z AUTO 27010KT 9999NDV BKN012/// 13/12 Q1006
25802017-06-1517EKAH 151920Z AUTO 13005KT 9999NDV BKN100/// 17/12 Q1010
25792017-06-1212EKAH 120020Z AUTO 22003KT 9999NDV FEW027/// FEW140/// 12/11 Q1005
25782017-06-1014EKAH 100050Z AUTO 24003KT 9999NDV BKN010/// 14/13 Q1012
25772017-06-0914EKAH 092050Z AUTO 25007KT 220V280 9999NDV -RA OVC007/// 14/14 Q1010
25762017-06-0812EKAH 080050Z AUTO 22009KT 190V260 9999NDV -SHRA BKN008/// 12/11 Q1002
25752017-06-0714EKAH 070850Z AUTO 18005KT 090V250 9999NDV BKN016/// BKN045/// 14/09 Q0999
25742017-06-0517EKAH 050920Z AUTO 23008KT 170V290 9999NDV SCT089/// 17/07 Q1012
25732017-06-0412EKAH 042020Z AUTO 26010KT 9999NDV NCD 12/07 Q1011
25722017-06-0313EKAH 030320Z AUTO 13004KT 9999NDV FEW140/// BKN190/// 13/10 Q1017
25712017-06-0214EKAH 020550Z AUTO 31007KT 9999NDV NCD 14/07 Q1018
25702017-05-3114EKAH 310620Z AUTO 26018G30KT 9999NDV BKN019/// 14/08 Q1009
25692017-05-2818EKAH 281650Z AUTO 27012KT 9999NDV BKN022/// 18/11 Q1013
25682017-05-2724EKAH 271450Z AUTO 18006KT 130V220 9999NDV NCD 24/11 Q1021
25672017-05-2514EKAH 250650Z 29010KT 9999 NSC 14/07 Q1019
25662017-05-2414EKAH 240920Z AUTO 29014KT 260V320 9999NDV BKN018/// 14/08 Q1017
25652017-05-238EKAH 230150Z AUTO 00000KT 9999NDV FEW150/// 08/06 Q1016
25642017-05-2115EKAH 210750Z 26008KT 220V300 CAVOK 15/08 Q1026
25632017-05-1814EKAH 180350Z AUTO 12008KT 9999NDV NCD 14/12 Q1011
25622017-05-1612EKAH 161320Z AUTO 16010G20KT 110V200 4100NDV -SHRA BR OVC003/// 12/11 Q1026
25612017-05-1514EKAH 150850Z AUTO 31009KT 270V330 9999NDV BKN015/// 14/09 Q1026
25602017-05-1418EKAH 141420Z AUTO 20007KT 150V250 9999NDV NCD 18/09 Q1018
25592017-05-1313EKAH 131050Z 12007KT 070V160 CAVOK 13/06 Q1013
25582017-05-117EKAH 110520Z 28002KT 9999 SCT006 BKN022 FEW035 07/07 Q1005
25572017-05-107EKAH 100750Z 11003KT 8000 -DZ FEW006 BKN015 07/04 Q1006
25562017-05-090EKAH 090320Z AUTO 28003KT 9999NDV OVC093/// 00/M03 Q1021
25552017-05-082EKAH 082020Z AUTO 25003KT 9999NDV NCD 02/M05 Q1023
25542017-05-0718EKAH 071020Z AUTO 19004KT 130V230 9999NDV NCD 18/06 Q1013
25532017-05-0513EKAH 051420Z AUTO 03007KT 9999NDV OVC067/// 13/M03 Q1025
25522017-05-0313EKAH 031020Z 08014KT CAVOK 13/M02 Q1031
25512017-05-018EKAH 010750Z 09014KT CAVOK 08/01 Q1022
25502017-04-307EKAH 300720Z AUTO 16003KT 9999NDV FEW016/// BKN020/// 07/03 Q1023
25492017-04-295EKAH 282320Z AUTO 12002KT 9999NDV -DZ FEW011/// BKN023/// BKN063/// 05/04 Q1013
25482017-04-288EKAH 281850Z AUTO 12005KT 090V170 9999NDV -SHRA BKN024/// 08/04 Q1011
25472017-04-265EKAH 261150Z 30015KT 9999 SHRA BKN010CB 05/01 Q1011
25462017-04-253EKAH 250520Z 25010KT CAVOK 03/M04 Q0999
25452017-04-247EKAH 240650Z AUTO 21007G17KT 160V250 9999NDV DZ OVC015/// 07/05 Q1003
25442017-04-236EKAH 230720Z AUTO 30018KT 9999NDV BKN023/// 06/M01 Q1015
25432017-04-224EKAH 212250Z AUTO 29021KT 9999NDV NCD 04/M02 Q1013
25422017-04-2110EKAH 211220Z AUTO 27018G28KT 240V300 9999NDV BKN015/// 10/06 Q1015
25412017-04-163EKAH 162020Z AUTO 19004KT 110V230 5000NDV RA OVC007/// 03/01 Q1013
25402017-04-155EKAH 142320Z AUTO 13004KT 9999NDV -RA BKN019/// 05/03 Q1009
25392017-04-147EKAH 140720Z AUTO 29014KT 260V320 9999NDV BKN019/// 07/02 Q1007
25382017-04-136EKAH 130250Z AUTO 28013KT 9999NDV BKN025/// 06/03 Q1000
25372017-04-127EKAH 120420Z AUTO 25010KT 210V270 9999NDV -SHRA OVC008/// 07/07 Q1005
25362017-04-109EKAH 100620Z AUTO 28019KT 8000NDV BKN010/// BKN035/// 09/05 Q1006
25352017-04-079EKAH 070120Z AUTO 29018KT 9999NDV OVC008/// 09/06 Q1013
25342017-04-062EKAH 060250Z AUTO 29005KT 9999NDV NCD 02/M02 Q1019
25332017-04-057EKAH 050120Z AUTO 26007KT 9999NDV BKN039/// 07/04 Q1021
25322017-04-036EKAH 030020Z AUTO 27007KT 9999NDV NCD 06/04 Q1022
25312017-04-028EKAH 022020Z AUTO 29010KT 9999NDV OVC010/// 08/05 Q1021
25302017-03-285EKAH 280120Z AUTO 27007KT 7000NDV BKN001/// 05/05 Q1020
25292017-03-276EKAH 262150Z AUTO 26008KT 9000NDV BKN003/// 06/04 Q1025
25282017-03-2613EKAH 261620Z AUTO 17004KT 140V220 9999NDV NCD 13/04 Q1025
25272017-03-2511EKAH 251520Z AUTO 31010KT 280V340 9999NDV NCD 11/M00 Q1026
25262017-03-24-2EKAH 240620Z AUTO 26003KT 9999NDV NCD M02/M04 Q1030
25252017-03-231EKAH 222320Z AUTO 11001KT 6000NDV NCD 01/M01 Q1021
25242017-03-2210EKAH 221150Z AUTO 25010KT 220V290 9999NDV SCT045/// 10/M01 Q1014
25232017-03-215EKAH 210120Z AUTO 25010KT 220V280 9999NDV NCD 05/02 Q0995
25222017-03-206EKAH 200250Z AUTO 28013KT 9999NDV BKN012/// 06/05 Q0998
25212017-03-173EKAH 172150Z AUTO 24007KT 210V270 9999NDV NCD 03/01 Q0998
25202017-03-165EKAH 160420Z AUTO 26010KT 9000NDV FEW007/// SCT009/// BKN064/// 05/03 Q1020
25192017-03-156EKAH 150450Z AUTO 29020G30KT 9999NDV BKN027/// 06/01 Q1020
25182017-03-132EKAH 130450Z AUTO 14004KT 110V170 9999NDV BKN099/// 02/M00 Q1024
25172017-03-116EKAH 111320Z AUTO 12004KT 080V170 9999NDV BKN006/// 06/03 Q1026
25162017-03-105EKAH 100420Z AUTO 29014KT 9999NDV BKN012/// 05/03 Q1015
25152017-03-070EKAH 070520Z AUTO 04010KT 9999NDV OVC022/// M00/M05 Q1014
25142017-03-061EKAH 060620Z AUTO 07011KT 4000NDV -SN OVC005/// 01/00 Q1006
25132017-03-053EKAH 052150Z AUTO 10011KT 9999NDV OVC003/// 03/03 Q1003
25122017-03-037EKAH 031350Z AUTO 23007KT 180V270 9999NDV BKN016/// 07/04 Q1003
25112017-03-023EKAH 020250Z AUTO 18003KT 9999NDV BKN008/// 03/01 Q0994
25102017-03-014EKAH 011850Z AUTO 24007KT 200V270 9999NDV FEW020/// 04/01 Q0994
25092017-02-266EKAH 260350Z AUTO 25007KT 3100NDV BR BKN001/// 06/06 Q1000
25082017-02-243EKAH 241550Z AUTO 28008KT 9999NDV NCD 03/M06 Q1006 R99/290195
25072017-02-226EKAH 220750Z AUTO 27017G30KT 9999NDV BKN022/// 06/02 Q0988
25062017-02-217EKAH 210120Z AUTO 28021G33KT 9999NDV BKN016/// 07/03 Q0997
25052017-02-209EKAH 201750Z AUTO 27020G30KT 7000NDV OVC007/// 09/08 Q0995
25042017-02-196EKAH 190920Z 23007KT 200V270 5000 BKN002 06/06 Q1011
25032017-02-185EKAH 181520Z AUTO 23006KT 180V270 9999NDV OVC010/// 05/03 Q1020
25022017-02-164EKAH 160950Z AUTO 20005KT 150V250 2200NDV -SHRA BR BKN002/// 04/04 Q1021
25012017-02-15-3EKAH 150520Z AUTO 15003KT 3200NDV BR NCD M03/M03 Q1033
25002017-02-13-7EKAH 130220Z AUTO 00000KT 9999NDV BKN016/// M07/M09 Q1041
24992017-02-110EKAH 110820Z AUTO 09016KT 9999NDV NCD 00/M04 Q1034 R99/0///95
24982017-02-08-2EKAH 080550Z AUTO 07017G27KT 9999NDV -SN BKN019/// OVC045/// M02/M06 Q1034
24972017-02-07-1EKAH 071420Z AUTO 08016KT 9999NDV -SN BKN025/// M01/M07 Q1030 R88/CLRD//
24962017-02-052EKAH 051620Z AUTO 07009KT 5000NDV -SHRA OVC004/// 02/02 Q1011
24952017-02-042EKAH 040220Z AUTO 11010KT 1800NDV BR OVC002/// 02/02 Q1004
24942017-02-020EKAH 012350Z AUTO 17007KT 120V210 2700NDV BR BKN003/// 00/M01 Q1016
24932017-01-312EKAH 311650Z AUTO 09006KT 7000NDV OVC008/// 02/01 Q1022
24922017-01-302EKAH 300150Z AUTO 20003KT 9999NDV BKN036/// 02/02 Q1015
24912017-01-28-3EKAH 280120Z AUTO 08001KT 0150NDV R10R/0275N R28L/P1500N FZBCFG VV007 M03/M05 Q1021
24902017-01-261EKAH 262150Z AUTO 15005KT 120V180 9999NDV OVC006/// 01/M00 Q1028
24892017-01-252EKAH 250420Z AUTO 25005KT 220V290 5000NDV OVC006/// 02/02 Q1029 R99/350194
24882017-01-243EKAH 241750Z AUTO 22004KT 190V250 3600NDV BR FEW034/// 03/03 Q1027
24872017-01-225EKAH 220850Z AUTO 22001KT 9999NDV OVC016/// 05/03 Q1028
24862017-01-216EKAH 211420Z AUTO 29004KT 260V330 9999NDV OVC006/// 06/06 Q1030
24852017-01-206EKAH 200620Z AUTO 27009KT 9999NDV NCD 06/04 Q1031
24842017-01-195EKAH 191650Z AUTO 25008KT 9999NDV NCD 05/03 Q1032
24832017-01-185EKAH 181250Z AUTO 25009KT 210V280 6000NDV OVC007/// 05/02 Q1034
24822017-01-122EKAH 120820Z AUTO 24009KT 210V280 9999NDV -SHRA BKN029/// 02/00 Q0990
24812017-01-114EKAH 110250Z AUTO 19010G20KT 120V240 3300NDV BR OVC004/// 04/03 Q1002
24802017-01-103EKAH 101720Z AUTO 20006KT 140V260 5000NDV OVC005/// 03/03 Q1007
24792017-01-093EKAH 090150Z AUTO 22005KT 180V250 5000NDV BKN003/// OVC018/// 03/03 Q1025
24782017-01-073EKAH 071850Z AUTO 02007KT 9999NDV OVC004/// 03/02 Q1023 R99/510195
24772017-01-05-5EKAH 051050Z AUTO 02006KT 9999NDV BKN031/// M05/M10 Q1035 R99/950394
24762017-01-043EKAH 040820Z AUTO 35019G30KT 9999NDV BKN027/// 03/M03 Q0996
24752017-01-020EKAH 022020Z AUTO 26006KT 9999NDV FEW099/// M00/M02 Q1014
24742017-01-018EKAH 312350Z AUTO 24009KT 210V270 6000NDV OVC008/// 08/06 Q1012
24732016-12-3110EKAH 311320Z AUTO 26015G30KT 230V290 9999NDV OVC013/// 10/06 Q1018
24722016-12-307EKAH 301050Z AUTO 25008KT 220V280 9999NDV OVC013/// 07/04 Q1029
24712016-12-286EKAH 281050Z AUTO 29009KT 9999NDV BKN005/// 06/06 Q1038
24702016-12-276EKAH 270920Z AUTO 29017KT 9999NDV NCD 06/M03 Q1023
24692016-12-2610EKAH 260020Z AUTO 25011KT 220V280 9000NDV OVC011/// 10/08 Q1006
24682016-12-253EKAH 250250Z AUTO 25008KT 9999NDV FEW082/// 03/00 Q1009
24672016-12-243EKAH 242120Z AUTO 25010G22KT 220V280 9999NDV FEW038/// BKN076/// 03/01 Q1007
24662016-12-226EKAH 221450Z AUTO 22008KT 180V260 9999NDV FEW025/// 06/04 Q1020
24652016-12-211EKAH 210650Z AUTO 19007KT 140V240 6000NDV OVC009/// 01/M02 Q1018
24642016-12-205EKAH 200150Z AUTO 22004KT 190V260 9999NDV OVC018/// 05/02 Q1029
24632016-12-196EKAH 191750Z AUTO 20002KT 9999NDV OVC021/// 06/04 Q1029
24622016-12-185EKAH 181350Z AUTO 30002KT 9000NDV BKN002/// 05/04 Q1031
24612016-12-152EKAH 151150Z AUTO 17004KT 140V220 9999NDV OVC003/// 02/02 Q1031
24602016-12-142EKAH 140250Z AUTO 30001KT 0200NDV R10R/P1500D R28L/0375N FG NCD 02/02 Q1022
24592016-12-124EKAH 120420Z AUTO 07009KT 9999NDV OVC022/// 04/M01 Q1021
24582016-12-1010EKAH 100820Z AUTO 27013KT 9999NDV OVC010/// 10/09 Q1012
24572016-12-098EKAH 082350Z AUTO 25007KT 230V290 9999NDV OVC008/// 08/07 Q1017
24562016-12-073EKAH 062320Z AUTO 18001KT 3800NDV BR OVC003/// 03/03 Q1031 R99/310195
24552016-12-065EKAH 060020Z AUTO 30006KT 8000NDV FEW170/// SCT190/// 05/04 Q1023
24542016-12-055EKAH 051850Z AUTO 28010KT 9999NDV SCT015/// 05/02 Q1021
24532016-12-034EKAH 031320Z AUTO 30007KT 9999NDV FEW094/// 04/M01 Q1023
24522016-12-026EKAH 020020Z AUTO 33015KT 9999NDV BKN059/// 06/M03 Q1011
24512016-11-306EKAH 301520Z AUTO 28008KT 9999NDV -RA BKN007/// 06/04 Q1017
24502016-11-296EKAH 291050Z AUTO 25008KT 220V280 9999NDV BKN034/// 06/02 Q1027
24492016-11-276EKAH 271650Z AUTO 36016G26KT 9999NDV FEW059/// 06/M07 Q1021
24482016-11-246EKAH 241620Z AUTO 29007KT 9999NDV NCD 06/04 Q1026
24472016-11-237EKAH 232020Z AUTO 28008KT 9999NDV FEW170/// 07/01 Q1021
24462016-11-229EKAH 220050Z AUTO 13009KT 9999NDV BKN069/// 09/04 Q1004
24452016-11-205EKAH 192250Z AUTO 20005KT 100V250 9999NDV FEW012/// BKN080/// 05/01 Q1002
24442016-11-185EKAH 181650Z AUTO 20005KT 140V260 9999NDV SCT031/// BKN049/// 05/01 Q0990
24432016-11-177EKAH 172150Z AUTO 16012G24KT 100V220 9999NDV -SHRA SCT011/// BKN030/// BKN057/// 07/03 Q0990
24402016-08-0213EKAH 020520Z 24004KT 170V270 9999 FEW013 13/11 Q1013
24392016-08-0118EKAH 010820Z AUTO 24008KT 180V270 9999NDV SCT020/// 18/10 Q1012
24382016-07-3119EKAH 311120Z AUTO 25006KT 220V290 9999NDV FEW035/// SCT048/// SCT055/// BKN073/// 19/09 Q1011
24372016-07-2921EKAH 291350Z AUTO 13005KT 9999NDV BKN030/// 21/13 Q1008
24362016-07-2817EKAH 272250Z AUTO 18002KT 9000NDV BKN029/// 17/15 Q1012
24352016-07-2719EKAH 270820Z 18006KT 140V230 9999 FEW030 BKN090 19/11 Q1017
24342016-07-2620EKAH 252150Z AUTO 25004KT 220V280 9999NDV BKN040/// 20/16 Q1017
24332016-07-2517EKAH 250220Z AUTO 13001KT 9999NDV NCD 17/14 Q1019
24322016-07-2426EKAH 241150Z AUTO 17005KT 110V210 9999NDV NCD 26/07 Q1021
24312016-07-2318EKAH 222320Z AUTO 11002KT 9999NDV BKN170/// 18/10 Q1020
24302016-07-2227EKAH 221320Z AUTO 14005KT 090V190 9999NDV SCT091/// 27/09 Q1019
24292016-07-2118EKAH 202250Z AUTO 11005KT 9999NDV NCD 18/14 Q1017
24282016-07-2014EKAH 200020Z AUTO 00000KT 1300NDV R10R/0650D R28L/P1500D BCFG NCD 14/12 Q1020
24272016-07-1920EKAH 191050Z AUTO 29005KT 230V350 9999NDV BKN026/// BKN058/// 20/12 Q1020
24262016-07-1816EKAH 180750Z AUTO 27010KT 250V310 9999NDV FEW017/// BKN056/// BKN100/// 16/11 Q1017
24252016-07-1717EKAH 171350Z AUTO 24007KT 210V290 9999NDV SCT038/// BKN058/// 17/10 Q1016
24242016-07-1617EKAH 160950Z AUTO 21005KT 160V250 9999NDV BKN005/// 17/15 Q1016
24232016-07-1418EKAH 141320Z AUTO 27010KT 9999NDV SCT019/// BKN043/// 18/11 Q1011
24222016-07-1312EKAH 130350Z AUTO 25006KT 9999NDV NCD 12/09 Q1010
24212016-07-1216EKAH 112220Z AUTO 24009G23KT 180V270 9999NDV -SHRA BKN010/// BKN041/// 16/13 Q1003
24202016-07-1120EKAH 111620Z AUTO 22009KT 160V260 9999NDV SCT031/// SCT041/// BKN075/// 20/12 Q1003
24192016-07-1017EKAH 100720Z AUTO 20004KT 150V260 9000NDV RA OVC003/// 17/15 Q1007
24182016-07-0820EKAH 081120Z AUTO 19004KT 120V250 9999NDV FEW017/// BKN022/// 20/12 Q1010
24172016-07-0716EKAH 071950Z AUTO 25007KT 220V280 9999NDV BKN019/// BKN059/// 16/12 Q1015
24162016-07-0612EKAH 060050Z AUTO 29005KT 9999NDV -RA OVC006/// 12/10 Q1005 RERA
24152016-07-0515EKAH 050950Z AUTO 14005KT 9999NDV -SHRA OVC076/// 15/10 Q1011
24142016-07-0415EKAH 041220Z AUTO 30005KT 270V330 9999NDV -SHRA BKN033/// BKN070/// 15/11 Q1017 RESHRA
24132016-07-0312EKAH 030350Z AUTO 21005KT 170V250 9999NDV FEW078/// 12/07 Q1012
24122016-07-0214EKAH 021950Z AUTO 23005KT 180V270 9999NDV FEW035/// 14/07 Q1011
24112016-07-0115EKAH 302220Z AUTO 22003KT 9999NDV OVC064/// 15/11 Q1010
24102016-06-2913EKAH 290320Z AUTO 13003KT 9999NDV BKN130/// 13/10 Q1011
24092016-06-2815EKAH 280620Z AUTO 27006KT 230V300 9999NDV FEW016/// 15/10 Q1016
24082016-06-2614EKAH 260250Z AUTO 24011KT 210V270 9999NDV OVC007/// 14/12 Q1007
24072016-06-2518EKAH 251020Z AUTO 36007KT 330V030 9999NDV BKN012/// 18/13 Q1016
24062016-06-2425EKAH 241420Z AUTO 19007KT 150V230 9999NDV FEW044/// 25/18 Q1015
24052016-06-2318EKAH 232050Z AUTO 11001KT 0150NDV R10R/0450N R28L/0600N FG NCD 18/16 Q1017
24042016-06-2215EKAH 220550Z AUTO 16002KT 9999NDV OVC051/// 15/13 Q1021
24032016-06-2115EKAH 210120Z AUTO 19005KT 140V240 9999NDV -RA OVC006/// 15/13 Q1011
24022016-06-2015EKAH 202020Z AUTO 18007KT 140V220 4500NDV RA OVC005/// 15/13 Q1012
24012016-06-1913EKAH 182250Z AUTO 26011G22KT 220V280 9999NDV BKN024/// 13/06 Q1013
24002016-06-1711EKAH 162320Z AUTO 09001KT 0150NDV R10R/0450D R28L/P1500U FG SCT002/// BKN086/// 11/09 Q1003
23992016-06-1616EKAH 161620Z AUTO 33004KT 290V010 9999NDV BKN060/// 16/12 Q1003
23982016-06-1515EKAH 150420Z AUTO 10004KT 5000NDV OVC006/// 15/13 Q0999
23972016-06-1415EKAH 140120Z AUTO 10008KT 9999NDV NCD 15/10 Q1003
23962016-06-1311EKAH 122150Z AUTO 00000KT 9999NDV NCD 11/05 Q1011
23952016-06-128EKAH 112150Z AUTO 00000KT 9999NDV NCD 08/04 Q1014
23942016-06-1016EKAH 101220Z AUTO 35010KT 300V040 9999NDV NCD 16/01 Q1011
23932016-06-0919EKAH 091620Z AUTO 26011KT 230V300 9999NDV NCD 19/01 Q1012
23922016-06-0811EKAH 072250Z AUTO 28006KT 9999NDV NCD 11/08 Q1018
23912016-06-0720EKAH 071150Z AUTO 17007KT 140V220 9999NDV SCT055/// 20/08 Q1022
23902016-06-0415EKAH 032220Z AUTO 00000KT 9999NDV NCD 15/10 Q1016
23892016-06-0315EKAH 030350Z AUTO 02001KT 9999NDV BCFG NCD 15/13 Q1017
23882016-06-0217EKAH 020020Z AUTO 00000KT 3500NDV BR NCD 17/15 Q1016
23872016-05-3123EKAH 311420Z AUTO 08007KT 040V120 9999NDV FEW043/// SCT170/// 23/14 Q1016
23862016-05-3021EKAH 301050Z AUTO 07012KT 9999NDV SCT110/// 21/14 Q1013
23852016-05-2920EKAH 291420Z AUTO 03009KT 010V070 9999NDV NCD 20/12 Q1014
23842016-05-277EKAH 270020Z AUTO 27002KT 9999NDV NCD 07/04 Q1019
23832016-05-2614EKAH 260820Z AUTO 07008KT 9999NDV BKN012/// 14/08 Q1018
23822016-05-2514EKAH 250850Z AUTO 01009KT 340V040 9999NDV OVC005/// 14/11 Q1015
23812016-05-2317EKAH 222350Z AUTO 12001KT 9000NDV -SHRA NCD 17/14 Q1007
23802016-05-2214EKAH 220250Z AUTO 13004KT 1800NDV RA OVC038/// 14/12 Q1011 RERA
23792016-05-2110EKAH 210220Z AUTO 26003KT 5000NDV BKN007/// BKN076/// 10/08 Q1014
23782016-05-2014EKAH 201020Z AUTO 18005KT 130V230 5000NDV BKN018/// 14/10 Q1011
23772016-05-1915EKAH 190720Z AUTO 14002KT 9999NDV SCT090/// 15/09 Q1010
23762016-05-188EKAH 180420Z AUTO 22003KT 9999NDV NCD 08/05 Q1010
23752016-05-177EKAH 170120Z AUTO 27008KT 9999NDV NCD 07/02 Q1009
23742016-05-169EKAH 161920Z AUTO 28012KT 9999NDV FEW120/// 09/02 Q1011
23732016-05-1510EKAH 150750Z AUTO 32008KT 280V360 9999NDV -SHRA BKN032/// 10/04 Q1008
23722016-05-1411EKAH 141050Z AUTO 34016G26KT 9999NDV BKN032/// 11/01 Q1004
23712016-05-137EKAH 130420Z AUTO 27002KT 9999NDV NCD 07/05 Q1005
23702016-05-1218EKAH 121650Z AUTO 05004KT 010V080 9999NDV NCD 18/M03 Q1008
23692016-05-1019EKAH 100950Z AUTO 09005KT 9999NDV NCD 19/05 Q1019
23682016-05-0911EKAH 082250Z AUTO 11003KT 9999NDV NCD 11/06 Q1025
23672016-05-0823EKAH 081150Z AUTO 14008KT 100V170 9999NDV NCD 23/05 Q1023
23662016-05-0712EKAH 062220Z AUTO 12006KT 9999NDV NCD 12/03 Q1020
23652016-05-0618EKAH 061450Z AUTO 09010KT 9999NDV NCD 18/03 Q1021
23642016-05-053EKAH 050020Z AUTO 00000KT 0800NDV R10R/P1500N R28L/P1500N FZFG NCD 03/00 Q1029
23632016-05-0414EKAH 041220Z AUTO VRB01KT 9999NDV BKN047/// 14/01 Q1029
23622016-05-0210EKAH 020650Z AUTO 17004KT 120V230 9999NDV SCT130/// 10/M00 Q1026
23612016-05-0112EKAH 011620Z AUTO 15005KT 110V210 9999NDV NCD 12/02 Q1028
23602016-04-304EKAH 292320Z AUTO 19005KT 120V220 7000NDV RA BKN013/// 04/02 Q1016
23592016-04-294EKAH 282250Z AUTO 24006KT 210V270 9999NDV FEW012/// SCT040/// 04/02 Q1011
23582016-04-282EKAH 280150Z AUTO 29003KT 3700NDV -SHRA BR FEW001/// SCT015/// BKN022/// 02/01 Q1006
23572016-04-276EKAH 271050Z AUTO 05014KT 9999NDV BKN015/// 06/01 Q1000
23562016-04-263EKAH 261250Z AUTO 09019G30KT 5000NDV -RA BKN007/// 03/01 Q0998 RERA
23552016-04-240EKAH 240050Z AUTO 27004KT 9999NDV NCD M00/M03 Q1008
23542016-04-23-1EKAH 230320Z AUTO 28002KT 1400NDV R10R/1400U R28L/0600D FZBCFG BKN076/// M01/M04 Q1011
23532016-04-225EKAH 220020Z AUTO 28014KT 9999NDV NCD 05/01 Q1016
23522016-04-2110EKAH 211050Z AUTO 27016KT 9999NDV BKN030/// 10/02 Q1022
23512016-04-205EKAH 200520Z AUTO 29010KT 9999NDV NCD 05/01 Q1024
23502016-04-197EKAH 191950Z AUTO 28011KT 9999NDV NCD 07/02 Q1019
23492016-04-184EKAH 180020Z AUTO 25010KT 220V280 9999NDV FEW039/// 04/M00 Q1011
23482016-04-177EKAH 171750Z AUTO 28017KT 9999NDV BKN033/// 07/M01 Q1007
23472016-04-168EKAH 160350Z AUTO 10002KT 0150NDV R10R/0450D R28L/0500N FG VV001 08/06 Q0998
23462016-04-157EKAH 150820Z AUTO 14007KT 100V170 5000NDV FEW005/// BKN027/// 07/05 Q1003
23452016-04-1312EKAH 131550Z AUTO 05006KT 9999NDV BKN071/// BKN100/// 12/M02 Q1009
23442016-04-12-1EKAH 120150Z AUTO 00000KT 2100NDV BR FEW002/// M01/M03 Q1019
23432016-04-103EKAH 100250Z AUTO 11002KT 1200NDV R10R/P1500U R28L/P1500N FZBCFG FEW002/// 03/02 Q1016
23422016-04-099EKAH 091420Z AUTO 19006KT 150V240 9999NDV BKN050/// 09/01 Q1011
23412016-04-077EKAH 071320Z AUTO 21009KT 170V260 9999NDV DZ BKN015/// 07/04 Q1000 RERA
23402016-04-067EKAH 060050Z AUTO 25004KT 4300NDV -RA SCT003/// BKN025/// 07/06 Q1001
23392016-04-057EKAH 052020Z AUTO 34003KT 3200NDV RA FEW002/// BKN029/// 07/05 Q1003
23382016-04-044EKAH 040150Z AUTO 00000KT 1300NDV R10R/P1500N R28L/P1500N BCFG FEW045/// 04/01 Q1010
23372016-04-035EKAH 030620Z AUTO 04001KT 6000NDV DZ BKN077/// 05/03 Q1014
23362016-04-026EKAH 012320Z AUTO 18002KT 9999NDV OVC130/// 06/01 Q1021
23352016-04-018EKAH 011620Z AUTO 18005KT 140V220 9999NDV NCD 08/M01 Q1021
23342016-03-306EKAH 301720Z AUTO 17001KT 9999NDV -SHRA FEW015/// BKN023/// 06/03 Q1003
23332016-03-2910EKAH 291150Z AUTO 23006KT 9999NDV BKN035/// 10/04 Q0999
23322016-03-288EKAH 281820Z AUTO 15011KT 110V180 9999NDV DZ BKN031/// 08/05 Q0993
23312016-03-277EKAH 271150Z AUTO 21005KT 140V260 3600NDV -SHRA BKN006/// 07/05 Q1003
23302016-03-263EKAH 260650Z AUTO 21003KT 4500NDV BR VV002 03/02 Q1015
23292016-03-255EKAH 251950Z AUTO 27010KT 9999NDV NCD 05/01 Q1011
23282016-03-24-3EKAH 240250Z AUTO 00000KT 6000NDV NCD M03/M05 Q1011
23272016-03-225EKAH 220020Z AUTO 28009KT 9999NDV BKN010/// BKN049/// 05/02 Q1007
23262016-03-2110EKAH 211320Z AUTO 29017KT 9999NDV BKN031/// BKN077/// 10/01 Q1007
23252016-03-192EKAH 190920Z AUTO 24005KT 190V290 7000NDV BKN001/// 02/01 Q1018
23242016-03-171EKAH 170050Z AUTO 23004KT 200V260 7000NDV NCD 01/M00 Q1032
23232016-03-1410EKAH 141620Z AUTO 35004KT 9999NDV OVC130/// 10/04 Q1032
23222016-03-137EKAH 131350Z AUTO 26006KT 230V300 9999NDV BKN056/// 07/02 Q1039
23212016-03-120EKAH 120920Z AUTO VRB01KT 0900NDV R10R/0700N R28L/0900U FG VV002 00/M01 Q1036
23202016-03-102EKAH 100950Z AUTO 06004KT 030V090 5000NDV BKN007/// 02/M00 Q1026
23192016-03-095EKAH 091320Z AUTO 13007KT 090V170 6000NDV BKN013/// 05/01 Q1014
23182016-03-083EKAH 081150Z AUTO 24004KT 180V280 9999NDV OVC013/// 03/M01 Q1011
23172016-03-071EKAH 070250Z AUTO 28003KT 2700NDV -SN BKN001/// 01/M00 Q0996
23162016-03-052EKAH 050420Z AUTO 10013KT 7000NDV BKN008/// 02/M00 Q1000
23152016-03-044EKAH 041520Z AUTO 12004KT 9999NDV OVC011/// 04/M00 Q1003
23142016-03-024EKAH 020950Z AUTO 16007KT 120V200 4300NDV -RA OVC002/// 04/03 Q0991 R99/190195
23132016-02-28-2EKAH 272320Z AUTO 18002KT 5000NDV NCD M02/M04 Q1016
23122016-02-27-2EKAH 270620Z AUTO 26001KT 9999NDV NCD M02/M04 Q1012
23112016-02-266EKAH 261150Z AUTO 27015KT 9999NDV NCD 06/M03 Q1008
23102016-02-251EKAH 250750Z AUTO 24007KT 210V280 9999NDV BKN037/// 01/M02 Q1005
23092016-02-242EKAH 240620Z AUTO 27013KT 9999NDV SCT029/// 02/M02 Q1007
23082016-02-233EKAH 230350Z AUTO 25009KT 9999NDV BKN016/// 03/01 Q0998
23072016-02-224EKAH 221750Z AUTO 26014G25KT 9999NDV -SHRA BKN016/// 04/01 Q0994
23062016-02-202EKAH 200420Z AUTO 16012KT 130V220 3500NDV -RA BR BKN006/// 02/01 Q1003
23052016-02-191EKAH 190120Z AUTO 18003KT 3400NDV BR BKN057/// 01/M01 Q1016
23042016-02-170EKAH 170750Z AUTO 18006KT 110V240 9999NDV BKN017/// 00/M04 Q1031 R99/390194
23032016-02-160EKAH 161750Z AUTO 18003KT 9999NDV NCD 00/M03 Q1036
23022016-02-15-1EKAH 150950Z AUTO 02010KT 9999NDV BKN021/// M01/M06 Q1016
23012016-02-13-8EKAH 130650Z AUTO 14001KT 9999NDV NCD M08/M10 Q0999
23002016-02-121EKAH 120920Z AUTO 33005KT 300V360 9999NDV FEW026/// 01/M04 Q1002
22992016-02-111EKAH 102320Z AUTO 28001KT 0100NDV R10R/0325N R28L/0550D FZFG VV001 01/M00 Q0991
22982016-02-103EKAH 101832Z 22002KT 9999 FEW020 03/01 Q0989
22972016-02-096EKAH 091420Z AUTO 21006KT 150V250 9999NDV BKN024/// 06/03 Q0983
22962016-02-075EKAH 070250Z AUTO 16007KT 110V190 8000NDV NCD 05/03 Q0997
22952016-02-067EKAH 060950Z 20008KT 140V250 5000 -DZ FEW005 OVC007 07/06 Q1006
22942016-02-046EKAH 041150Z AUTO 30014KT 270V330 9999NDV FEW024/// 06/M02 Q1011
22932016-02-036EKAH 030320Z AUTO 27021G36KT 9999NDV SCT022/// BKN100/// 06/01 Q0995
22922016-02-026EKAH 022050Z AUTO 25014G25KT 220V280 8000NDV -SHRA BKN013/// 06/03 Q0988
22912016-02-011EKAH 010720Z AUTO 21004KT 180V250 9999NDV SCT100/// BKN110/// 01/M01 Q1006 R99/190095
22902016-01-314EKAH 311320Z AUTO 25008KT 210V280 9999NDV BKN012/// 04/01 Q0996
22892016-01-298EKAH 291920Z AUTO 25012G22KT 210V280 9999NDV BKN031/// 08/02 Q1004
22882016-01-279EKAH 270220Z AUTO 25013KT 210V270 7000NDV BKN012/// 09/07 Q1000
22872016-01-258EKAH 251220Z AUTO 23002KT 0700NDV R10R/0700D R28L/P1500D FG VV002 08/07 Q1020
22862016-01-242EKAH 240320Z AUTO 21004KT 180V260 1800NDV BR VV002 02/01 Q1026 R10/190095
22852016-01-23-1EKAH 230720Z AUTO 17003KT 3100NDV -SN BR OVC024/// M01/M03 Q1022 R99/490395
22842016-01-22-3EKAH 212320Z AUTO 21002KT 1800NDV BR OVC001/// M03/M04 Q1028 R99/910395
22832016-01-21-3EKAH 212050Z AUTO 24003KT 0200NDV R10R/0600N R28L/0800U FZFG VV001 M03/M04 Q1028 R99/910395
22822016-01-20-10EKAH 202220Z AUTO 27004KT 7000NDV NCD M10/M11 Q1020 R99/910395
22812016-01-191EKAH 190050Z AUTO 21009KT 160V260 9999NDV -RA OVC046/// 01/M03 Q1011 R99/390195
22802016-01-17-9EKAH 170520Z AUTO 26003KT 9999NDV NCD M09/M11 Q1023 R99/910195
22792016-01-14-1EKAH 142120Z AUTO 08011KT 9999NDV OVC006/// M01/M03 Q1007 R99/910295
22782016-01-130EKAH 130550Z AUTO 05009KT 9999NDV FEW017/// FEW024/// SCT027/// BKN084/// M00/M04 Q1002 R10/710195
22772016-01-123EKAH 121220Z AUTO 09006KT 6000NDV DZ OVC005/// 03/01 Q0993
22762016-01-102EKAH 101920Z AUTO 14004KT 110V180 1000NDV R10R/P1500N R28L/P1500N BR VV002 02/01 Q0991
22752016-01-091EKAH 090820Z AUTO 11006KT 7000NDV BKN003/// 01/M00 Q1002 R99/590293
22742016-01-080EKAH 081820Z AUTO 36004KT 320V030 9999NDV SCT007/// BKN026/// 00/M01 Q0999 R99/950395
22732016-01-070EKAH 071120Z AUTO 12010KT 080V150 9999NDV -SN BKN017/// M00/M04 Q1005
22722016-01-06-2EKAH 061820Z AUTO 08009KT 9999NDV FEW018/// BKN049/// M02/M07 Q1010
22712016-01-04-1EKAH 041620Z AUTO 11012KT 9999NDV NCD M01/M10 Q1002
22702016-01-03-2EKAH 030650Z AUTO 11017G27KT 080V140 9999NDV BKN024/// M02/M09 Q1023
22692016-01-02-1EKAH 021450Z AUTO 11016G26KT 9999NDV OVC023/// M01/M07 Q1027
22682016-01-016EKAH 010020Z AUTO 16004KT 130V200 3500NDV BR BKN008/// BKN200/// 06/04 Q1020
22672015-12-295EKAH 290420Z AUTO 12016G26KT 090V160 9999NDV OVC016/// 05/00 Q1032
22662015-12-283EKAH 280720Z AUTO 36005KT 9999NDV BKN019/// 03/M01 Q1031
22652015-12-265EKAH 261120Z AUTO 35001KT 9999NDV DZ OVC051/// 05/03 Q1015
22642015-12-239EKAH 230520Z AUTO 24005KT 190V260 9999NDV OVC067/// 09/08 Q1004
22632015-12-228EKAH 220320Z AUTO 27019G30KT 9999NDV BKN034/// 08/02 Q1007
22622015-12-218EKAH 212020Z AUTO 18007G17KT 140V230 9000NDV -RA BKN009/// 08/06 Q0999
22612015-12-2012EKAH 200550Z AUTO 19008KT 140V230 9999NDV BKN150/// 12/08 Q1010
22602015-12-1912EKAH 191650Z AUTO 23007KT 180V290 9999NDV OVC006/// 12/10 Q1012
22592015-12-1810EKAH 180220Z AUTO 23008KT 180V280 9000NDV BKN021/// BKN140/// 10/08 Q1010
22582015-12-150EKAH 152150Z AUTO 12002KT 1100NDV R10R/0700D R28L/P1500N FZFG SCT028/// 00/M01 Q1029
22572015-12-144EKAH 141220Z AUTO 16003KT 9999NDV BKN110/// 04/03 Q1022
22562015-12-134EKAH 122320Z AUTO 20002KT 9999NDV -DZ OVC073/// 04/03 Q1008
22552015-12-124EKAH 122150Z AUTO 19002KT 9999NDV OVC058/// 04/01 Q1009
22542015-12-117EKAH 110020Z AUTO 24007KT 190V270 9999NDV FEW042/// BKN110/// 07/04 Q1014
22532015-12-108EKAH 101620Z AUTO 21008KT 160V260 7000NDV -RA BKN005/// BKN037/// 08/07 Q1016
22522015-12-097EKAH 090820Z AUTO 25008KT 210V270 9999NDV FEW015/// FEW039/// 07/05 Q1023
22512015-12-089EKAH 081250Z AUTO 16007KT 110V210 2900NDV BR OVC002/// 09/07 Q1025
22502015-12-0611EKAH 061150Z AUTO 23011G26KT 170V270 9000NDV DZ OVC015/// 11/08 Q1003
22492015-12-0310EKAH 031220Z AUTO 14002KT 2400NDV -SHRA BR OVC001/// 10/08 Q1021
22482015-12-014EKAH 012120Z AUTO 24003KT 9999NDV OVC100/// 04/01 Q1017
22472015-11-303EKAH 302120Z AUTO 25008KT 210V270 9999NDV FEW055/// 03/M00 Q1001
22462015-11-220EKAH 220920Z AUTO 03024G35KT 0500NDV R10R/0800N R28L/0800N SN VV004 M00/M01 Q1002 R10/590591
22452015-11-214EKAH 211250Z AUTO 05011KT 9999NDV SCT024/// 04/M02 Q0997
22442015-11-206EKAH 200950Z AUTO 36003KT 9999NDV OVC026/// 06/03 Q0998
22432015-11-178EKAH 171920Z AUTO 18003KT 9999NDV BKN038/// BKN140/// 08/05 Q0996
22422015-11-158EKAH 151420Z 27004KT CAVOK 08/05 Q1002
22412015-11-1312EKAH 130950Z AUTO 21010G21KT 160V270 4700NDV -SHRA BR BKN006/// BKN058/// 12/10 Q1008
22402015-11-0913EKAH 092120Z AUTO 27016KT 9999NDV SCT024/// BKN084/// 13/08 Q1005
22392015-11-0811EKAH 080820Z AUTO 27016KT 9999NDV NCD 11/06 Q1021
22382015-11-0713EKAH 070450Z AUTO 23005KT 190V270 3300NDV BR OVC003/// 13/11 Q1013
22372015-11-0510EKAH 051050Z AUTO 16002KT 4800NDV -SHRA BKN005/// BKN045/// 10/08 Q1020
22362015-11-046EKAH 040150Z AUTO 29002KT 3200NDV BR OVC004/// 06/04 Q1020
22352015-11-0112EKAH 011150Z AUTO 23004KT 190V260 4600NDV BR OVC014/// 12/09 Q1028
22342015-10-318EKAH 310450Z AUTO 14004KT 120V180 1900NDV BR BKN006/// 08/06 Q1033
22332015-10-3010EKAH 301150Z AUTO 14004KT 090V180 9000NDV OVC014/// 10/06 Q1031
22322015-10-299EKAH 290020Z AUTO 11009KT 080V140 9999NDV FEW015/// FEW190/// 09/05 Q1017
22312015-10-279EKAH 272020Z 11008KT CAVOK 09/05 Q1022
22302015-10-267EKAH 261720Z AUTO 14002KT 9999NDV NCD 07/05 Q1025
22292015-10-2211EKAH 221920Z AUTO 24009KT 220V280 8000NDV -RA BKN026/// 11/08 Q1006
22282015-10-193EKAH 182150Z AUTO 27003KT 0150NDV R10R/0650D R28L/0600N BCFG VV001 03/02 Q1021
22272015-10-1711EKAH 171320Z AUTO 06006KT 8000NDV BKN008/// BKN033/// 11/08 Q1021
22262015-10-1610EKAH 161420Z AUTO 04010KT 9999NDV BKN021/// 10/06 Q1021
22252015-10-1510EKAH 142220Z AUTO 09010KT 9999NDV BKN140/// 10/04 Q1027
22242015-10-1210EKAH 121350Z AUTO 10007KT 080V140 9999NDV OVC049/// 10/00 Q1026
22232015-10-0613EKAH 061620Z AUTO 10023G34KT 070V130 9999NDV OVC023/// 13/06 Q1013
22222015-10-059EKAH 050420Z AUTO 10001KT 0100NDV R10R/0400N R28L/0325N FG VV001 09/08 Q1016
22212015-10-0111EKAH 011950Z AUTO 27009KT 9999NDV BKN012/// 11/08 Q1028
22202015-09-307EKAH 300020Z AUTO VRB01KT 9999NDV NCD 07/04 Q1039
22192015-09-295EKAH 282250Z AUTO 00000KT 0400NDV R10R/0450N R28L/0250N FG VV001 05/03 Q1040
22182015-09-2816EKAH 281050Z AUTO 00000KT 9999NDV NCD 16/05 Q1039
22172015-09-259EKAH 250350Z AUTO 20002KT 9999NDV NCD 09/07 Q1015
22162015-09-2414EKAH 240850Z AUTO 19004KT 140V240 6000NDV BKN008/// 14/12 Q1011
22152015-09-2316EKAH 231120Z AUTO 18005KT 130V250 9999NDV BKN017/// 16/11 Q1007
22142015-09-2214EKAH 221720Z AUTO 15003KT 7000NDV BKN009/// BKN035/// 14/11 Q1002
22132015-09-2114EKAH 211020Z AUTO 23005KT 190V280 9999NDV BKN039/// BKN053/// 14/06 Q1013
22122015-09-1913EKAH 192020Z AUTO 25008KT 210V280 9999NDV -SHRA BKN062/// 13/07 Q1017
22112015-09-1616EKAH 160820Z AUTO 17009KT 130V220 9999NDV NCD 16/09 Q1002
22102015-09-1514EKAH 150620Z AUTO 21004KT 150V250 9999NDV FEW015/// FEW100/// 14/10 Q1001
22092015-09-1416EKAH 140120Z AUTO 10008KT 4000NDV BR BKN007/// BKN052/// 16/13 Q1008
22082015-09-1315EKAH 131450Z AUTO 12009KT 080V170 4300NDV BR OVC004/// 15/13 Q1012
22072015-09-1017EKAH 101350Z AUTO 09007KT 050V120 9999NDV NCD 17/07 Q1030
22062015-09-0910EKAH 090650Z AUTO 28001KT 9999NDV NCD 10/08 Q1028
22052015-09-077EKAH 070250Z AUTO 28005KT 9999NDV NCD 07/04 Q1018
22042015-09-0513EKAH 042150Z AUTO 10005KT 4100NDV +RA BKN006/// 13/11 Q1005
22032015-08-3013EKAH 300550Z AUTO VRB01KT 9999NDV NCD 13/10 Q1020
22022015-08-2620EKAH 261150Z AUTO 18007KT 140V250 9999NDV SCT015/// SCT035/// BKN180/// 20/14 Q1010
22012015-08-2519EKAH 242250Z AUTO 12010KT 090V160 5000NDV RA NCD 19/15 Q1004
22002015-08-2421EKAH 241220Z AUTO 08013KT 9999NDV FEW069/// SCT090/// 21/12 Q1008
21992015-08-2119EKAH 211920Z AUTO 12003KT 9999NDV NCD 19/10 Q1027
21982015-08-2015EKAH 200050Z AUTO 11004KT 9999NDV NCD 15/10 Q1025
21972015-08-1817EKAH 180250Z AUTO 09016KT 9999NDV BKN015/// BKN180/// 17/12 Q1017
21962015-08-1724EKAH 171450Z AUTO 10016KT 070V130 9999NDV NCD 24/08 Q1017
21952015-08-1619EKAH 160020Z AUTO 10009KT 9999NDV BKN054/// 19/13 Q1012
21942015-08-1518EKAH 142250Z AUTO 11010KT 9999NDV SCT097/// 18/10 Q1011
21932015-08-1417EKAH 140350Z AUTO 11010KT 9999NDV NCD 17/12 Q1018
21922015-08-1214EKAH 120420Z AUTO 26002KT 9999NDV NCD 14/11 Q1023
21912015-08-1014EKAH 100050Z AUTO 14001KT 9999NDV BKN180/// 14/11 Q1021
21902015-08-0911EKAH 082320Z AUTO 26004KT 9999NDV NCD 11/07 Q1023
21892015-08-0817EKAH 072150Z AUTO 00000KT 9999NDV NCD 17/12 Q1018
21882015-08-0613EKAH 060050Z AUTO 12001KT 1400NDV R10R/P1500N R28L/P1500N BR NCD 13/11 Q1018
21872015-08-0518EKAH 042350Z AUTO 18002KT 6000NDV BKN004/// 18/16 Q1013
21862015-08-0417EKAH 040120Z AUTO 13005KT 100V160 9999NDV NCD 17/11 Q1016
21852015-08-0215EKAH 022020Z AUTO 27002KT 9999NDV FEW250/// 15/10 Q1021
21842015-07-3116EKAH 310920Z AUTO 28017G27KT 9999NDV BKN033/// 16/06 Q1012
21832015-07-2918EKAH 291420Z 21007KT 130V250 9999 FEW015 SCT030TCU 18/10 Q0997
21822015-07-2312EKAH 230350Z AUTO 25009KT 210V280 9999NDV NCD 12/08 Q1010
21812015-07-2216EKAH 212220Z AUTO 23005KT 200V260 9999NDV SCT018/// BKN030/// BKN073/// 16/12 Q1011
21802015-07-2117EKAH 212120Z AUTO 25006KT 220V280 9999NDV FEW042/// BKN073/// 17/12 Q1011
21792015-07-2013EKAH 200550Z AUTO 28009KT 9999NDV NCD 13/10 Q1008
21782015-07-1913EKAH 192020Z AUTO 13001KT 3300NDV -RA OVC021/// 13/11 Q1006
21772015-07-1710EKAH 162150Z AUTO 26005KT 9999NDV NCD 10/06 Q1018
21762015-07-1618EKAH 161650Z AUTO 29013KT 9999NDV NCD 18/02 Q1018
21752015-07-1411EKAH 140320Z AUTO 26005KT 9999NDV BKN140/// BKN200/// 11/09 Q1011
21742015-07-1315EKAH 130650Z AUTO 28006KT 9999NDV SCT009/// BKN024/// 15/12 Q1011
21732015-07-0817EKAH 072320Z AUTO 17007KT 130V210 7000NDV FEW025/// SCT080/// BKN110/// 17/15 Q0999
21722015-07-0721EKAH 071050Z AUTO 24008KT 190V280 9999NDV BKN041/// 21/09 Q1010
21712015-07-0520EKAH 042150Z AUTO 01001KT 9000NDV BKN100/// BKN130/// 20/16 Q1019
21702015-07-0417EKAH 032320Z AUTO 30002KT 9999NDV NCD 17/14 Q1025
21692015-07-0326EKAH 031650Z AUTO 13003KT 9999NDV NCD 26/12 Q1025
21682015-07-0120EKAH 010720Z AUTO 14003KT 9999NDV NCD 20/09 Q1026
21672015-06-3019EKAH 301850Z AUTO 32006KT 9999NDV NCD 19/08 Q1023
21662015-06-2917EKAH 290820Z AUTO 24006KT 190V280 9999NDV BKN010/// 17/13 Q1018
21652015-06-2410EKAH 242120Z AUTO 26008KT 9999NDV BKN035/// 10/03 Q1016
21642015-06-237EKAH 230050Z AUTO 27001KT 9999NDV FEW002/// 07/04 Q1004
21632015-06-2216EKAH 221520Z AUTO 18004KT 130V240 9999NDV SCT031/// BKN061/// 16/07 Q1003
21622015-06-2110EKAH 202320Z AUTO 28010KT 9999NDV BKN011/// 10/07 Q1015
21612015-06-2013EKAH 201920Z AUTO 29010KT 9999NDV FEW015/// 13/08 Q1015
21602015-06-1911EKAH 190020Z AUTO 27014KT 9999NDV BKN017/// BKN054/// 11/07 Q1006
21592015-06-176EKAH 170020Z AUTO 25005KT 220V280 9999NDV NCD 06/03 Q1022
21582015-06-156EKAH 150250Z AUTO 26006KT 9999NDV NCD 06/03 Q1013
21572015-06-1413EKAH 141220Z AUTO 28016KT 9999NDV FEW032/// SCT100/// BKN120/// 13/04 Q1008
21562015-06-1317EKAH 131450Z AUTO 04005KT 360V060 9999NDV -SHRA BKN050/// 17/10 Q1006
21552015-06-1111EKAH 110220Z AUTO 30009KT 9999NDV OVC008/// 11/08 Q1024
21542015-06-0710EKAH 062250Z AUTO 23006KT 190V270 9999NDV NCD 10/06 Q1022
21532015-06-0614EKAH 052350Z AUTO 16006KT 110V200 9999NDV SCT120/// BKN140/// BKN160/// 14/07 Q1017
21522015-06-0520EKAH 051320Z AUTO 12011KT 090V170 9999NDV NCD 20/05 Q1023
21512015-06-0417EKAH 041620Z AUTO 28010KT 9999NDV FEW058/// 17/02 Q1028
21502015-06-0214EKAH 021920Z AUTO 24009KT 190V270 9999NDV -SHRA BKN014/// 14/11 Q1001
21492015-06-0113EKAH 010950Z AUTO 24010KT 180V290 9999NDV FEW037/// SCT043/// 13/03 Q1011
21482015-05-2815EKAH 281220Z AUTO 23011G22KT 170V280 9999NDV FEW039/// SCT071/// BKN086/// 15/07 Q1004
21472015-05-2510EKAH 250050Z AUTO 22003KT 9999NDV BKN010/// OVC035/// 10/07 Q1012
21462015-05-2414EKAH 241750Z AUTO 20005KT 150V240 9999NDV FEW100/// BKN120/// 14/04 Q1015
21452015-05-1911EKAH 190020Z AUTO 16010KT 120V200 7000NDV RESHRA BKN004/// 11/09 Q0998
21442015-05-186EKAH 180050Z AUTO 27010KT 9999NDV NCD 06/03 Q1013
21432015-05-1711EKAH 171350Z AUTO 27017G27KT 240V300 9999NDV SCT030/// 11/03 Q1014
21422015-05-157EKAH 142150Z AUTO 28002KT 0300NDV R10R/P1500D R28L/1400U FG NCD 07/05 Q1012
21412015-05-1412EKAH 140820Z AUTO 33003KT 9999NDV NCD 12/06 Q1010
21402015-05-1212EKAH 120420Z AUTO 19002KT 8000NDV FEW088/// BKN120/// 12/10 Q1013
21392015-05-1010EKAH 092150Z AUTO 18005KT 120V220 9999NDV BKN041/// BKN065/// 10/07 Q1010
21382015-05-093EKAH 090220Z AUTO 10001KT 9999NDV BKN150/// 03/M00 Q1018
21372015-05-069EKAH 060320Z AUTO 21005KT 170V240 9000NDV NCD 09/06 Q1006
21362015-05-0511EKAH 042150Z AUTO 22003KT 9999NDV NCD 11/07 Q1008
21352015-05-030EKAH 030420Z AUTO 00000KT 9999NDV R10R/0500D R28L/P1500N FZBCFG FEW004/// M00/M02 Q1012
21342015-05-016EKAH 302320Z AUTO 10001KT 9999NDV SCT180/// 06/02 Q1008
21332015-04-305EKAH 300620Z AUTO 00000KT 9999NDV DZ OVC030/// 05/02 Q1010 RERA
21322015-04-294EKAH 290420Z AUTO 22004KT 180V260 9999NDV FEW069/// 04/M00 Q1014
21312015-04-282EKAH 280050Z AUTO 26006KT 9999NDV NCD 02/M01 Q1009
21302015-04-278EKAH 270750Z AUTO 24006KT 200V290 9999NDV NCD 08/00 Q1006
21292015-04-269EKAH 260750Z AUTO 29006KT 9999NDV FEW023/// BKN075/// 09/02 Q1006
21282015-04-223EKAH 220320Z AUTO 27003KT 3800NDV BR NCD 03/01 Q1023
21272015-04-2113EKAH 211620Z AUTO 29015KT 9999NDV NCD 13/02 Q1024
21262015-04-18-1EKAH 180450Z AUTO 27002KT 9999NDV NCD M01/M03 Q1027
21252015-04-175EKAH 170620Z AUTO 32008KT 9999NDV NCD 05/01 Q1014
21242015-04-1610EKAH 161050Z AUTO 30018KT 9999NDV BKN032/// 10/02 Q1010
21232015-04-1410EKAH 141350Z AUTO 25009KT 210V290 6000NDV BKN007/// 10/07 Q1014
21222015-04-115EKAH 102150Z AUTO 15002KT 3500NDV BR NCD 05/02 Q1018
21212015-04-103EKAH 100120Z AUTO 28006KT 0800NDV R10R/0900VP1500D R28L/P1500 FG VV001 03/01 Q1023
21202015-04-0912EKAH 091720Z AUTO 22003KT 9999NDV NCD 12/01 Q1024
21192015-04-0813EKAH 081650Z AUTO 35004KT 320V030 9999NDV NCD 13/M01 Q1031
21182015-04-060EKAH 052320Z AUTO 27002KT 1500NDV FZBCFG NCD 00/M02 Q1025
21172015-04-048EKAH 041220Z AUTO 01012KT 340V050 9999NDV FEW046/// 08/M03 Q1019
21162015-03-306EKAH 301850Z AUTO 28019KT 9999NDV BKN025/// 06/M00 Q0994
21152015-03-278EKAH 271020Z AUTO 02001KT 9999NDV FEW033/// SCT040/// BKN072/// 08/M01 Q1010
21142015-03-255EKAH 251950Z 11016KT 9000 -RA OVC013 05/01 Q1010
21132015-03-233EKAH 230550Z 23007KT 160V280 CAVOK 03/M02 Q1014
21122015-03-197EKAH 190850Z 05004KT 010V130 CAVOK 07/00 Q1031
21112015-03-156EKAH 151520Z 09010KT 9999 OVC030 06/01 Q1038
21102015-03-1210EKAH 121120Z 12005KT 070V200 9999 FEW030 SCT200 10/M00 Q1035
21092015-03-115EKAH 102250Z AUTO 27018KT 9999NDV NCD 05/01 Q1021
21082015-03-1010EKAH 101150Z 28016KT 240V300 9999 BKN030 10/01 Q1020
21072015-03-078EKAH 071020Z 22008KT 180V270 CAVOK 08/02 Q1019
21062015-03-040EKAH 040050Z AUTO 25005KT 9999NDV NCD 00/M01 Q1008
21052015-03-015EKAH 011150Z AUTO 20009G19KT 130V250 5000NDV OVC004/// 05/03 Q0991
21042015-02-275EKAH 270050Z AUTO 18010G20KT 120V230 9999NDV FEW020/// OVC041/// 05/M01 Q1009
21032015-02-265EKAH 261320Z AUTO 17008KT 120V250 8000NDV SCT008/// BKN040/// 05/02 Q1015
21022015-02-255EKAH 250920Z AUTO 21006KT 150V270 9999NDV BKN009/// BKN020/// 05/01 Q1011
21012015-02-245EKAH 241520Z AUTO 19010KT 130V230 9999NDV BKN019/// 05/01 Q0998
21002015-02-203EKAH 201520Z AUTO 21006G16KT 150V270 4500NDV BR OVC004/// 03/02 Q1000
20992015-02-184EKAH 180050Z AUTO 25009KT 210V270 9999NDV BKN011/// 04/02 Q1032
20982015-02-172EKAH 170820Z AUTO 20004KT 110V270 4100NDV BR OVC008/// 02/M01 Q1027
20972015-02-162EKAH 161750Z AUTO 15010KT 090V200 5000NDV BKN010/// 02/M02 Q1024
20962015-02-141EKAH 141750Z AUTO 08009KT 5000NDV OVC006/// 01/M01 Q1019
20952015-02-122EKAH 122150Z AUTO 20003KT 4000NDV BR BKN009/// 02/M00 Q1021
20942015-02-103EKAH 100250Z AUTO 28011KT 9999NDV NCD 03/02 Q1021
20932015-02-083EKAH 081720Z AUTO 27012KT 9000NDV -RA SCT012/// BKN021/// 03/00 Q1021 R99/090095
20922015-02-073EKAH 062250Z AUTO 25009KT 210V280 9999NDV OVC016/// 03/01 Q1026 R99/090095
20912015-02-05-1EKAH 050250Z AUTO 01004KT 9999NDV OVC010/// M01/M03 Q1021 R99/520195
20902015-02-04-1EKAH 040250Z AUTO 36007KT 9999NDV BKN015/// M01/M05 Q1009 R99/520195
20892015-02-02-2EKAH 020750Z AUTO 30008KT 260V320 2600NDV -SN BKN005/// BKN048/// M02/M03 Q0990 R99/920191
20882015-02-011EKAH 010420Z AUTO 29013KT 9999NDV BKN029/// 01/M03 Q0981
20872015-01-310EKAH 302320Z AUTO 28003KT 4000NDV BR SCT010/// BKN048/// 00/M01 Q0976
20862015-01-301EKAH 300450Z AUTO 17002KT 9999NDV -SHRA OVC013/// 01/M01 Q0973 R10/520195
20852015-01-292EKAH 290850Z AUTO 21008KT 160V270 9999NDV NCD 02/M01 Q0976 R99/290195
20842015-01-270EKAH 271820Z AUTO 23005KT 200V260 9999NDV NCD 00/M02 Q1014 R99/320195
20832015-01-262EKAH 260150Z AUTO 20004KT 150V250 0900NDV R10R/P1500N R28L/P1500U FG OVC001/// 02/01 Q1019 R99/910195
20822015-01-25-1EKAH 252050Z AUTO 19003KT 6000NDV BKN001/// BKN110/// M01/M03 Q1022 R10/910195
20812015-01-24-1EKAH 240720Z AUTO VRB08KT 0800NDV R10R/1400N R28L/P1500N SN OVC005/// M01/M02 Q1012 R99/590392
20802015-01-23-1EKAH 230020Z AUTO 31005KT 280V340 2000NDV BR VV002 M01/M03 Q1024 R99/720195
20792015-01-221EKAH 221320Z AUTO 30004KT 3000NDV BR BKN002/// BKN058/// 01/M00 Q1021 R99/720195
20782015-01-210EKAH 211220Z AUTO 27004KT 3500NDV BR OVC008/// 00/M01 Q1016 R99/510395
20772015-01-201EKAH 200820Z AUTO 11008KT 090V150 3500NDV -SN OVC003/// 01/M00 Q1013 R99/590392
20762015-01-191EKAH 190920Z AUTO 00000KT 2100NDV -SHRA BR BKN021/// BKN048/// 01/M00 Q1014 R99/190195
20752015-01-172EKAH 170620Z AUTO 23007KT 190V270 9999NDV NCD 02/M02 Q1002
20742015-01-166EKAH 160320Z AUTO 21011G28KT 150V260 9999NDV BKN028/// BKN058/// 06/01 Q0989
20732015-01-156EKAH 151320Z AUTO 18012G23KT 110V240 9999NDV -RA OVC006/// 06/04 Q0988
20722015-01-085EKAH 080420Z AUTO 22012G26KT 160V260 9000NDV DZ OVC008/// 05/03 Q1009
20712015-01-072EKAH 070550Z AUTO 24007KT 210V270 3100NDV BR FEW005/// 02/01 Q1016
20702015-01-065EKAH 060350Z AUTO 16005KT 110V220 6000NDV BKN004/// 05/04 Q1024
20692015-01-044EKAH 041820Z AUTO 28017KT 9999NDV BKN110/// BKN160/// 04/M01 Q1024
20682014-12-317EKAH 311620Z AUTO 27009KT 240V300 9999NDV BKN014/// 07/03 Q1026
20672014-12-303EKAH 301650Z AUTO 26006KT 9999NDV BKN018/// 03/01 Q1024
20662014-12-291EKAH 291550Z AUTO 23009KT 190V260 6000NDV DZ BKN005/// 01/M01 Q1028 R10/590292
20652014-12-244EKAH 240720Z AUTO 11001KT 3600NDV -RA OVC032/// 04/03 Q0999
20642014-12-237EKAH 230050Z AUTO 25009KT 210V280 9999NDV SCT012/// 07/04 Q1000
20632014-12-228EKAH 212350Z AUTO 24010KT 210V280 8000NDV DZ OVC009/// 08/07 Q0999
20622014-12-215EKAH 210350Z AUTO 28015KT 9999NDV NCD 05/01 Q1013
20612014-12-203EKAH 200720Z AUTO 27016G26KT 230V300 9999NDV -SHRA SCT012/// 03/00 Q0996
20602014-12-196EKAH 191350Z AUTO 25011KT 220V280 9999NDV -SHRA SCT022/// SCT098/// 06/02 Q0996
20592014-12-185EKAH 180020Z AUTO 22006KT 170V260 4800NDV -RA BR BKN005/// 05/03 Q1000
20582014-12-175EKAH 170350Z AUTO 26014KT 9999NDV BKN051/// 05/01 Q1001
20572014-12-161EKAH 160320Z AUTO 22003KT 9999NDV NCD 01/M02 Q1004
20562014-12-142EKAH 131950Z AUTO 24007KT 190V290 9999NDV NCD 02/M01 Q1006
20552014-12-135EKAH 130450Z AUTO 26014KT 9999NDV NCD 05/02 Q0992
20542014-12-122EKAH 120320Z AUTO 20004KT 130V270 9999NDV FEW024/// SCT052/// BKN075/// 02/00 Q0993
20532014-12-112EKAH 112150Z AUTO 20004KT 140V250 9999NDV -SHRA SCT029/// BKN140/// 02/00 Q0993
20522014-12-105EKAH 100750Z AUTO 22011G27KT 150V270 5000NDV -RA OVC008/// 05/03 Q0999
20512014-12-094EKAH 091750Z AUTO 20008KT 140V260 9000NDV BKN005/// 04/02 Q1019
20502014-12-082EKAH 080450Z AUTO 23005KT 200V270 9999NDV NCD 02/M00 Q1006
20492014-12-073EKAH 062320Z AUTO 22005KT 170V270 9999NDV NCD 03/00 Q1018
20482014-12-065EKAH 060950Z AUTO 29009KT 9999NDV NCD 05/02 Q1018
20472014-12-055EKAH 050720Z AUTO 16005KT 120V220 3600NDV -RA BR SCT007/// OVC030/// 05/03 Q1016
20462014-12-044EKAH 041950Z AUTO 10007KT 080V140 9000NDV OVC009/// 04/01 Q1021
20452014-12-023EKAH 021250Z AUTO 18003KT 9999NDV OVC017/// 03/M02 Q1019
20442014-12-014EKAH 010920Z AUTO 12014KT 9999NDV BKN019/// 04/M02 Q1024
20432014-11-286EKAH 280050Z AUTO 12011KT 080V150 9999NDV SCT019/// 06/01 Q1021
20422014-11-276EKAH 272050Z AUTO 12012KT 090V150 9999NDV FEW018/// SCT039/// 06/01 Q1020
20412014-11-256EKAH 250350Z AUTO 27008KT 9999NDV NCD 06/03 Q1023
20402014-11-226EKAH 221850Z AUTO 15006KT 090V200 9000NDV -SHRA OVC014/// 06/03 Q1023
20392014-11-205EKAH 192320Z AUTO 36003KT 9000NDV -SHRA OVC025/// 05/03 Q1029
20382014-11-197EKAH 182250Z AUTO 07012KT 9999NDV -SHRA BKN016/// 07/03 Q1021
20372014-11-189EKAH 180050Z AUTO 09009KT 9999NDV BKN009/// 09/06 Q1017
20362014-11-178EKAH 162320Z AUTO 09020KT 4500NDV -RA BKN008/// 08/06 Q1010 RERA
20352014-11-168EKAH 161820Z AUTO 09023G33KT 7000NDV OVC009/// 08/05 Q1009
20342014-11-1410EKAH 141220Z AUTO 11010KT 3800NDV BR OVC005/// 10/08 Q1017
20332014-11-1310EKAH 131120Z AUTO 09009KT 1800NDV -RA BR OVC002/// 10/08 Q1015
20322014-11-109EKAH 100120Z AUTO 20005KT 140V270 9999NDV OVC016/// 09/05 Q1009
20312014-11-0214EKAH 020250Z AUTO 19006KT 120V260 5000NDV OVC013/// 14/12 Q1012
20302014-11-0112EKAH 312250Z AUTO 17004KT 120V250 1700NDV BR OVC001/// 12/11 Q1020
20292014-10-3110EKAH 310820Z AUTO 14006KT 100V180 3000NDV BR OVC003/// 10/08 Q1023
20282014-10-304EKAH 292320Z AUTO 25002KT 9999NDV NCD 04/02 Q1021
20272014-10-2910EKAH 290650Z AUTO 31014KT 6000NDV DZ OVC005/// 10/08 Q1011
20262014-10-2715EKAH 271550Z AUTO 22008KT 130V300 9999NDV BKN016/// 15/11 Q1018
20252014-10-2614EKAH 261120Z AUTO 21009G19KT 140V290 9999NDV FEW011/// SCT021/// 14/10 Q1017
20242014-10-2511EKAH 242350Z AUTO 19007KT 130V240 9000NDV -RA OVC013/// 11/09 Q1014
20232014-10-228EKAH 220620Z AUTO 28002KT 9999NDV OVC006/// 08/07 Q1002
20222014-10-2113EKAH 211120Z AUTO 16008KT 080V250 9999NDV BKN009/// 13/10 Q0998
20212014-10-2014EKAH 200920Z AUTO 26016KT 9999NDV FEW022/// BKN049/// 14/08 Q1004
20202014-10-1916EKAH 191250Z AUTO 19007KT 130V300 9999NDV RA FEW013/// BKN036/// 16/14 Q1005
20192014-10-1812EKAH 172150Z AUTO 29002KT 2800NDV BR OVC002/// 12/11 Q1016
20182014-10-1513EKAH 151850Z AUTO 15006KT 110V200 6000NDV -RA BKN020/// 13/11 Q1004 RERA
20172014-10-136EKAH 130020Z AUTO 13001KT 5000NDV NCD 06/04 Q1014
20162014-10-1214EKAH 112320Z AUTO 15005KT 110V200 2400NDV +RA NCD 14/12 Q1010
20152014-10-1110EKAH 102320Z AUTO 22004KT 190V260 9999NDV NCD 10/08 Q1015
20142014-10-0813EKAH 081550Z AUTO 16004KT 120V220 9999NDV NCD 13/07 Q1005
20132014-10-0712EKAH 070450Z AUTO 10020G34KT 9999NDV BKN016/// BKN060/// 12/07 Q1012
20122014-10-0613EKAH 060520Z AUTO 11013KT 090V150 9999NDV NCD 13/08 Q1022
20112014-10-0215EKAH 020720Z 29005KT 260V320 5000NDV OVC012/// 15/13 Q1027
20102014-10-0114EKAH 011020Z AUTO 14006KT 090V200 9999NDV -SHRA OVC004/// 14/12 Q1025
20092014-09-3015EKAH 301150Z AUTO 11007KT 070V150 9999NDV BKN054/// 15/08 Q1025
20082014-09-2914EKAH 291950Z AUTO 20001KT 4300NDV BR BKN170/// BKN190/// 14/11 Q1023
20072014-09-2814EKAH 281850Z AUTO 24006KT 200V260 9999NDV FEW160/// 14/10 Q1022
20062014-09-2711EKAH 262220Z AUTO 25011KT 9999NDV NCD 11/06 Q1019
20052014-09-2614EKAH 260120Z AUTO 24004KT 190V280 9999NDV OVC032/// 14/12 Q1013
20042014-09-2515EKAH 251050Z AUTO 29019KT 9999NDV FEW027/// 15/08 Q1008
20032014-09-2413EKAH 240750Z AUTO 20005KT 130V250 4900NDV -SHRA BKN018/// 13/11 Q1006
20022014-09-2313EKAH 230920Z AUTO 19004KT 120V280 9999NDV NCD 13/03 Q1018
20012014-09-229EKAH 220250Z AUTO 31009KT 9999NDV -SHRA BKN061/// 09/06 Q1008
20002014-09-209EKAH 200250Z AUTO 00000KT 0150NDV R10R/0325V0400N R28L/0250V0325N FG VV001 09/08 Q1015
19992014-09-1917EKAH 191420Z AUTO 05009KT 9999NDV NCD 17/12 Q1016
19982014-09-1821EKAH 181320Z AUTO 11010KT 070V140 9999NDV NCD 21/11 Q1018
19972014-09-1715EKAH 170850Z AUTO 08011KT 9999NDV OVC008/// 15/11 Q1023
19962014-09-1619EKAH 161420Z AUTO 09012KT 9999NDV NCD 19/11 Q1024
19952014-09-1220EKAH 121450Z AUTO 05008KT 9999NDV FEW029/// 20/11 Q1025
19942014-09-1117EKAH 110920Z AUTO 07008KT 040V110 9999NDV BKN014/// 17/12 Q1023
19932014-09-0716EKAH 070120Z AUTO 13006KT 100V190 9999NDV BKN045/// 16/13 Q1013
19922014-09-0511EKAH 042250Z AUTO 00000KT 1000NDV R10R/0800VP1500U R28L/0375VP1500U BR FEW002/// 11/08 Q1024
19912014-09-0420EKAH 041420Z AUTO 13008KT 080V180 9999NDV FEW028/// 20/11 Q1026
19902014-09-0321EKAH 031520Z AUTO 08007KT 050V130 9999NDV NCD 21/07 Q1029
19892014-09-0220EKAH 021250Z AUTO 13005KT 090V190 9999NDV NCD 20/05 Q1026
19882014-08-3115EKAH 312050Z AUTO 08014KT 9999NDV R10R/P1500N R28L/P1500VP1500N OVC012/// 15/11 Q1017
19872014-08-2912EKAH 290120Z AUTO 14004KT 5000NDV NCD 12/10 Q1015
19862014-08-2811EKAH 280120Z AUTO 27006KT 8000NDV NCD 11/09 Q1016
19852014-08-279EKAH 270050Z AUTO 27004KT 9999NDV NCD 09/07 Q1012
19842014-08-2612EKAH 252220Z AUTO 26006KT 9999NDV NCD 12/09 Q1008
19832014-08-2515EKAH 250820Z AUTO 26011KT 230V290 9999NDV FEW002/// 15/06 Q1010
19822014-08-2415EKAH 241220Z AUTO 26008KT 220V280 9999NDV FEW019/// SCT024/// SCT063/// BKN120/// 15/10 Q1008
19812014-08-2316EKAH 231420Z AUTO 24010KT 200V280 9999NDV SCT028/// 16/06 Q1007
19802014-08-2012EKAH 200420Z AUTO 24011KT 210V270 9999NDV FEW095/// 12/09 Q1001
19792014-08-1913EKAH 182250Z AUTO 25012KT 220V280 9999NDV FEW025/// 13/08 Q0997
19782014-08-1814EKAH 181420Z AUTO 24008KT 210V270 9999NDV FEW002/// SCT079/// 14/11 Q0993
19772014-08-1714EKAH 170050Z AUTO 22006KT 170V290 9999NDV BKN048/// 14/10 Q1006
19762014-08-1612EKAH 160220Z AUTO 27012KT 9999NDV NCD 12/08 Q1008
19752014-08-1518EKAH 150850Z AUTO 28010KT 240V310 9999NDV FEW021/// SCT024/// 18/10 Q1007
19742014-08-1413EKAH 140350Z AUTO 22004KT 170V270 9999NDV NCD 13/11 Q1002
19732014-08-1314EKAH 130450Z AUTO 19003KT 9999NDV FEW075/// 14/10 Q1003
19722014-08-1119EKAH 110120Z AUTO 16006KT 110V220 9999NDV SCT023/// BKN071/// BKN190/// 19/17 Q0999
19712014-08-1021EKAH 101820Z AUTO 12013G23KT 090V170 9999NDV BKN092/// BKN150/// 21/11 Q1005
19702014-08-0922EKAH 090750Z AUTO 12012G24KT 090V150 9999NDV NCD 22/15 Q1006
19692014-08-0622EKAH 060950Z AUTO 22005KT 140V280 9999NDV FEW030/// 22/11 Q1017
19682014-08-0420EKAH 041150Z AUTO 30009KT 260V330 9999NDV BKN013/// 20/15 Q1014
19672014-08-0124EKAH 011750Z AUTO 17006KT 110V260 9999NDV NCD 24/10 Q1012
19662014-07-2722EKAH 272050Z AUTO 20002KT 9999NDV FEW037/// BKN052/// BKN120/// 22/16 Q1014
19652014-07-2427EKAH 241720Z AUTO 07007KT 9999NDV NCD 27/08 Q1020
19642014-07-2217EKAH 220050Z AUTO 28002KT 0400NDV R10R/P1500N R28L/0450VP1500D FG NCD 17/14 Q1021
19632014-07-2017EKAH 200220Z AUTO 10003KT 0250NDV R10R/0250VP1500D R28L/P1500VP1500U FG FEW002/// 17/14 Q1017
19622014-07-1921EKAH 190650Z AUTO 12006KT 070V150 9999NDV BKN050/// BKN067/// 21/14 Q1020
19612014-07-1416EKAH 140150Z AUTO 15008KT 110V220 4300NDV DZ BR OVC004/// 16/14 Q0999 RERA
19602014-07-1125EKAH 111720Z AUTO 05006KT 350V100 9999NDV NCD 25/09 Q1016
19592014-07-1024EKAH 100850Z AUTO 06012KT 9999NDV NCD 24/12 Q1014
19582014-07-0416EKAH 032250Z AUTO 21003KT 9999NDV FEW017/// BKN180/// 16/12 Q1016
19572014-07-0313EKAH 022250Z AUTO 25007KT 220V290 9999NDV FEW019/// 13/08 Q1019
19562014-07-0114EKAH 011920Z AUTO 28004KT 250V310 9999NDV NCD 14/10 Q1015
19552014-06-3015EKAH 301920Z AUTO 28007KT 250V320 9999NDV NCD 15/07 Q1012
19542014-06-2819EKAH 281250Z AUTO 25009KT 170V310 9999NDV FEW029/// SCT047/// BKN065/// BKN110/// 19/10 Q1008
19532014-06-258EKAH 242350Z AUTO 27001KT 9999NDV SCT100/// 08/05 Q1016
19522014-06-1822EKAH 181250Z AUTO 27007KT 150V310 9999NDV BKN042/// 22/10 Q1016
19512014-06-1720EKAH 170850Z AUTO 12002KT 9999NDV NCD 20/05 Q1021
19502014-06-159EKAH 150020Z AUTO 27004KT 9999NDV NCD 09/05 Q1022
19492014-06-1418EKAH 141550Z AUTO 01008KT 340V050 9999NDV NCD 18/05 Q1020
19482014-06-1316EKAH 130820Z AUTO 31015KT 9999NDV FEW022/// FEW025/// SCT045/// 16/09 Q1015
19472014-06-1119EKAH 102220Z AUTO 17005KT 130V210 9999NDV NCD 19/16 Q1020
19462014-06-0813EKAH 072320Z AUTO 11001KT 9999NDV BKN180/// 13/11 Q1018
19452014-06-0513EKAH 051950Z AUTO 18005KT 120V270 9999NDV +SHRA BKN022/// 13/09 Q1011
19442014-06-0411EKAH 040120Z AUTO 28001KT 9999NDV BKN110/// 11/09 Q1013
19432014-06-0119EKAH 011650Z AUTO 14007KT 100V190 9999NDV NCD 19/11 Q1021
19422014-05-2716EKAH 271850Z AUTO 04006KT 9999NDV NCD 16/09 Q1019
19412014-05-2516EKAH 250750Z AUTO 24007KT 210V280 9999NDV BKN130/// 16/08 Q1018
19402014-05-2317EKAH 231550Z AUTO 33003KT 6000NDV RERA BKN074/// 17/15 Q1008
19392014-05-1818EKAH 181050Z AUTO 02010KT 9999NDV NCD 18/09 Q1017
19382014-05-168EKAH 160320Z AUTO 28005KT 3400NDV BR OVC002/// 08/06 Q1032
19372014-05-157EKAH 150050Z AUTO 32003KT 0150NDV R10R/P1500N R28L/P1500 FG FEW007/// 07/05 Q1029
19362014-05-1212EKAH 121420Z AUTO 29007KT 9999NDV -SHRA BKN020/// 12/09 Q1000
19352014-05-1110EKAH 110120Z AUTO 23004KT 170V290 6000NDV SHRA FEW011/// BKN037/// 10/08 Q0994
19342014-05-0712EKAH 070950Z AUTO 29003KT 9999NDV RESHRA BKN007/// BKN038/// 12/10 Q1003
19332014-05-069EKAH 060150Z AUTO 17004KT 110V220 3200NDV DZ BR OVC010/// 09/08 Q1015
19322014-05-059EKAH 051150Z AUTO VRB06KT 9999NDV OVC024/// 09/03 Q1018
19312014-05-039EKAH 030850Z AUTO 26011KT 210V300 9999NDV SCT029/// 09/01 Q1023
19302014-05-0211EKAH 021020Z AUTO 08008KT 030V140 9999NDV BKN035/// 11/01 Q1022
19292014-05-018EKAH 010950Z AUTO 02012KT 340V060 9999NDV NCD 08/M03 Q1015
19282014-04-2911EKAH 292050Z AUTO 28002KT 9999NDV NCD 11/04 Q1011
19272014-04-2820EKAH 281050Z AUTO 06004KT 030V120 9999NDV NCD 20/02 Q1015
19262014-04-2714EKAH 270750Z AUTO 09013KT 9999NDV NCD 14/01 Q1013
19252014-04-219EKAH 210220Z AUTO 05004KT 9999NDV NCD 09/04 Q1016
19242014-04-2010EKAH 202020Z AUTO 03002KT 9999NDV FEW060/// 10/06 Q1018
19232014-04-186EKAH 180620Z AUTO 31008KT 9999NDV FEW008/// 06/04 Q1006
19222014-04-176EKAH 162320Z AUTO 23005KT 200V280 9999NDV BKN190/// 06/M01 Q1025
19212014-04-160EKAH 160150Z AUTO 27002KT 9999NDV NCD 00/M03 Q1029
19202014-04-159EKAH 151150Z AUTO 36014KT 320V020 9999NDV NCD 09/M03 Q1023
19192014-04-147EKAH 132250Z AUTO 25007KT 210V280 9999NDV BKN100/// 07/04 Q1004
19182014-04-124EKAH 120420Z AUTO 24006KT 190V270 6000NDV OVC002/// 04/03 Q1017
19172014-04-1111EKAH 111250Z AUTO 03006KT 360V060 9999NDV BKN020/// BKN066/// 11/05 Q1017
19162014-04-105EKAH 100650Z AUTO 06003KT 9999NDV OVC017/// 05/01 Q1020
19152014-04-0713EKAH 071150Z AUTO 24006KT 200V290 9999NDV OVC009/// 13/10 Q1011
19142014-04-034EKAH 030520Z AUTO 06006KT 9999NDV BKN008/// 04/02 Q1009
19132014-04-013EKAH 312250Z AUTO 06002KT 7000NDV NCD 03/01 Q1015
19122014-03-256EKAH 250820Z AUTO 07011KT 9999NDV FEW011/// 06/03 Q1014
19112014-03-248EKAH 241050Z AUTO 33003KT 9999NDV BKN026/// 08/M01 Q1011
19102014-03-225EKAH 221950Z AUTO 20003KT 9999NDV BKN140/// 05/03 Q0998
19092014-03-208EKAH 200150Z AUTO 25013KT 210V280 9000NDV BKN014/// 08/05 Q1008
19082014-03-188EKAH 180720Z AUTO 25009KT 220V290 9999NDV BKN009/// 08/06 Q1005
19072014-03-11-2EKAH 110350Z AUTO 28003KT 3600NDV BR NCD M02/M03 Q1034
19062014-03-084EKAH 080150Z AUTO 26011KT 9999NDV NCD 04/M00 Q1026
19052014-03-076EKAH 062150Z AUTO 17006KT 120V220 7000NDV NCD 06/03 Q1025
19042014-03-055EKAH 042250Z AUTO 09003KT 2200NDV DZ BR FEW026/// OVC035/// 05/03 Q1010
19032014-03-044EKAH 040750Z AUTO 13005KT 090V170 4400NDV BR SCT005/// 04/02 Q1004
19022014-03-034EKAH 031650Z 11016G26KT 7000 BKN012 04/01 Q0998
19012014-03-023EKAH 020620Z AUTO 13010KT 090V180 2700NDV -RA BR BKN003/// 03/02 Q1001
19002014-03-015EKAH 011550Z AUTO 12003KT 3000NDV BR BKN005/// 05/03 Q1005
18992014-02-285EKAH 280950Z AUTO 12007KT 090V170 2900NDV BR FEW008/// BKN050/// 05/03 Q1006
18982014-02-275EKAH 271950Z AUTO 13007KT 100V180 1500NDV BR BKN003/// 05/04 Q1011
18972014-02-265EKAH 252350Z AUTO 12003KT 4400NDV BR FEW076/// BKN120/// 05/03 Q1011
18962014-02-255EKAH 250150Z AUTO 15008KT 090V190 9999NDV NCD 05/01 Q1012
18952014-02-235EKAH 230850Z AUTO 21008G21KT 130V260 7000NDV BKN013/// 05/03 Q1014
18942014-02-218EKAH 211220Z AUTO 25008KT 220V290 9999NDV BKN027/// 08/03 Q0999
18932014-02-205EKAH 200720Z AUTO 20001KT 4300NDV BR FEW005/// OVC019/// 05/03 Q1007
18922014-02-177EKAH 171050Z AUTO 27015KT 9999NDV R10R/P1500N R28L/1400N FEW023/// 07/01 Q1008
18912014-02-165EKAH 161450Z AUTO 26015G27KT 9999NDV -SHRA OVC015/// 05/02 Q0995 RESHRA
18902014-02-154EKAH 150620Z AUTO 16014G25KT 120V200 9999NDV FEW011/// BKN069/// 04/02 Q0988 R99/150195
18892014-02-145EKAH 141550Z AUTO 17005KT 130V230 9999NDV BKN031/// 05/02 Q1003 R99/150195
18882014-02-132EKAH 130420Z AUTO 17010KT 110V220 9999NDV OVC004/// 02/01 Q0990
18872014-02-123EKAH 120750Z AUTO 21007KT 130V260 9999NDV -RA FEW009/// BKN039/// 03/01 Q1000
18862014-02-105EKAH 100150Z AUTO 20008KT 140V270 9999NDV BKN013/// OVC027/// 05/03 Q0991
18852014-02-084EKAH 081050Z AUTO 17010KT 120V240 9999NDV FEW005/// 04/02 Q0990
18842014-02-075EKAH 072150Z AUTO 26015KT 9999NDV OVC018/// 05/03 Q0988
18832014-02-061EKAH 052350Z AUTO 13006KT 4200NDV BR BKN091/// BKN110/// BKN160/// 01/M00 Q0997 R99/190095
18822014-02-052EKAH 051120Z AUTO 12008KT 090V160 5000NDV FEW007/// BKN089/// 02/01 Q1003 R99/190095
18812014-02-041EKAH 032350Z AUTO 10012KT 0600NDV R10R/1300N R28L/1100U FG VV001 01/01 Q1013 R99/190095
18802014-02-022EKAH 020020Z AUTO 16007KT 110V200 1900NDV BR BKN002/// 02/01 Q1003 R99/810195
18792014-02-011EKAH 010750Z AUTO 13011KT 5000NDV BKN088/// 01/M02 Q1000 R99/810195
18782014-01-30-3EKAH 301620Z AUTO 11010KT 080V140 6000NDV -SN BKN009/// M03/M05 Q1017 R10/450393
18772014-01-29-3EKAH 291850Z AUTO 11013KT 080V140 9000NDV -SN OVC022/// M03/M07 Q1016 R10/450294
18762014-01-27-5EKAH 262320Z AUTO 13013KT 090V160 9999NDV -SHSN BKN012/// M05/M08 Q1001 99/010095
18752014-01-26-4EKAH 260220Z AUTO 12013KT 100V170 9999NDV BKN017/// M04/M09 Q1017 99/0/0095
18742014-01-25-3EKAH 251450Z AUTO 14011G21KT 100V220 9999NDV SCT160/// M03/M08 Q1022 99/0/0095
18732014-01-24-1EKAH 241650Z AUTO 10014KT 9999NDV BKN024/// M01/M07 Q1027
18722014-01-23-1EKAH 230650Z AUTO 12013G23KT 090V160 9999NDV OVC021/// M01/M06 Q1021 R99/950195
18712014-01-220EKAH 221450Z AUTO 11011KT 9999NDV OVC025/// M00/M06 Q1021 R99/950195
18702014-01-210EKAH 210420Z AUTO 09015KT 9999NDV OVC010/// 00/M02 Q1016 R10/450195
18692014-01-201EKAH 201620Z AUTO 09019KT 5000NDV -SN OVC013/// 01/M02 Q1015 R99/590391
18682014-01-191EKAH 192020Z AUTO 10023G34KT 9999NDV OVC016/// 01/M03 Q1015 R10/190095
18672014-01-181EKAH 180820Z AUTO 11017G27KT 4200NDV -SN OVC009/// 01/M00 Q1009 R10/690395
18662014-01-153EKAH 150550Z AUTO 12008KT 9999NDV FEW015/// OVC028/// 03/01 Q1011
18652014-01-132EKAH 131820Z AUTO 14009KT 100V180 8000NDV -SHRA OVC003/// 02/01 Q1006 R99/550293
18642014-01-116EKAH 102350Z AUTO 25011KT 9999NDV BKN035/// BKN150/// 06/03 Q1006
18632014-01-088EKAH 080020Z AUTO 23008KT 170V280 9999NDV BKN023/// 08/05 Q1004
18622014-01-069EKAH 061820Z AUTO 18008KT 090V260 9000NDV BKN006/// BKN026/// BKN042/// 09/08 Q0999
18612014-01-055EKAH 050120Z AUTO 13008KT 100V160 9999NDV BKN120/// 05/02 Q0999
18602014-01-047EKAH 032250Z AUTO 17006KT 110V240 9000NDV BKN024/// BKN130/// 07/05 Q0997
18592014-01-036EKAH 031350Z AUTO 16011G23KT 110V230 7000NDV -SHRA SCT007/// BKN018/// 06/04 Q0999
18582014-01-026EKAH 022150Z AUTO 16007KT 130V210 7000NDV BKN003/// 06/05 Q1000
18572013-12-315EKAH 311250Z AUTO 19006KT 110V270 9999NDV OVC009/// 05/03 Q1015
18562013-12-304EKAH 292320Z AUTO 23006KT 200V300 9999NDV NCD 04/03 Q1014
18552013-12-295EKAH 290220Z AUTO 19005KT 140V240 9999NDV NCD 05/03 Q1001
18542013-12-275EKAH 271520Z AUTO 18012G23KT 120V230 8000NDV -RA OVC006/// 05/04 Q0989
18532013-12-264EKAH 261450Z AUTO 08002KT 0100NDV R10R/0350V0450N R28L/0275N FG VV001 04/03 Q0999
18522013-12-235EKAH 231450Z AUTO 20008G19KT 130V250 9999NDV BKN021/// 05/02 Q1005
18512013-12-228EKAH 221150Z AUTO 23011G25KT 130V270 9999NDV BKN022/// 08/03 Q1004
18502013-12-217EKAH 212220Z AUTO 20006KT 140V260 9999NDV OVC007/// 07/05 Q1007
18492013-12-196EKAH 190350Z AUTO 14010KT 090V200 8000NDV BKN006/// 06/04 Q1003
18482013-12-186EKAH 181220Z AUTO 16008KT 120V240 5000NDV BKN005/// BKN033/// 06/04 Q1015
18472013-12-178EKAH 162350Z AUTO 26005KT 210V300 9999NDV SCT100/// SCT120/// 08/05 Q1017
18462013-12-145EKAH 140620Z AUTO 20007KT 150V270 3300NDV BR FEW022/// BKN062/// 05/04 Q1017
18452013-12-122EKAH 120850Z AUTO 20006KT 160V260 5000NDV NCD 02/M00 Q1025
18442013-12-117EKAH 112020Z AUTO 23005KT 180V270 7000NDV BKN008/// OVC019/// 07/05 Q1028
18432013-12-108EKAH 100620Z AUTO 24005KT 180V270 1000NDV R10R/P1500 R28L/P1500 BR VV002 08/07 Q1028
18422013-12-096EKAH 090050Z AUTO 27008KT 9999NDV -DZ FEW023/// BKN077/// BKN110/// 06/05 Q1010
18412013-12-082EKAH 080650Z AUTO 18009G20KT 120V250 9999NDV OVC006/// 02/00 Q1013
18402013-12-07-1EKAH 070820Z AUTO 28012KT 9999NDV NCD M01/M09 Q1014 R99/220195
18392013-12-062EKAH 060020Z AUTO 28031G44KT 9999NDV BKN014/// 02/M01 Q0983
18382013-12-048EKAH 040520Z AUTO 25011KT 200V280 8000NDV DZ BKN011/// 08/06 Q1012
18372013-12-024EKAH 021520Z AUTO 25006KT 220V280 9999NDV NCD 04/02 Q1032
18362013-12-019EKAH 011320Z AUTO 30019KT 9999NDV NCD 09/02 Q1017
18352013-11-289EKAH 281220Z AUTO 29025G38KT 9999NDV NCD 09/02 Q1019
18342013-11-250EKAH 251620Z AUTO 30004KT 9999NDV NCD 00/M03 Q1030
18332013-11-24-2EKAH 242150Z AUTO 27002KT 9999NDV NCD M02/M06 Q1024
18322013-11-23-2EKAH 230520Z AUTO 27001KT 3000NDV BR NCD M02/M03 Q1019
18312013-11-20-1EKAH 201720Z AUTO 28003KT 9000NDV BKN170/// M01/M02 Q1004
18302013-11-198EKAH 190420Z AUTO 24006KT 200V270 2000NDV -SHRA BR OVC002/// 08/06 Q1000
18292013-11-181EKAH 180120Z AUTO 00000KT 9999NDV FEW017/// BKN210/// 01/M01 Q1020
18282013-11-1710EKAH 170020Z AUTO 26009KT 9999NDV SCT016/// BKN035/// 10/07 Q1019
18272013-11-1610EKAH 160520Z AUTO 25011KT 5000NDV OVC007/// 10/08 Q1022
18262013-11-156EKAH 150750Z AUTO 22004KT 190V250 3200NDV BR FEW002/// 06/05 Q1025
18252013-11-136EKAH 131720Z AUTO 24006KT 200V280 9999NDV NCD 06/03 Q1023
18242013-11-127EKAH 120150Z AUTO 21009KT 150V260 4800NDV -RA BKN009/// 07/06 Q1021
18232013-11-11-1EKAH 110650Z AUTO 23001KT 1800NDV R10R/P1500N R28L/0900VP1500D BR NCD M01/M02 Q1024
18222013-11-102EKAH 100620Z AUTO 25001KT 6000NDV BKN140/// 02/01 Q0998
18212013-11-097EKAH 091650Z AUTO 25012KT 200V290 9999NDV SCT016/// 07/04 Q0996
18202013-11-086EKAH 080120Z AUTO 23003KT 9999NDV NCD 06/03 Q1004
18192013-11-077EKAH 070650Z AUTO 21003KT 9999NDV FEW031/// BKN040/// BKN063/// 07/05 Q0997
18182013-11-064EKAH 060750Z AUTO 00000KT 4500NDV BR OVC043/// 04/02 Q0990
18172013-11-045EKAH 041650Z AUTO 13001KT 0450NDV R10R/P1500N R28L/0900VP1500U FG FEW002/// SCT150/// 05/03 Q0982
18162013-11-0111EKAH 011050Z AUTO 22005KT 170V290 9999NDV FEW018/// SCT077/// 11/09 Q1007
18152013-10-309EKAH 301950Z AUTO 22006KT 170V260 9999NDV FEW025/// FEW054/// 09/06 Q1017
18142013-10-2910EKAH 290020Z AUTO 24006KT 190V290 8000NDV -SHRA BKN008/// 10/08 Q0993
18132013-10-2812EKAH 272350Z AUTO 22009KT 170V260 9999NDV FEW027/// SCT066/// BKN190/// 12/09 Q0990
18122013-10-2712EKAH 272220Z AUTO 22010G21KT 150V270 8000NDV -SHRA BKN022/// BKN038/// 12/09 Q0991
18112013-10-2614EKAH 261150Z AUTO 25006KT 210V280 9999NDV -DZ BKN013/// BKN069/// 14/12 Q1003
18102013-10-259EKAH 250050Z AUTO 25007KT 210V290 9999NDV BKN042/// 09/05 Q1016
18092013-10-2410EKAH 240650Z AUTO 24008KT 200V270 9999NDV FEW073/// 10/06 Q1007
18082013-10-2112EKAH 210650Z AUTO 19002KT 4500NDV -RA BR OVC061/// 12/11 Q1007
18072013-10-194EKAH 190450Z AUTO 20003KT 9999NDV BKN150/// 04/02 Q1018
18062013-10-189EKAH 181420Z AUTO 01003KT 9999NDV FEW035/// 09/M00 Q1020
18052013-10-1611EKAH 152250Z AUTO 01005KT 5000NDV OVC007/// 11/09 Q1009
18042013-10-1511EKAH 150020Z AUTO 10005KT 060V120 5000NDV FEW008/// BKN036/// 11/09 Q1015
18032013-10-1412EKAH 140820Z AUTO 17002KT 9999NDV FEW004/// OVC016/// 12/10 Q1020
18022013-10-1212EKAH 121220Z AUTO 09014KT 9999NDV BKN018/// 12/07 Q1028
18012013-10-1111EKAH 110720Z AUTO 04009KT 9999NDV OVC010/// 11/08 Q1026
18002013-10-0913EKAH 090520Z AUTO 24006KT 200V280 9999NDV FEW017/// BKN062/// 13/10 Q1013
17992013-10-0816EKAH 081320Z AUTO VRB05KT 7000NDV BKN022/// 16/10 Q1020
17982013-10-069EKAH 060420Z AUTO 27007KT 240V300 9999NDV NCD 09/07 Q1020
17972013-10-0512EKAH 042150Z AUTO 16008KT 130V210 9999NDV BKN015/// 12/07 Q1015
17962013-10-0412EKAH 041220Z AUTO 15012G22KT 120V200 9999NDV NCD 12/02 Q1018
17952013-10-0311EKAH 031620Z AUTO 13010KT 070V170 9999NDV NCD 11/02 Q1026
17942013-10-0111EKAH 010750Z AUTO 11010KT 070V140 9999NDV FEW024/// BKN044/// 11/05 Q1023
17932013-09-292EKAH 290520Z AUTO 00000KT 6000NDV NCD 02/01 Q1023
17922013-09-283EKAH 272350Z AUTO 00000KT 9999NDV NCD 03/01 Q1017
17912013-09-2611EKAH 261650Z AUTO 31005KT 9999NDV FEW081/// 11/05 Q1018
17902013-09-254EKAH 250450Z AUTO 00000KT 9999NDV FEW043/// BKN150/// 04/03 Q1017
17892013-09-2313EKAH 230520Z AUTO 30011KT 9999NDV SCT014/// 13/10 Q1017
17882013-09-216EKAH 210420Z AUTO 23001KT 0300NDV R10R/0450VP1500D R28L/P1500VP1500U BCFG SCT061/// 06/04 Q1019
17872013-09-208EKAH 200250Z AUTO 00000KT 9999NDV OVC160/// 08/06 Q1008
17862013-09-198EKAH 182220Z AUTO 11002KT 9999NDV BKN081/// 08/06 Q1001
17852013-09-1810EKAH 180520Z AUTO 16002KT 9999NDV FEW047/// BKN100/// 10/07 Q0995
17842013-09-1711EKAH 171720Z AUTO 20005KT 140V280 9999NDV FEW190/// 11/08 Q0995
17832013-09-1614EKAH 160850Z AUTO 22007KT 120V270 9999NDV FEW060/// 14/09 Q0991
17822013-09-1418EKAH 141120Z AUTO 14007KT 090V190 9999NDV FEW016/// 18/13 Q1012
17812013-09-1217EKAH 121320Z AUTO 05008KT 010V080 9999NDV SCT013/// BKN049/// 17/13 Q1015
17802013-09-1115EKAH 110050Z AUTO 06008KT 9999NDV BKN046/// BKN072/// 15/11 Q1012
17792013-09-1017EKAH 101520Z AUTO 08010KT 9999NDV FEW024/// FEW027/// 17/10 Q1012
17782013-09-0914EKAH 091020Z AUTO 33010KT 9999NDV -RA BKN004/// OVC017/// 14/13 Q1013
17772013-09-0816EKAH 080050Z AUTO 12007KT 090V150 9999NDV FEW180/// 16/13 Q1022
17762013-09-0717EKAH 070250Z AUTO 12009KT 090V150 9999NDV NCD 17/12 Q1017
17752013-09-0616EKAH 060350Z AUTO 13007KT 100V170 9999NDV NCD 16/14 Q1015
17742013-09-0515EKAH 050150Z AUTO 00000KT 7000NDV OVC021/// 15/13 Q1023
17732013-09-0415EKAH 042050Z AUTO 15003KT 7000NDV BKN081/// 15/13 Q1024
17722013-09-0213EKAH 012320Z AUTO 25011KT 220V280 9999NDV BKN067/// 13/10 Q1012
17712013-08-3115EKAH 310420Z AUTO 22004KT 180V250 7000NDV BKN008/// BKN100/// BKN210/// 15/14 Q1012
17702013-08-3017EKAH 301620Z AUTO 22001KT 9999NDV RESHRA BKN030/// 17/15 Q1014
17692013-08-2912EKAH 290420Z AUTO 25005KT 9999NDV BKN160/// 12/08 Q1019
17682013-08-279EKAH 270250Z AUTO 00000KT 3400NDV BCFG SCT001/// SCT012/// 09/07 Q1022
17672013-08-268EKAH 260450Z AUTO 15001KT 2700NDV BR NCD 08/07 Q1024
17662013-08-2517EKAH 250650Z AUTO 09015KT 9999NDV SCT023/// 17/10 Q1021
17652013-08-2413EKAH 232320Z AUTO 14002KT 9999NDV NCD 13/11 Q1024
17642013-08-2322EKAH 231320Z AUTO 10010KT 070V140 9999NDV FEW031/// 22/13 Q1024
17632013-08-2217EKAH 220650Z AUTO 23003KT 9999NDV BKN056/// BKN100/// 17/13 Q1022
17622013-08-2115EKAH 210150Z AUTO 23004KT 9999NDV SCT022/// BKN052/// 15/12 Q1025
17612013-08-1920EKAH 191450Z AUTO 26004KT 210V320 9999NDV BKN066/// 20/08 Q1016
17602013-08-1819EKAH 180750Z AUTO 20011G22KT 130V250 9999NDV SCT014/// BKN040/// 19/14 Q1005
17592013-08-1518EKAH 150920Z AUTO 25008KT 180V330 9999NDV FEW023/// SCT059/// 18/10 Q1020
17582013-08-1418EKAH 141550Z AUTO 29017KT 9999NDV FEW038/// BKN070/// 18/07 Q1017
17572013-08-1312EKAH 130450Z AUTO 25007KT 210V290 9999NDV NCD 12/09 Q1007
17562013-08-1115EKAH 110020Z AUTO 26006KT 9999NDV BKN095/// BKN120/// 15/12 Q1012
17552013-08-1014EKAH 100450Z AUTO 16003KT 5000NDV BKN039/// BKN085/// 14/13 Q1016
17542013-08-0920EKAH 091020Z AUTO 25009KT 200V290 9999NDV SCT039/// 20/09 Q1018
17532013-08-0817EKAH 081850Z AUTO 26005KT 220V290 9999NDV BKN061/// 17/13 Q1014
17522013-08-0716EKAH 070620Z AUTO 26009KT 220V300 9999NDV NCD 16/10 Q1015
17512013-08-0620EKAH 061750Z AUTO 24008KT 190V280 9999NDV BKN036/// 20/13 Q1012
17502013-08-0518EKAH 050620Z 13003KT CAVOK 18/15 Q1021
17492013-08-0423EKAH 041220Z AUTO 18009KT 130V230 9999NDV NCD 23/10 Q1021
17482013-08-0322EKAH 030450Z AUTO 13011G21KT 100V160 9999NDV FEW140/// 22/17 Q1010
17472013-08-0118EKAH 011650Z AUTO 14006KT 110V190 9999NDV BKN015/// 18/15 Q1015
17462013-07-3117EKAH 310720Z AUTO 28009KT 240V310 9999NDV FEW019/// 17/12 Q1009
17452013-07-3021EKAH 301420Z AUTO 24005KT 210V310 9999NDV FEW077/// 21/14 Q1010
17442013-07-2922EKAH 291020Z AUTO VRB03KT 9999NDV FEW028/// 22/11 Q1014
17432013-07-2819EKAH 280450Z AUTO 08006KT 9000NDV FEW049/// BKN061/// 19/18 Q1007
17422013-07-2720EKAH 270220Z AUTO 25002KT 4000NDV SHRA OVC052/// 20/18 Q1012
17412013-07-2613EKAH 260350Z AUTO 00000KT 1900NDV R10R/0350VP1500U R28L/0900VP1500D BCFG VV003 13/11 Q1016
17402013-07-2523EKAH 251220Z AUTO 17007KT 120V270 9999NDV NCD 23/14 Q1016
17392013-07-2422EKAH 240720Z 07005KT 020V110 CAVOK 22/10 Q1017
17382013-07-2323EKAH 231620Z AUTO 07008KT 050V110 9999NDV NCD 23/05 Q1018
17372013-07-2212EKAH 220150Z AUTO 18003KT 0200NDV R10R/0400V0800D R28L/0275V0650N BCFG VV005 12/10 Q1020
17362013-07-2126EKAH 211450Z 08010KT 040V110 CAVOK 26/14 Q1020
17352013-07-1924EKAH 191550Z AUTO 34009KT 9999NDV NCD 24/10 Q1019
17342013-07-1715EKAH 170050Z AUTO 28010KT 9999NDV NCD 15/12 Q1021
17332013-07-1622EKAH 161350Z AUTO 29012KT 9999NDV BKN039/// 22/11 Q1021
17322013-07-1521EKAH 151350Z AUTO 26012KT 220V290 9999NDV BKN030/// 21/12 Q1019
17312013-07-1413EKAH 132250Z AUTO 28013KT 9999NDV NCD 13/09 Q1018
17302013-07-1322EKAH 131620Z AUTO 30014KT 9999NDV NCD 22/12 Q1018
17292013-07-1212EKAH 112320Z AUTO 27003KT 9999NDV NCD 12/09 Q1020
17282013-07-1112EKAH 102220Z AUTO 30004KT 9999NDV NCD 12/06 Q1019
17272013-07-1018EKAH 100720Z 33017KT 310V020 9999 FEW035 18/07 Q1017
17262013-07-0917EKAH 090650Z 28006KT 240V320 CAVOK 17/10 Q1027
17252013-07-0620EKAH 061650Z AUTO 12007KT 090V160 9999NDV NCD 20/11 Q1031
17242013-07-0514EKAH 042250Z AUTO 21004KT 190V250 9999NDV NCD 14/11 Q1021
17232013-07-0417EKAH 041220Z AUTO 20004KT 120V260 9999NDV OVC018/// 17/13 Q1018
17222013-07-0215EKAH 020920Z AUTO 25008KT 160V300 9999NDV SCT027/// BKN045/// BKN071/// 15/07 Q1013
17212013-07-0113EKAH 011950Z AUTO 24004KT 9999NDV NCD 13/06 Q1013
17202013-06-3012EKAH 300520Z AUTO 28020G30KT 9999NDV BKN022/// 12/07 Q1013
17192013-06-2816EKAH 281450Z AUTO 17011G21KT 130V210 9999NDV FEW023/// SCT042/// BKN100/// 16/07 Q1016
17182013-06-2713EKAH 270020Z AUTO 25008KT 220V280 9999NDV -DZ BKN006/// 13/11 Q1014
17172013-06-2615EKAH 260820Z AUTO 29013KT 9999NDV FEW017/// BKN049/// 15/10 Q1017
17162013-06-2516EKAH 250850Z AUTO 29009KT 270V330 9999NDV FEW021/// BKN044/// 16/10 Q1020
17152013-06-2315EKAH 231020Z AUTO 17008KT 110V210 9999NDV BKN042/// 15/11 Q1007
17142013-06-2217EKAH 221250Z AUTO 21007KT 110V260 9999NDV BKN011/// 17/13 Q1009
17132013-06-2117EKAH 210520Z AUTO 33002KT 7000NDV FEW011/// BKN130/// 17/14 Q1008
17122013-06-1916EKAH 190020Z AUTO 13005KT 9999NDV OVC092/// 16/11 Q1019
17112013-06-1711EKAH 162150Z AUTO 26009KT 240V300 9999NDV NCD 11/08 Q1013
17102013-06-1611EKAH 160220Z AUTO 20003KT 9999NDV FEW110/// FEW140/// 11/07 Q1008
17092013-06-1510EKAH 142220Z AUTO 25006KT 210V270 9999NDV NCD 10/07 Q1016
17082013-06-1414EKAH 132250Z AUTO 22006KT 140V280 9999NDV BKN023/// 14/10 Q1007
17072013-06-1214EKAH 120820Z AUTO 18006KT 120V260 9999NDV OVC033/// 14/08 Q1018
17062013-06-118EKAH 110220Z AUTO 00000KT 2400NDV R10R/P1500N R28L/0350VP1500D BR NCD 08/05 Q1013
17052013-06-1021EKAH 101350Z AUTO 36008KT 290V020 9999NDV FEW053/// 21/05 Q1012
17042013-06-0810EKAH 072220Z AUTO 29007KT 9999NDV NCD 10/07 Q1021
17032013-06-0717EKAH 070920Z AUTO 02003KT 9999NDV NCD 17/09 Q1024
17022013-06-0620EKAH 061450Z AUTO 16007KT 100V230 9999NDV NCD 20/08 Q1024
17012013-06-059EKAH 042220Z AUTO 00000KT 9999NDV BKN190/// 09/03 Q1022
17002013-06-0418EKAH 041350Z AUTO 01011KT 330V050 9999NDV NCD 18/M04 Q1024
16992013-06-0314EKAH 030820Z AUTO 32012KT 290V360 9999NDV NCD 14/05 Q1023
16982013-06-0212EKAH 021920Z AUTO 30012KT 9999NDV NCD 12/06 Q1020
16972013-06-0123EKAH 011550Z AUTO 33007KT 260V020 9999NDV SCT044/// BKN070/// BKN092/// 23/13 Q1010
16962013-05-3013EKAH 292350Z AUTO 10007KT 9999NDV FEW073/// 13/10 Q1008
16952013-05-2815EKAH 280950Z AUTO 04008KT 360V070 9999NDV OVC008/// 15/12 Q1007
16942013-05-2713EKAH 262320Z AUTO 08005KT 4400NDV -SHRA BKN003/// BKN018/// 13/11 Q1005
16932013-05-2611EKAH 260320Z AUTO 30003KT 9999NDV NCD 11/08 Q1008
16922013-05-2511EKAH 250420Z AUTO 33005KT 9999NDV -SHRA BKN063/// 11/09 Q1011
16912013-05-242EKAH 240150Z AUTO 11002KT 9999NDV R10R/P1500N R28L/0450V1200D NCD 02/M00 Q1011
16902013-05-237EKAH 230020Z AUTO 26013G24KT 220V280 9999NDV R10R/P1500N R28L/0450V0900N OVC031/// 07/02 Q0999
16892013-05-2210EKAH 221020Z AUTO 29011KT 260V320 6000NDV R10R/P1500N R28L/0325V1200N +RA BKN005/// 10/09 Q0996
16882013-05-2012EKAH 200420Z AUTO 12007KT 090V170 1900NDV R10R/P1500N R28L/0325VP1500N BR BKN001/// 12/11 Q1007
16872013-05-1918EKAH 191120Z AUTO 07006KT 9999NDV OVC015/// 18/13 Q1010
16862013-05-1715EKAH 170220Z AUTO 10010KT 070V130 9999NDV SCT200/// 15/10 Q1002
16852013-05-148EKAH 140820Z AUTO 23006KT 180V280 9999NDV BKN010/// 08/05 Q1006
16842013-05-137EKAH 130350Z AUTO 21004KT 170V250 9999NDV BKN013/// 07/04 Q1010
16832013-05-1213EKAH 121220Z AUTO 21008KT 150V280 9999NDV BKN024/// 13/05 Q1009
16822013-05-119EKAH 102150Z AUTO 21005KT 150V250 9999NDV NCD 09/06 Q1011
16812013-05-0913EKAH 090620Z AUTO 17004KT 120V240 3600NDV BR BKN012/// 13/11 Q1009
16802013-05-0811EKAH 080150Z AUTO 06005KT 9999NDV FEW066/// BKN084/// BKN130/// 11/06 Q1017
16792013-05-075EKAH 070320Z AUTO 00000KT 3300NDV BR NCD 05/03 Q1021
16782013-05-0411EKAH 040650Z AUTO 18006KT 140V220 9999NDV NCD 11/03 Q1013
16772013-05-014EKAH 012050Z AUTO 27001KT 9999NDV NCD 04/M03 Q1024
16762013-04-297EKAH 290220Z AUTO 19006KT 120V270 9999NDV NCD 07/01 Q1008
16752013-04-278EKAH 271720Z AUTO 11003KT 9999NDV NCD 08/02 Q1010
16742013-04-267EKAH 260850Z AUTO 30009KT 270V340 9999NDV FEW018/// BKN110/// 07/02 Q1010
16732013-04-246EKAH 240520Z AUTO 25008KT 220V280 9000NDV NCD 06/04 Q1019
16722013-04-2310EKAH 230750Z AUTO 25011G21KT 210V290 9999NDV BKN015/// 10/06 Q1007
16712013-04-226EKAH 220350Z AUTO 14002KT 9999NDV BKN058/// 06/02 Q1014
16702013-04-196EKAH 190150Z AUTO 22008KT 150V270 9999NDV NCD 06/03 Q1008
16692013-04-1811EKAH 180350Z AUTO 17009G20KT 130V220 4000NDV BR BKN064/// 11/09 Q1004
16682013-04-176EKAH 170520Z AUTO 24007KT 190V270 9000NDV NCD 06/03 Q1017
16672013-04-1612EKAH 161720Z AUTO 19006KT 130V240 9999NDV FEW060/// BKN080/// 12/06 Q1013
16662013-04-159EKAH 150520Z AUTO 18008KT 130V250 9999NDV BKN067/// 09/06 Q1016
16652013-04-149EKAH 141720Z AUTO 18007KT 140V220 7000NDV BKN019/// 09/06 Q1021
16642013-04-138EKAH 131650Z AUTO 25006KT 220V280 9999NDV BKN030/// 08/01 Q1016
16632013-04-123EKAH 120450Z AUTO 07009KT 2800NDV BR OVC002/// 03/01 Q0998
16622013-04-112EKAH 102220Z AUTO 11010KT 7000NDV -RA FEW007/// BKN030/// 02/M00 Q1008
16612013-04-103EKAH 100750Z AUTO 10016KT 9999NDV BKN013/// 03/M02 Q1011
16602013-04-097EKAH 091250Z AUTO 15013KT 110V180 9999NDV NCD 07/M10 Q1012
16592013-04-08-2EKAH 080620Z AUTO 27001KT 8000NDV NCD M02/M04 Q1014
16582013-04-071EKAH 070620Z AUTO 26009KT 9999NDV NCD 01/M02 Q1017
16572013-04-066EKAH 061650Z 29014KT CAVOK 06/M04 Q1018
16562013-04-05-3EKAH 050520Z AUTO 36001KT 9999NDV NCD M03/M04 Q1018
16552013-04-046EKAH 041450Z AUTO 05008KT 020V080 9999NDV NCD 06/M09 Q1020
16542013-04-03-1EKAH 030620Z AUTO 06003KT 9999NDV NCD M01/M03 Q1024
16532013-04-02-4EKAH 012220Z AUTO 29004KT 9999NDV NCD M04/M06 Q1015
16522013-04-015EKAH 011720Z AUTO 36005KT 9999NDV NCD 05/M07 Q1014
16512013-03-31-4EKAH 302320Z AUTO 28002KT 9999NDV NCD M04/M06 Q1013
16502013-03-291EKAH 291620Z AUTO 04009KT 5000NDV -SN SCT009/// BKN061/// 01/M02 Q1010
16492013-03-283EKAH 281520Z AUTO 08010KT 9999NDV NCD 03/M05 Q1018
16482013-03-272EKAH 271120Z AUTO 10009KT 070V130 9999NDV NCD 02/M06 Q1023
16472013-03-250EKAH 251020Z AUTO 09012KT 9999NDV SCT021/// 00/M07 Q1030
16462013-03-24-11EKAH 240020Z AUTO 00000KT 9999NDV NCD M11/M13 Q1033 R99/410195
16452013-03-23-4EKAH 231920Z AUTO 00000KT 9999NDV NCD M04/M09 Q1033 R99/410195
16442013-03-22-4EKAH 220620Z AUTO 07011KT 9999NDV SCT018/// M04/M08 Q1029 R99/090095
16432013-03-21-1EKAH 211250Z AUTO 07013KT 9999NDV -SHSN BKN019/// M01/M05 Q1023 R99/190195
16422013-03-20-2EKAH 200650Z AUTO 05013KT 9999NDV BKN021/// M02/M06 Q1010 R99/420195
16412013-03-19-2EKAH 190550Z AUTO 06018G28KT 9999NDV BKN048/// M02/M08 Q1005 R10/090095
16402013-03-180EKAH 180020Z AUTO 11021G32KT 9999NDV NCD M00/M07 Q1011 R99/290195
16392013-03-16-3EKAH 152320Z AUTO 16005KT 9999NDV NCD M03/M07 Q1015
16382013-03-15-10EKAH 150650Z AUTO 07001KT 9999NDV SCT015/// M10/M12 Q1015
16372013-03-14-2EKAH 141220Z AUTO 03009KT 340V060 9999NDV OVC024/// M02/M07 Q1012 R99/490295
16362013-03-13-1EKAH 131820Z AUTO 34010KT 9999NDV BKN014/// BKN033/// M01/M05 Q1006 99/190070
16352013-03-12-9EKAH 120650Z AUTO 25004KT 9999NDV NCD M09/M11 Q1009
16342013-03-11-9EKAH 112150Z AUTO 36004KT 9999NDV NCD M09/M14 Q1013
16332013-03-10-3EKAH 100120Z AUTO 07017KT 9999NDV BKN039/// M03/M11 Q1014
16322013-03-09-1EKAH 090020Z AUTO 10015KT 9999NDV BKN150/// M01/M08 Q1015
16312013-03-081EKAH 080620Z AUTO 10014G24KT 9999NDV OVC120/// 01/M05 Q1016
16302013-03-075EKAH 070020Z AUTO 10012KT 9999NDV BKN100/// BKN120/// 05/M05 Q1013
16292013-03-06-2EKAH 060220Z AUTO 21001KT 3700NDV BR NCD M02/M04 Q1007
16282013-03-055EKAH 051620Z AUTO 18004KT 140V220 9999NDV NCD 05/M00 Q1009
16272013-03-04-2EKAH 040650Z AUTO 24005KT 210V270 9999NDV NCD M02/M03 Q1021
16262013-03-032EKAH 022320Z AUTO 29013KT 9999NDV NCD 02/M01 Q1012
16252013-03-023EKAH 022050Z AUTO 30015KT 9999NDV NCD 03/M01 Q1012
16242013-03-01-1EKAH 010620Z AUTO 29005KT 9000NDV NCD M01/M03 Q1020
16232013-02-28-2EKAH 280650Z AUTO 24003KT 4400NDV BR FEW001/// FEW002/// M02/M03 Q1025
16222013-02-260EKAH 260850Z AUTO 33002KT 8000NDV NCD 00/M01 Q1036 R99/190195
16212013-02-250EKAH 250650Z AUTO 06011KT 8000NDV FEW010/// OVC019/// 00/M02 Q1029 R99/920153
16202013-02-240EKAH 242220Z AUTO 04009KT 6000NDV -SN OVC007/// M00/M01 Q1027 R99/490431
16192013-02-23-4EKAH 230050Z AUTO 00000KT 9999NDV OVC025/// M04/M06 Q1025
16182013-02-22-2EKAH 220120Z AUTO 07003KT 9999NDV OVC025/// M02/M08 Q1027
16172013-02-21-2EKAH 210920Z AUTO 04012KT 9999NDV BKN033/// M02/M08 Q1030
16162013-02-200EKAH 200750Z AUTO 04010KT 9999NDV -SHSN OVC023/// M00/M04 Q1029
16152013-02-191EKAH 190450Z AUTO 06013KT 9999NDV OVC016/// 01/M02 Q1016
16142013-02-182EKAH 180750Z AUTO 25009KT 220V290 3000NDV BR OVC005/// 02/01 Q1020
16132013-02-151EKAH 150050Z AUTO 15009KT 110V200 9999NDV OVC016/// 01/M03 Q1019 R99/190095
16122013-02-14-2EKAH 140220Z AUTO 16003KT 9999NDV OVC025/// M02/M06 Q1026 R99/190095
16112013-02-13-2EKAH 122320Z AUTO 34001KT 7000NDV BKN022/// BKN045/// M02/M04 Q1021 R99/410176
16102013-02-110EKAH 111350Z AUTO 09012KT 9999NDV FEW015/// FEW017/// BKN038/// 00/M04 Q1017 R99/490158
16092013-02-09-2EKAH 090220Z AUTO 01012KT 340V050 9999NDV OVC014/// M02/M05 Q1018 R99/190195
16082013-02-080EKAH 082220Z AUTO 01010KT 9999NDV OVC020/// M00/M05 Q1017 R99/190195
16072013-02-070EKAH 070650Z AUTO 02009KT 9999NDV OVC022/// 00/M02 Q1004 R10/590331
16062013-02-061EKAH 060220Z AUTO 30009KT 9999NDV -SHRA BKN006/// 01/M00 Q0989 R99/720158
16052013-02-051EKAH 050650Z AUTO 23004KT 200V280 9999NDV FEW007/// 01/M01 Q0987 R99/790131
16042013-02-011EKAH 011850Z AUTO 07006KT 8000NDV -SN BKN003/// OVC011/// 01/M00 Q0992 R99/590231
16032013-01-316EKAH 302250Z AUTO 25013G23KT 210V280 9000NDV DZ BKN021/// 06/02 Q0987
16022013-01-306EKAH 300920Z 24009G19KT 190V280 9999 FEW035 BKN140 06/03 Q0992
16012013-01-295EKAH 290850Z AUTO 23006KT 170V270 5000NDV OVC015/// 05/03 Q0994
16002013-01-283EKAH 280650Z AUTO 22005KT 160V290 9000NDV OVC029/// 03/01 Q1000 R99/290195
15992013-01-25-3EKAH 251120Z AUTO 23005KT 200V270 9999NDV OVC013/// M03/M06 Q1022 R99/910095
15982013-01-24-5EKAH 240850Z AUTO 29003KT 9999NDV OVC011/// M05/M07 Q1017 R99/910295
15972013-01-23-3EKAH 230650Z AUTO 03005KT 9999NDV OVC022/// M03/M08 Q1015 R99/910095
15962013-01-22-2EKAH 220620Z AUTO 09013KT 7000NDV -SN NCD M02/M06 Q1014 R10/410195
15952013-01-21-3EKAH 210650Z AUTO 08014KT 9999NDV FEW018/// M03/M07 Q1011 R99/910295
15942013-01-20-5EKAH 200620Z AUTO 02008KT 9999NDV OVC015/// M05/M09 Q1008 R10/910295
15932013-01-19-3EKAH 182250Z AUTO 08010KT 9999NDV -SHSN OVC022/// M03/M07 Q1015 R99/420381
15922013-01-18-3EKAH 181020Z AUTO 04005KT 9999NDV OVC025/// M03/M07 Q1020 R99/450177
15912013-01-17-6EKAH 170750Z AUTO 30002KT 3400NDV BR BKN038/// M06/M08 Q1021 R99/4901
15902013-01-16-6EKAH 160650Z AUTO 29001KT 4000NDV BR FEW029/// BKN048/// M06/M07 Q1013 R99/420257
15892013-01-15-3EKAH 150650Z AUTO 00000KT 5000NDV -SN BKN055/// M03/M05 Q1008 R10/490354
15882013-01-14-2EKAH 140750Z AUTO 13013KT 100V180 9999NDV -SN NCD M02/M06 Q1019 R10/490324
15872013-01-13-2EKAH 130750Z 05005KT 8000 -SHSN FEW012 BKN044 M02/M04 Q1025 R99/490169
15862013-01-110EKAH 110620Z AUTO 01009KT 340V040 9999NDV -SHSN BKN026/// M00/M05 Q1014 R99/420173
15852013-01-101EKAH 100650Z AUTO 03013KT 350V050 9999NDV BKN025/// 01/M04 Q1009
15842013-01-096EKAH 090650Z AUTO 17003KT 4400NDV -RA BR BKN002/// OVC014/// 06/05 Q1015
15832013-01-087EKAH 080920Z 29007KT 3500 BR FEW001 BKN004 07/06 Q1019
15822013-01-074EKAH 070720Z AUTO 16003KT 5000NDV BKN001/// 04/03 Q1026
15812013-01-066EKAH 060150Z AUTO 24005KT 190V280 5000NDV OVC002/// 06/05 Q1023
15802013-01-054EKAH 051350Z AUTO 20003KT 1600NDV BR OVC001/// 04/04 Q1028
15792013-01-048EKAH 042050Z AUTO 31014KT 9999NDV OVC006/// 08/06 Q1021
15782013-01-023EKAH 020650Z AUTO 29011KT 9999NDV BKN005/// 03/02 Q1007
15772012-12-317EKAH 310650Z AUTO 21008KT 140V260 9999NDV -RA OVC007/// 07/06 Q0998
15762012-12-306EKAH 300850Z AUTO 20006KT 120V270 9999NDV BKN020/// 06/04 Q1000
15752012-12-298EKAH 291320Z AUTO 19009KT 110V250 7000NDV BKN005/// BKN014/// 08/07 Q1007
15742012-12-28-4EKAH 280650Z AUTO 24006KT 9999NDV BKN160/// M04/M06 Q1020
15732012-12-274EKAH 270650Z AUTO 02003KT 3800NDV -RA BR OVC015/// 04/03 Q0991
15722012-12-23-1EKAH 231420Z AUTO 13020G40KT 100V160 0700NDV R10R/0500V0650N R28L/0550V0800D SN OVC004/// M01/M02 Q1002 R10/491034
15712012-12-221EKAH 221650Z AUTO 11014G26KT 080V140 9999NDV OVC022/// 01/M04 Q1019
15702012-12-211EKAH 210620Z AUTO 11015G25KT 080V140 9999NDV BKN015/// BKN034/// BKN051/// 01/M03 Q1021
15692012-12-190EKAH 190650Z AUTO 00000KT 9999NDV OVC022/// 00/M02 Q1026
15682012-12-183EKAH 180620Z AUTO 09010KT 060V120 9999NDV OVC006/// 03/02 Q1013
15672012-12-164EKAH 160620Z AUTO 19002KT 1700NDV BR OVC002/// 04/03 Q1002 R99/190095
15662012-12-154EKAH 151050Z AUTO 17008KT 130V210 2800NDV -SHRA BR OVC002/// 04/03 Q0996 R99/610175
15652012-12-140EKAH 141420Z AUTO 11016G27KT 9999NDV BKN018/// M00/M04 Q1009 R10/910173
15642012-12-13-3EKAH 130550Z AUTO 14005KT 100V180 9999NDV BKN025/// M03/M07 Q1016 R10/910172
15632012-12-12-12EKAH 120650Z 00000KT 9000 MIFG SCT037 M12/M14 Q1019
15622012-12-11-1EKAH 110650Z AUTO 01010KT 330V030 9999NDV OVC030/// M01/M07 Q1023 R99/520155
15612012-12-100EKAH 100820Z AUTO 05016KT 9999NDV BKN024/// M00/M04 Q1013 R99/591035
15602012-12-090EKAH 091250Z AUTO 13012KT 100V170 1800NDV R10R/P1500N R28L/0700V1200U -SN OVC003/// 00/M01 Q0998 RESN R10/491022
15592012-12-08-6EKAH 081550Z AUTO 25002KT 9000NDV NCD M06/M08 Q1021 R10/350177
15582012-12-07-2EKAH 070650Z AUTO 16002KT 7000NDV BKN006/// M02/M03 Q1007 R99/450168
15572012-12-06-3EKAH 060650Z AUTO 32013KT 9999NDV -SN OVC028/// M03/M06 Q1005 99590131
15562012-12-05-5EKAH 051020Z AUTO 29013KT 9999NDV NCD M05/M09 Q0998 R99/450164
15552012-12-04-1EKAH 040620Z AUTO 33001KT 1400NDV R10R/P1500N R28L/P1500N BR BKN100/// M01/M03 Q0992 99390136
15542012-12-03-6EKAH 030050Z AUTO 11002KT 9999NDV BKN076/// BKN140/// M06/M07 Q1013 99910261
15532012-12-02-7EKAH 021950Z AUTO 30002KT 9999NDV BKN130/// M07/M09 Q1013 99910261
15522012-12-01-3EKAH 010720Z AUTO 29003KT 9999NDV FEW097/// SCT130/// M03/M05 Q1009 99910273
15512012-11-300EKAH 300720Z AUTO 31004KT 2400NDV -SN OVC003/// 00/M01 Q1005
15502012-11-293EKAH 290950Z AUTO 03012KT 9999NDV OVC022/// 03/M01 Q1005
15492012-11-286EKAH 272320Z AUTO 36005KT 320V030 9999NDV OVC009/// 06/05 Q1005
15482012-11-276EKAH 270720Z AUTO 10002KT 1800NDV -SHRA BR BKN011/// OVC049/// 06/05 Q1003
15472012-11-268EKAH 260720Z AUTO 25014G24KT 200V290 9000NDV OVC013/// 08/06 Q1000
15462012-11-255EKAH 250050Z AUTO 12009KT 070V150 9999NDV OVC014/// 05/02 Q1018
15452012-11-246EKAH 241320Z AUTO 21006KT 180V250 9999NDV BKN005/// 06/04 Q1019
15442012-11-236EKAH 231820Z AUTO 21005KT 150V280 8000NDV -RA BKN012/// OVC037/// 06/05 Q1013
15432012-11-228EKAH 220750Z AUTO 23005KT 190V280 8000NDV SCT008/// BKN025/// 08/06 Q1012
15422012-11-217EKAH 210650Z AUTO 17012G22KT 140V200 6000NDV OVC004/// 07/05 Q1017
15412012-11-208EKAH 200620Z AUTO 20009G19KT 130V250 7000NDV FEW010/// BKN023/// 08/06 Q1015
15402012-11-192EKAH 190420Z AUTO 21004KT 9999NDV NCD 02/M00 Q1017
15392012-11-185EKAH 181550Z AUTO 24004KT 9999NDV BKN190/// 05/03 Q1011
15382012-11-173EKAH 170350Z AUTO 20005KT 140V270 5000NDV OVC011/// 03/00 Q1014
15372012-11-169EKAH 160620Z AUTO 19004KT 160V230 2600NDV BR FEW003/// BKN032/// BKN052/// 09/07 Q1019
15362012-11-1510EKAH 150650Z AUTO 25006KT 210V270 6000NDV OVC019/// 10/08 Q1022
15352012-11-1410EKAH 140620Z AUTO 22007KT 170V260 6000NDV OVC040/// 10/08 Q1027
15342012-11-137EKAH 130820Z AUTO 17008KT 140V250 5000NDV BKN009/// 07/05 Q1027
15332012-11-124EKAH 121620Z AUTO 23004KT 200V260 9999NDV NCD 04/02 Q1020
15322012-11-118EKAH 111850Z AUTO 24007KT 170V280 9999NDV SCT039/// 08/05 Q1008
15312012-11-097EKAH 090650Z AUTO 26005KT 230V290 9999NDV OVC015/// 07/05 Q1011
15302012-11-089EKAH 080620Z AUTO 23007KT 160V270 9999NDV -SHRA SCT009/// BKN039/// 09/08 Q1005
15292012-11-075EKAH 070620Z AUTO 30010KT 9999NDV BKN027/// 05/01 Q1006
15282012-11-061EKAH 060720Z AUTO 24004KT 210V270 9999NDV FEW220/// 01/M00 Q1006 RWY 10R 99190046
15272012-11-055EKAH 050520Z AUTO 03004KT 9999NDV SCT020/// BKN093/// BKN100/// 05/04 Q0996
15262012-11-0410EKAH 041250Z AUTO 25007KT 200V280 9999NDV BKN028/// 10/03 Q1000
15252012-11-038EKAH 030120Z AUTO 19006KT 140V240 9999NDV FEW041/// BKN079/// BKN190/// 08/04 Q0994
15242012-11-027EKAH 020650Z AUTO 21007KT 160V260 9999NDV FEW020/// FEW047/// BKN100/// 07/04 Q0987
15232012-11-017EKAH 010620Z AUTO 14011KT 100V180 9999NDV BKN011/// 07/04 Q0992
15222012-10-317EKAH 310620Z AUTO 19008KT 110V280 8000NDV BKN010/// 07/05 Q0997
15212012-10-302EKAH 300650Z AUTO 24008KT 210V270 9999NDV NCD 02/01 Q0999
15202012-10-295EKAH 290720Z AUTO 20010G20KT 140V240 8000NDV -RA OVC009/// 05/03 Q1005
15192012-10-287EKAH 281150Z AUTO 20005KT 150V260 9999NDV FEW020/// 07/01 Q1012
15182012-10-262EKAH 260520Z AUTO 28011KT 9999NDV NCD 02/M03 Q1011
15172012-10-248EKAH 240450Z AUTO 27002KT 4800NDV BR OVC009/// 08/07 Q1023
15162012-10-239EKAH 230620Z AUTO 05006KT 9999NDV OVC013/// 09/08 Q1030
15152012-10-2211EKAH 220820Z AUTO 09006KT 9999NDV -RA BKN006/// 11/09 Q1028
15142012-10-2110EKAH 210850Z AUTO 29004KT 9000NDV OVC022/// 10/09 Q1023
15132012-10-1912EKAH 190420Z AUTO 17002KT 3900NDV -RA SCT005/// BKN037/// 12/11 Q1012 RERA
15122012-10-1711EKAH 171420Z AUTO 16006KT 120V220 9999NDV BKN094/// 11/08 Q1007
15112012-10-1611EKAH 161350Z AUTO 17011G23KT 120V220 9999NDV BKN011/// BKN044/// BKN120/// 11/08 Q1002
15102012-10-139EKAH 122150Z AUTO 10016KT 9999NDV SCT019/// SCT120/// BKN140/// 09/04 Q1008
15092012-10-122EKAH 112120Z AUTO 11001KT 0500NDV R10R/P1500D R28L/P1500N FG NCD 02/M00 Q1015
15082012-10-112EKAH 102150Z AUTO 26002KT 4800NDV BR NCD 02/M00 Q1012
15072012-10-107EKAH 100620Z AUTO 29009KT 9999NDV SCT089/// 07/04 Q1008
15062012-10-098EKAH 090520Z AUTO 28016G26KT 9999NDV BKN032/// 08/03 Q1000
15052012-10-089EKAH 080620Z AUTO 28016KT 9999NDV NCD 09/05 Q1013
15042012-10-077EKAH 070120Z AUTO 25009KT 220V280 9999NDV NCD 07/04 Q1007
15032012-10-065EKAH 060250Z AUTO 36002KT 0200NDV R10R/0400V1200D R28L/0400V1300D FG FEW002/// 05/03 Q1003
15022012-10-0511EKAH 051050Z AUTO 18006KT 110V230 9999NDV DZ BKN011/// BKN034/// 11/08 Q1001
15012012-10-0411EKAH 041120Z AUTO 25006KT 190V290 9999NDV NCD 11/06 Q1001
15002012-10-0313EKAH 030720Z AUTO 17009KT 110V200 6000NDV BKN006/// 13/11 Q1006
14992012-10-0213EKAH 020520Z AUTO 21005KT 140V260 7000NDV FEW012/// SCT160/// BKN200/// 13/12 Q1008
14982012-10-0113EKAH 010820Z AUTO 19008KT 120V260 8000NDV DZ SCT007/// OVC022/// 13/11 Q1012
14972012-09-3014EKAH 300920Z AUTO 26012KT 220V290 9999NDV FEW140/// 14/08 Q1014
14962012-09-2913EKAH 290020Z AUTO 20008KT 140V260 9999NDV -SHRA FEW012/// BKN058/// 13/10 Q1008
14952012-09-2813EKAH 280950Z AUTO 24009KT 190V290 9999NDV NCD 13/07 Q1009
14942012-09-2711EKAH 271850Z AUTO 25005KT 220V280 9999NDV FEW013/// FEW019/// BKN026/// 11/10 Q1001
14932012-09-2612EKAH 260720Z AUTO 15005KT 120V180 6000NDV FEW002/// BKN130/// 12/11 Q1002
14922012-09-2512EKAH 250620Z AUTO 15007KT 120V200 9999NDV NCD 12/11 Q0998
14912012-09-2412EKAH 240720Z AUTO 11011KT 080V140 9999NDV FEW015/// SCT046/// 12/08 Q1009
14902012-09-2313EKAH 230950Z AUTO 31012KT 9999NDV SCT024/// 13/05 Q1015
14892012-09-219EKAH 210650Z AUTO 06003KT 4400NDV +RA OVC012/// 09/07 Q1013
14882012-09-208EKAH 200420Z AUTO 23006KT 180V270 9999NDV BKN046/// BKN150/// 08/06 Q1014
14872012-09-1910EKAH 190550Z AUTO 25011KT 210V280 9999NDV BKN014/// 10/06 Q1005
14862012-09-1814EKAH 180650Z AUTO 21005KT 160V270 9999NDV BKN062/// 14/11 Q1004
14852012-09-1715EKAH 162220Z AUTO 20007G18KT 130V260 9999NDV OVC051/// 15/12 Q1007
14842012-09-1512EKAH 150220Z AUTO 28012KT 9999NDV FEW029/// 12/09 Q1003
14832012-09-1414EKAH 141650Z AUTO 27009KT 9999NDV FEW069/// BKN130/// 14/09 Q0998
14822012-09-1315EKAH 131120Z AUTO 28008KT 9999NDV BKN036/// 15/06 Q1013
14812012-09-1214EKAH 120850Z AUTO 24008G18KT 190V280 9999NDV SCT090/// 14/06 Q1007
14802012-09-1117EKAH 110520Z AUTO 18008KT 130V250 9999NDV FEW042/// 17/14 Q1006
14792012-09-1017EKAH 100650Z AUTO 16004KT 120V220 9999NDV NCD 17/16 Q1008
14782012-09-0916EKAH 091820Z AUTO 14003KT 9999NDV NCD 16/13 Q1014
14772012-09-0714EKAH 070650Z AUTO 28015KT 9999NDV BKN140/// 14/10 Q1013
14762012-09-0611EKAH 060650Z AUTO 29012KT 9999NDV NCD 11/06 Q1021
14752012-09-0513EKAH 050520Z AUTO 25007KT 210V280 9999NDV NCD 13/09 Q1016
14742012-09-0416EKAH 040650Z AUTO 22007KT 160V270 9999NDV BKN010/// 16/13 Q1018
14732012-09-0315EKAH 030650Z AUTO 28009KT 250V310 9999NDV NCD 15/12 Q1022
14722012-09-0218EKAH 021250Z AUTO 29011G23KT 9999NDV -SHRA BKN029/// 18/14 Q1020
14712012-08-3017EKAH 300620Z AUTO 22002KT 9999NDV BKN066/// BKN100/// 17/14 Q1014
14702012-08-2920EKAH 291250Z AUTO 21006KT 140V260 9999NDV FEW019/// 20/12 Q1018
14692012-08-2816EKAH 280550Z AUTO 15006KT 120V200 9999NDV FEW051/// BKN100/// 16/12 Q1015
14682012-08-2713EKAH 270620Z AUTO 29009KT 9999NDV FEW024/// 13/09 Q1015
14672012-08-2615EKAH 260850Z AUTO 16002KT 9999NDV -SHRA BKN015/// BKN069/// 15/14 Q1002
14662012-08-2415EKAH 240620Z AUTO 21003KT 9999NDV SCT081/// 15/13 Q1008
14652012-08-2315EKAH 230520Z AUTO 25010KT 220V280 9999NDV NCD 15/12 Q1008
14642012-08-2217EKAH 221020Z AUTO 26011KT 220V300 9999NDV SCT066/// 17/13 Q1006
14632012-08-2116EKAH 210520Z AUTO 25006KT 210V280 9999NDV BKN020/// 16/14 Q1018
14622012-08-2020EKAH 200550Z AUTO 12006KT 080V150 9999NDV NCD 20/15 Q1013
14612012-08-1922EKAH 182320Z AUTO 23004KT 180V290 9999NDV BKN120/// BKN160/// 22/14 Q1017
14602012-08-1716EKAH 170750Z AUTO 24002KT 7000NDV BKN001/// 16/15 Q1021
14592012-08-1617EKAH 160550Z AUTO 12006KT 090V170 9999NDV NCD 17/15 Q1017
14582012-08-159EKAH 150520Z 00000KT 6000 NSC 09/08 Q1020
14572012-08-1414EKAH 140550Z AUTO 00000KT 9999NDV NCD 14/10 Q1021
14562012-08-1313EKAH 130420Z AUTO 00000KT 9999NDV BKN055/// BKN100/// 13/11 Q1022
14552012-08-1117EKAH 111920Z AUTO 16002KT 9999NDV NCD 17/09 Q1023
14542012-08-0920EKAH 091320Z AUTO 30011KT 260V340 9999NDV BKN042/// BKN078/// 20/09 Q1021
14532012-08-0812EKAH 080220Z AUTO 26009KT 9999NDV NCD 12/08 Q1013
14522012-08-0321EKAH 031250Z AUTO 20006KT 150V280 9999NDV FEW093/// 21/13 Q1014
14512012-07-3016EKAH 301720Z AUTO 25005KT 210V280 9999NDV FEW089/// 16/10 Q1011
14502012-07-2914EKAH 291220Z AUTO 06005KT 9999NDV -RA FEW023/// BKN064/// 14/11 Q1012
14492012-07-2623EKAH 261650Z AUTO 30008KT 270V330 9999NDV NCD 23/09 Q1017
14482012-07-2425EKAH 241120Z AUTO VRB07KT 9999NDV NCD 25/11 Q1021
14472012-07-2211EKAH 220320Z AUTO 27009KT 9999NDV NCD 11/09 Q1023
14462012-07-2116EKAH 210750Z AUTO 34011KT 9999NDV FEW013/// SCT028/// BKN093/// 16/10 Q1014
14452012-07-2015EKAH 200650Z AUTO 27010KT 9999NDV BKN011/// 15/11 Q1005
14442012-07-1815EKAH 181920Z AUTO 22002KT 9999NDV -SHRA OVC040/// 15/11 Q1004
14432012-07-1712EKAH 170150Z AUTO 25007KT 9999NDV BKN053/// 12/10 Q1011
14422012-07-1613EKAH 160520Z AUTO 26011G22KT 9999NDV FEW069/// 13/09 Q1012
14412012-07-1511EKAH 150150Z AUTO 26009KT 9999NDV NCD 11/08 Q1003
14402012-07-1416EKAH 141550Z AUTO 26005KT 9999NDV BKN096/// 16/12 Q0998
14392012-07-1314EKAH 130720Z AUTO 24010KT 180V290 9999NDV BKN018/// 14/09 Q1005
14382012-07-1217EKAH 120850Z AUTO 21007KT 130V280 9999NDV BKN022/// 17/10 Q1004
14372012-07-1114EKAH 110520Z AUTO 12003KT 9999NDV FEW023/// 14/11 Q1008
14362012-07-1015EKAH 100520Z AUTO 26011KT 230V290 9999NDV -DZ OVC006/// 15/13 Q1004
14352012-07-0918EKAH 090620Z AUTO 18007KT 120V230 9999NDV SCT010/// BKN030/// 18/14 Q1003
14342012-07-0824EKAH 081220Z AUTO 14007KT 090V210 9999NDV NCD 24/14 Q1009
14332012-07-0717EKAH 062220Z AUTO 22003KT 9999NDV FEW007/// 17/16 Q1011
14322012-07-0618EKAH 052250Z AUTO 00000KT 9999NDV BKN038/// BKN059/// 18/14 Q1016
14312012-07-0520EKAH 050750Z 09010KT 060V120 9999 FEW024 20/11 Q1018
14302012-07-0413EKAH 032350Z AUTO 13002KT 8000NDV NCD 13/11 Q1020
14292012-07-0311EKAH 030420Z AUTO 00000KT 8000NDV SCT004/// 11/09 Q1020
14282012-07-0217EKAH 021950Z AUTO 19005KT 140V240 9999NDV BKN052/// BKN073/// BKN170/// 17/12 Q1020
14272012-06-3013EKAH 300150Z AUTO 17002KT 9999NDV NCD 13/11 Q1008
14262012-06-2916EKAH 290820Z AUTO 23006KT 160V300 3400NDV +SHRA BKN006/// 16/15 Q1008
14252012-06-2815EKAH 280850Z AUTO 02003KT 9999NDV BKN020/// 15/08 Q1013
14242012-06-2712EKAH 270550Z AUTO 29016KT 260V320 9999NDV BKN022/// 12/07 Q1013
14232012-06-2613EKAH 260620Z AUTO 28015KT 250V310 9999NDV BKN013/// 13/10 Q1009
14222012-06-2515EKAH 251050Z AUTO 30013KT 280V340 9999NDV FEW021/// BKN056/// 15/10 Q1001
14212012-06-2413EKAH 241350Z AUTO 16006KT 120V210 9999NDV -RA BKN010/// 13/11 Q1007
14202012-06-2215EKAH 221950Z AUTO 18004KT 140V230 9999NDV NCD 15/09 Q1015
14192012-06-2112EKAH 210520Z AUTO 05004KT 010V080 9999NDV NCD 12/10 Q1018
14182012-06-2012EKAH 200550Z AUTO 36002KT 9999NDV NCD 12/09 Q1020
14172012-06-1911EKAH 190520Z AUTO 25007KT 200V280 9999NDV FEW007/// 11/09 Q1019
14162012-06-1818EKAH 181120Z AUTO 09009KT 060V130 9999NDV NCD 18/09 Q1014
14152012-06-1618EKAH 161120Z AUTO 18008KT 120V240 9999NDV BKN020/// 18/12 Q1011
14142012-06-1513EKAH 150850Z AUTO 17006KT 110V240 9999NDV BKN035/// 13/03 Q1019
14132012-06-1412EKAH 140950Z AUTO 25009KT 220V280 9999NDV OVC029/// 12/05 Q1016
14122012-06-1311EKAH 130520Z AUTO 30003KT 6000NDV OVC028/// 11/10 Q1007
14112012-06-1213EKAH 120820Z AUTO 03003KT 9999NDV BKN014/// 13/08 Q1005
14102012-06-1115EKAH 111520Z AUTO 28007KT 240V320 9999NDV BKN037/// 15/10 Q1005
14092012-06-1013EKAH 101820Z AUTO 25007KT 210V280 8000NDV SCT006/// BKN026/// 13/11 Q1005
14082012-06-0916EKAH 091020Z AUTO 20008KT 130V280 9999NDV BKN067/// 16/09 Q1006
14072012-06-0811EKAH 080220Z AUTO 10008KT 9999NDV BKN041/// 11/08 Q1005
14062012-06-0614EKAH 060850Z AUTO 15007KT 090V210 9999NDV FEW028/// 14/05 Q1011
14052012-06-0412EKAH 041650Z AUTO 26009KT 230V290 9999NDV BKN044/// 12/07 Q1005
14042012-06-0313EKAH 031150Z AUTO 29017KT 260V320 9999NDV FEW050/// 13/M03 Q1004
14032012-06-0211EKAH 021750Z AUTO 28017KT 9999NDV FEW074/// 11/M01 Q1009
14022012-06-0110EKAH 010620Z AUTO 29020KT 9999NDV BKN020/// 10/05 Q1006
14012012-05-3110EKAH 310550Z AUTO 26007KT 220V290 9999NDV OVC043/// 10/01 Q1014
14002012-05-3011EKAH 300750Z AUTO 32010KT 290V350 9999NDV BKN039/// 11/04 Q1014
13992012-05-2910EKAH 290520Z AUTO 05016KT 020V080 9999NDV -SHRA FEW027/// BKN037/// 10/06 Q1006
13982012-05-2816EKAH 280520Z AUTO 26008KT 230V290 9999NDV NCD 16/08 Q1013
13972012-05-2723EKAH 271450Z AUTO 24005KT 170V300 9999NDV NCD 23/08 Q1021
13962012-05-2523EKAH 250850Z AUTO 05001KT 9999NDV NCD 23/14 Q1031
13952012-05-2420EKAH 241920Z AUTO 00000KT 9999NDV NCD 20/08 Q1032
13942012-05-2322EKAH 231850Z AUTO 05001KT 9999NDV NCD 22/11 Q1029
13932012-05-2219EKAH 220850Z AUTO 07011KT 9999NDV NCD 19/13 Q1014
13922012-05-2115EKAH 210550Z AUTO 07012KT 9999NDV NCD 15/10 Q1010
13912012-05-2019EKAH 201150Z AUTO 07009KT 9999NDV NCD 19/09 Q1013
13902012-05-1914EKAH 191820Z AUTO 17004KT 130V220 9999NDV FEW046/// 14/09 Q1013
13892012-05-1710EKAH 171250Z AUTO 28020G30KT 9999NDV SCT031/// 10/03 Q1014
13882012-05-169EKAH 160550Z AUTO 15002KT 9999NDV BKN014/// 09/07 Q1006
13872012-05-157EKAH 150420Z AUTO 12002KT 7000NDV SCT088/// 07/05 Q1010
13862012-05-1410EKAH 141820Z AUTO 22006KT 140V270 9999NDV BKN053/// 10/05 Q1013
13852012-05-0912EKAH 090550Z AUTO 17003KT 7000NDV FEW002/// SCT089/// 12/10 Q1008
13842012-05-085EKAH 080520Z AUTO 14003KT 9999NDV SCT029/// 05/03 Q1018
13832012-05-071EKAH 070450Z AUTO 28002KT 9999NDV NCD 01/M01 Q1017
13812012-05-062EKAH 052220Z AUTO 27006KT 9999NDV NCD 02/M03 Q1010
13822012-05-062EKAH 052220Z AUTO 27006KT 9999NDV NCD 02/M03 Q1010
13802012-05-048EKAH 040720Z AUTO 24007KT 200V270 6000NDV OVC006/// 08/06 Q1001
13792012-05-0312EKAH 030650Z AUTO 26004KT 200V300 9999NDV NCD 12/03 Q1012
13782012-05-0212EKAH 020650Z AUTO 11003KT 9999NDV NCD 12/01 Q1022
13772012-05-0115EKAH 011820Z AUTO 05005KT 9999NDV NCD 15/05 Q1023
13762012-04-3010EKAH 300620Z AUTO 11007KT 9999NDV OVC026/// 10/04 Q1018
13752012-04-2910EKAH 290750Z AUTO 08015KT 9999NDV FEW100/// 10/05 Q1017
13742012-04-288EKAH 280820Z AUTO 34006KT 310V090 9999NDV SCT100/// BKN130/// 08/01 Q1021
13732012-04-279EKAH 270350Z AUTO 19008KT 130V280 9999NDV BKN050/// 09/07 Q1007
13722012-04-269EKAH 260650Z AUTO 17009KT 130V210 8000NDV RA OVC036/// 09/06 Q0999
13712012-04-259EKAH 250550Z AUTO 14002KT 3500NDV -DZ BR BKN002/// BKN031/// BKN047/// 09/07 Q0998
13702012-04-2413EKAH 241120Z AUTO 11013KT 080V140 9999NDV NCD 13/05 Q1001
13692012-04-236EKAH 230550Z AUTO 17003KT 4300NDV BR FEW011/// BKN048/// 06/05 Q1003
13682012-04-212EKAH 210050Z AUTO 00000KT 9000NDV NCD 02/M00 Q0999
13672012-04-198EKAH 190650Z AUTO 11009KT 080V150 9999NDV BKN088/// 08/02 Q0997
13662012-04-186EKAH 180020Z AUTO 13007KT 090V170 9999NDV OVC045/// 06/M00 Q1000
13652012-04-172EKAH 162350Z AUTO 27010KT 9999NDV NCD 02/M02 Q1011
13642012-04-169EKAH 161150Z AUTO 28022G32KT 250V310 9999NDV NCD 09/M07 Q1013
13632012-04-157EKAH 150720Z AUTO 29007KT 9999NDV FEW009/// 07/03 Q1011
13622012-04-149EKAH 141450Z AUTO 20006KT 120V250 9999NDV -SHRA BKN044/// 09/00 Q1006
13612012-04-122EKAH 120520Z AUTO 30005KT 260V350 0300NDV R10R/0450V0650N R28L/0300V0600U FG VV001 02/01 Q1002
13602012-04-115EKAH 110650Z AUTO 32011KT 9999NDV -RA FEW010/// BKN030/// 05/03 Q0994
13592012-04-107EKAH 100620Z AUTO 17011KT 130V240 2300NDV -RA BR OVC002/// 07/06 Q0990
13582012-04-095EKAH 090650Z AUTO 18010G21KT 140V230 5000NDV DZ BKN011/// 05/03 Q0997
13572012-04-08-2EKAH 072150Z AUTO 28006KT 9999NDV NCD M02/M09 Q1009
13562012-04-072EKAH 062220Z AUTO 35007KT 9999NDV -SHRA OVC014/// 02/M00 Q1000
13552012-04-056EKAH 050920Z AUTO 26008KT 220V300 9999NDV NCD 06/M06 Q1021
13542012-04-03-3EKAH 030320Z AUTO 22002KT 9999NDV FEW140/// M03/M06 Q1006
13532012-04-020EKAH 020550Z AUTO 29009KT 9999NDV NCD 00/M06 Q1004
13522012-04-016EKAH 010820Z AUTO 29018KT 9999NDV FEW017/// BKN076/// 06/00 Q1008
13512012-03-314EKAH 310820Z AUTO 34016G27KT 310V010 9999NDV -RA BKN044/// 04/M03 Q1004
13502012-03-306EKAH 300550Z AUTO 30012KT 9999NDV NCD 06/03 Q1006
13492012-03-299EKAH 290820Z AUTO 31016KT 9999NDV BKN018/// 09/03 Q1010
13482012-03-2811EKAH 280720Z AUTO 29016KT 9999NDV NCD 11/04 Q1023
13472012-03-2711EKAH 270750Z AUTO 31007KT 280V350 9999NDV NCD 11/06 Q1030
13462012-03-265EKAH 260820Z AUTO 28006KT 250V310 3300NDV BR BKN001/// 05/04 Q1034
13452012-03-254EKAH 250350Z AUTO 29004KT 9999NDV NCD 04/02 Q1026
13442012-03-246EKAH 240920Z AUTO 29006KT 0800NDV R10R/1100VP1500U R28L/1100D FG VV002 06/05 Q1027
13432012-03-235EKAH 230750Z AUTO 28004KT 250V310 0250NDV R10R/0400N R28L/0450N FG VV001 05/04 Q1029
13422012-03-227EKAH 220820Z AUTO 29008KT 7000NDV BKN003/// 07/06 Q1033
13412012-03-2111EKAH 210920Z AUTO 28014KT 9999NDV FEW010/// 11/07 Q1031
13402012-03-205EKAH 200020Z AUTO 23006KT 200V270 9999NDV FEW014/// BKN037/// BKN055/// 05/03 Q1024
13392012-03-194EKAH 190720Z AUTO 29023G33KT 9999NDV NCD 04/M02 Q1017
13382012-03-188EKAH 180920Z AUTO 33001KT 5000NDV OVC005/// 08/06 Q1010
13372012-03-176EKAH 170850Z AUTO 24007KT 200V290 3600NDV BR BKN019/// 06/04 Q1011
13362012-03-162EKAH 160650Z AUTO 20003KT 1400NDV R10R/P1500N R28L/P1500N BR NCD 02/01 Q1017
13352012-03-155EKAH 150650Z 25009KT 220V290 9999 BKN016 05/01 Q1027
13342012-03-148EKAH 140850Z AUTO 32010KT 300V360 9999NDV FEW013/// 08/04 Q1027
13332012-03-1310EKAH 130920Z AUTO 30022KT 9999NDV NCD 10/05 Q1025
13322012-03-128EKAH 120720Z AUTO 29022KT 9999NDV FEW010/// 08/04 Q1022
13312012-03-116EKAH 110920Z AUTO 25006KT 220V290 9999NDV OVC009/// 06/03 Q1026
13302012-03-107EKAH 100920Z AUTO 30014KT 9000NDV -RA OVC013/// 07/04 Q1024
13292012-03-095EKAH 090720Z AUTO 20005KT 150V250 9000NDV BKN071/// 05/03 Q1027
13282012-03-085EKAH 080920Z AUTO 30012KT 9999NDV NCD 05/03 Q1017 88CLRD//
13272012-03-072EKAH 070920Z AUTO 17014G24KT 130V210 9999NDV BKN063/// 02/M03 Q1018
13262012-03-063EKAH 060920Z AUTO 14012G22KT 110V180 9999NDV FEW019/// 03/M03 Q1031
13252012-03-051EKAH 050520Z AUTO 11013KT 9999NDV BKN110/// 01/M02 Q1023
13242012-03-043EKAH 040550Z AUTO 13011KT 090V170 9999NDV OVC091/// 03/M02 Q1025
13232012-03-035EKAH 030920Z AUTO 13008KT 090V170 9999NDV NCD 05/M04 Q1030
13222012-03-027EKAH 012320Z AUTO 28015KT 7000NDV BKN007/// 07/04 Q1022
13212012-03-018EKAH 010920Z AUTO 28014KT 9999NDV BKN008/// 08/05 Q1019
13202012-02-298EKAH 290550Z AUTO 30014KT 9000NDV OVC002/// 08/06 Q1018
13192012-02-288EKAH 280650Z AUTO 26013KT 230V290 8000NDV BKN006/// 08/06 Q1010
13182012-02-272EKAH 270850Z AUTO 19005KT 150V230 5000NDV -RA BKN004/// OVC020/// 02/01 Q1019 RERA
13172012-02-263EKAH 260920Z AUTO 32006KT 290V360 9999NDV CAVOK 03/M01 Q1022
13162012-02-257EKAH 250920Z AUTO 29026G40KT 9999NDV BKN024/// 07/01 Q1008
13152012-02-247EKAH 240720Z AUTO 26008KT 210V310 9999NDV FEW180/// 07/03 Q1008
13142012-02-237EKAH 230920Z AUTO 29018KT 9999NDV FEW016/// 07/03 Q1007
13132012-02-226EKAH 220220Z AUTO 25010KT 210V280 5000NDV OVC004/// 06/05 Q1018
13122012-02-217EKAH 210920Z AUTO 27013KT 9999NDV BKN010/// 07/05 Q1014
13112012-02-20-2EKAH 200520Z AUTO 25006KT 220V280 9999NDV NCD M02/M05 Q1023
13102012-02-193EKAH 190920Z AUTO 28014KT 9999NDV BKN015/// 03/M00 Q0999
13092012-02-183EKAH 180920Z AUTO 19007KT 140V240 4200NDV BR OVC002/// 03/02 Q1004
13082012-02-176EKAH 170920Z AUTO 29016KT 9999NDV FEW012/// 06/02 Q1011
13072012-02-162EKAH 160920Z AUTO 23007KT 200V270 9999NDV BKN049/// 02/M04 Q1016
13062012-02-154EKAH 150920Z AUTO 35017G30KT 9999NDV NCD 04/M05 Q1000 99010095
13052012-02-141EKAH 140920Z AUTO 32005KT 2000NDV BR BKN001/// 01/00 Q1010 99650436
13042012-02-13-2EKAH 130920Z AUTO 23004KT 200V260 9999NDV FEW120/// M02/M03 Q1018 99320147
13032012-02-121EKAH 120920Z AUTO 27005KT 230V290 1900NDV -SHRA BR BKN001/// 01/00 Q1022 99550128
13022012-02-11-6EKAH 110920Z AUTO 23004KT 9999NDV BKN021/// BKN170/// M06/M10 Q1039
13012012-02-10-4EKAH 100720Z AUTO 02004KT 9999NDV OVC023/// M04/M09 Q1046 99010095
13002012-02-09-3EKAH 090920Z AUTO 07013KT 9999NDV NCD M03/M07 Q1041 99010095
12992012-02-08-4EKAH 080920Z AUTO 31003KT 9999NDV OVC013/// M04/M07 Q1046 99010095
12982012-02-07-17EKAH 070720Z AUTO 19001KT 9999NDV -SHSN NCD M17/M20 Q1046 99010095
12972012-02-06-6EKAH 060050Z AUTO 16007KT 120V190 9999NDV BKN019/// M06/M11 Q1038 99450150
12962012-02-05-5EKAH 050920Z AUTO 17005KT 140V220 7000NDV -SN BKN020/// M05/M09 Q1036 99810195
12952012-02-04-9EKAH 040850Z AUTO 05004KT 9999NDV BKN027/// M09/M15 Q1042 99490155
12942012-02-03-7EKAH 030920Z AUTO 04010KT 9999NDV -SHSN BKN027/// M07/M13 Q1039 99490143
12932012-02-02-4EKAH 020250Z AUTO 07008KT 9999NDV BKN030/// M04/M11 Q1042 99910059
12922012-02-01-1EKAH 010920Z AUTO 09009KT 9999NDV BKN029/// M01/M08 Q1044 99910059
12912012-01-31-2EKAH 310820Z AUTO 11009KT 9999NDV NCD M02/M08 Q1040 99910055
12902012-01-30-1EKAH 300720Z AUTO 12012KT 090V150 9999NDV NCD M01/M07 Q1040 99910249
12892012-01-29-1EKAH 290920Z AUTO 12008KT 090V160 3800NDV -SN OVC010/// M01/M03 Q1037 10490328
12882012-01-28-1EKAH 280920Z AUTO 11008KT 080V140 9999NDV BKN019/// M01/M05 Q1034
12872012-01-270EKAH 270650Z AUTO 14014G25KT 110V190 9000NDV FEW019/// BKN067/// 00/M04 Q1023
12862012-01-260EKAH 260650Z AUTO 14009KT 110V170 9999NDV BKN010/// M00/M02 Q1025
12852012-01-25-3EKAH 250920Z AUTO 11005KT 9999NDV BKN008/// M03/M04 Q1027
12842012-01-24-3EKAH 240650Z AUTO 08003KT 9999NDV BKN015/// M03/M04 Q1018 99090072
12832012-01-230EKAH 230120Z AUTO 31002KT 9999NDV FEW025/// M00/M03 Q1007 99190055
12822012-01-222EKAH 220920Z AUTO 34002KT 8000NDV OVC003/// 02/01 Q0990
12812012-01-212EKAH 210920Z AUTO 17014G26KT 120V220 5000NDV RA BR OVC005/// 02/01 Q0992
12802012-01-200EKAH 200750Z AUTO 27006KT 9000NDV BKN190/// M00/M01 Q1001 10290147
12792012-01-194EKAH 190920Z AUTO 25007KT 190V280 9999NDV FEW047/// BKN098/// BKN170/// 04/03 Q1004
12782012-01-183EKAH 180620Z 21004KT 170V260 8000 FEW001 BKN014 03/02 Q1020
12772012-01-170EKAH 170920Z AUTO 00000KT 5000NDV FEW016/// M00/M01 Q1025
12762012-01-161EKAH 160520Z AUTO 28004KT 9999NDV OVC110/// 01/00 Q1024 10150195
12752012-01-15-3EKAH 150920Z AUTO 00000KT 9999NDV OVC093/// M03/M04 Q1026
12742012-01-141EKAH 140920Z AUTO 31006KT 9999NDV NCD 01/M04 Q1023
12732012-01-133EKAH 130620Z AUTO 30018KT 9999NDV BKN180/// 03/M02 Q1007
12722012-01-129EKAH 120650Z AUTO 25017G30KT 200V280 9999NDV OVC014/// 09/06 Q1001
12712012-01-118EKAH 110920Z AUTO 28012KT 9999NDV FEW013/// SCT039/// BKN086/// 08/05 Q1019
12702012-01-103EKAH 100650Z AUTO 28007KT 9000NDV NCD 03/01 Q1023
12692012-01-091EKAH 090920Z AUTO 19002KT 7000NDV -SN SCT024/// BKN040/// BKN051/// 01/M00 Q1020
12682012-01-084EKAH 080920Z AUTO 36007KT 9999NDV OVC004/// 04/03 Q1009
12672012-01-076EKAH 070920Z AUTO 27009KT 9999NDV -SHRA BKN002/// 06/05 Q0997
12662012-01-061EKAH 060620Z AUTO 32008KT 9999NDV NCD 01/M02 Q1002
12652012-01-054EKAH 050650Z AUTO 27016KT 9000NDV -RA OVC009/// 04/03 Q0963
12642012-01-046EKAH 040520Z AUTO 27026G41KT 230V300 9999NDV -SHRA SCT023/// BKN056/// BKN071/// 06/02 Q0985
12632012-01-034EKAH 030650Z AUTO 21010G22KT 120V260 9999NDV BKN011/// 04/02 Q1003
12622012-01-027EKAH 020650Z AUTO 26008KT 220V300 9999NDV BKN016/// 07/05 Q0996
12612012-01-017EKAH 010920Z AUTO 20005KT 140V270 4500NDV BR OVC002/// 07/06 Q1000
12602011-12-31-3EKAH 310920Z AUTO 22001KT 9999NDV NCD M03/M04 Q1010
12592011-12-304EKAH 300920Z AUTO 28008KT 9999NDV -SHRA BKN018/// BKN064/// 04/02 Q0997
12582011-12-296EKAH 290620Z AUTO 26016G28KT 220V290 9999NDV BKN019/// 06/02 Q0996
12572011-12-2710EKAH 261950Z AUTO 26014KT 220V290 9999NDV BKN015/// 10/07 Q1021
12562011-12-238EKAH 230620Z AUTO 23007KT 190V280 7000NDV FEW003/// BKN051/// 08/07 Q1012
12552011-12-223EKAH 220620Z AUTO 13003KT 9999NDV OVC054/// 03/01 Q1015
12542011-12-213EKAH 210620Z AUTO 29014KT 9999NDV OVC020/// 03/01 Q1006
12532011-12-202EKAH 200850Z AUTO 19005KT 110V260 7000NDV DZ BKN008/// 02/01 Q1004
12522011-12-194EKAH 190720Z AUTO 28016KT 9999NDV SCT025/// 04/01 Q1002 99390134
12512011-12-182EKAH 180950Z AUTO 29009KT 9999NDV NCD 02/M01 Q0997 99320049
12502011-12-164EKAH 160650Z AUTO 11003KT 9999NDV RESHRA BKN014/// 04/02 Q0987
12492011-12-155EKAH 150720Z AUTO 23007KT 170V280 9999NDV FEW017/// BKN045/// BKN100/// 05/03 Q0993
12482011-12-146EKAH 140850Z AUTO 20013G25KT 150V250 9999NDV BKN017/// 06/03 Q0989
12472011-12-135EKAH 130650Z AUTO 16016G35KT 110V210 9999NDV DZ BKN014/// 05/02 Q0990
12462011-12-125EKAH 120720Z AUTO 18008KT 130V230 9999NDV SCT016/// BKN110/// 05/01 Q0999
12452011-12-113EKAH 110820Z AUTO 24007KT 210V270 9999NDV NCD 03/M00 Q1008
12442011-12-104EKAH 101220Z AUTO 25013KT 220V290 9999NDV NCD 04/M01 Q0997
12432011-12-096EKAH 090620Z AUTO 25020G41KT 200V280 5000NDV RA OVC018/// 06/03 Q0979
12422011-12-08-1EKAH 080720Z AUTO 20003KT 7000NDV NCD M01/M02 Q1008 99310044
12412011-12-073EKAH 070850Z AUTO 23005KT 160V280 9999NDV SCT010/// BKN045/// 03/01 Q0991 99290195
12402011-12-061EKAH 060620Z AUTO 25008KT 210V280 9999NDV NCD 01/M02 Q0994 99590236
12392011-12-052EKAH 050720Z AUTO 24007KT 210V280 9999NDV SCT088/// BKN130/// 02/M01 Q0984 99110047
12382011-12-034EKAH 022250Z AUTO 22006KT 160V260 9999NDV NCD 04/02 Q1004
12372011-12-025EKAH 020620Z AUTO 27005KT 230V300 9999NDV DZ OVC032/// 05/03 Q1001
12362011-12-017EKAH 010820Z AUTO 19014G28KT 140V250 9999NDV R10R/P1500N R28L/1200VP1500N FEW022/// BKN130/// 07/03 Q1005
12352011-11-308EKAH 300150Z AUTO 23010G20KT 180V270 7000NDV -RA OVC007/// 08/06 Q1004
12342011-11-296EKAH 291050Z AUTO 21011G23KT 150V260 6000NDV OVC006/// 06/04 Q1012
12332011-11-285EKAH 280650Z AUTO 25008KT 220V290 9999NDV SCT033/// 05/02 Q1019
12322011-11-2711EKAH 271220Z AUTO 27022G35KT 230V300 9999NDV BKN030/// 11/05 Q0992
12312011-11-266EKAH 260720Z AUTO 24007KT 200V280 9999NDV SCT043/// 06/02 Q1014
12302011-11-257EKAH 251820Z AUTO 24008KT 190V280 9999NDV NCD 07/03 Q1010
12292011-11-2410EKAH 240620Z AUTO 22007KT 170V270 9000NDV OVC009/// 10/08 Q1022
12282011-11-235EKAH 230750Z AUTO 20004KT 160V240 3600NDV BR OVC005/// 05/04 Q1023
12272011-11-223EKAH 220520Z AUTO 10001KT 2000NDV BR FEW001/// BKN052/// 03/03 Q1022
12262011-11-215EKAH 210520Z AUTO 20003KT 0900NDV R10R/0900N R28L/P1500N FG VV001 05/04 Q1021
12252011-11-186EKAH 180720Z 20004KT 150V260 2000 BR OVC002 06/05 Q1020
12242011-11-175EKAH 170720Z AUTO 19003KT 8000NDV OVC012/// 05/02 Q1020
12232011-11-16-3EKAH 160720Z AUTO 13001KT 0500NDV R10R/0325VP1500D R28L/1000VP1500U FZFG VV001 M03/M04 Q1028
12222011-11-153EKAH 150620Z AUTO 30002KT 0300NDV R10R/0500N R28L/0400N -SHRA FG VV001 03/02 Q1029
12212011-11-145EKAH 140720Z AUTO 30001KT 3500NDV BR OVC004/// 05/03 Q1032
12202011-11-136EKAH 131320Z AUTO 01002KT 5000NDV FEW003/// 06/02 Q1036
12192011-11-127EKAH 121450Z AUTO 16003KT 9999NDV NCD 07/01 Q1035
12182011-11-117EKAH 110650Z AUTO 12011KT 9999NDV BKN013/// 07/03 Q1034
12172011-11-109EKAH 100720Z AUTO 14007KT 100V180 9999NDV OVC006/// 09/07 Q1029
12162011-11-098EKAH 090720Z AUTO 13007KT 5000NDV OVC006/// 08/06 Q1026
12152011-11-087EKAH 080950Z AUTO 09008KT 5000NDV BR OVC001/// 07/06 Q1026
12142011-11-079EKAH 070720Z AUTO 02011KT 6000NDV OVC007/// 09/06 Q1027
12132011-11-068EKAH 061950Z AUTO 35003KT 2900NDV BR BKN009/// BKN160/// 08/07 Q1023
12122011-11-0410EKAH 040450Z AUTO 14009KT 2200NDV BR FEW005/// SCT081/// BKN140/// 10/08 Q1007
12112011-11-039EKAH 030450Z AUTO 13008KT 070V180 1500NDV BR BKN001/// 09/08 Q1011
12102011-11-0210EKAH 020820Z AUTO 17006KT 140V240 0800NDV R10R/0900V1300N R28L/1400U FG VV002 10/09 Q1016
12092011-11-0112EKAH 010720Z AUTO 15008KT 110V210 7000NDV BKN010/// 12/09 Q1016
12082011-10-3112EKAH 310720Z AUTO 22005KT 190V270 9000NDV OVC021/// 12/11 Q1018
12072011-10-3013EKAH 301250Z AUTO 24007KT 190V280 7000NDV -SHRA BKN012/// 13/11 Q1015
12062011-10-2811EKAH 281050Z AUTO 21006KT 150V280 4100NDV BR BKN008/// 11/09 Q1019
12052011-10-2710EKAH 270920Z AUTO 16004KT 120V210 5000NDV NCD 10/09 Q1022
12042011-10-269EKAH 260620Z AUTO 12014KT 090V160 8000NDV BKN008/// 09/07 Q1012
12032011-10-259EKAH 250520Z AUTO 13012KT 7000NDV OVC011/// 09/06 Q1019
12022011-10-248EKAH 240620Z AUTO 13009KT 100V160 5000NDV BKN009/// 08/05 Q1022
12012011-10-238EKAH 231950Z AUTO 15007KT 120V190 7000NDV NCD 08/05 Q1021
12002011-10-216EKAH 202150Z AUTO 26009KT 9999NDV FEW045/// SCT054/// 06/03 Q1019
11992011-10-204EKAH 200520Z AUTO 25010KT 220V280 9999NDV NCD 04/01 Q1011
11982011-10-198EKAH 190750Z AUTO 26014G24KT 230V290 9999NDV -RA BKN022/// 08/05 Q0998
11972011-10-1612EKAH 161420Z AUTO 17008KT 120V240 9999NDV NCD 12/06 Q1024
11962011-10-150EKAH 150120Z AUTO 00000KT 9999NDV NCD M00/M02 Q1035
11952011-10-147EKAH 140920Z AUTO 31001KT 9999NDV NCD 07/03 Q1037
11942011-10-134EKAH 130720Z AUTO 32004KT 280V340 9999NDV NCD 04/03 Q1027
11932011-10-1210EKAH 120720Z AUTO 29016KT 9999NDV NCD 10/05 Q1009
11922011-10-1110EKAH 102220Z AUTO 26013KT 230V290 9999NDV BKN210/// 10/07 Q1004
11912011-10-1010EKAH 100350Z AUTO 25006KT 220V280 9999NDV BKN066/// BKN210/// 10/09 Q1005
11902011-10-0911EKAH 091150Z AUTO 20010G20KT 140V260 9999NDV SCT160/// 11/05 Q1014
11892011-10-0710EKAH 070750Z AUTO 24009KT 180V270 9999NDV NCD 10/06 Q0998
11882011-10-0614EKAH 060850Z AUTO 25008KT 210V270 9999NDV OVC036/// 14/11 Q0994
11872011-10-0512EKAH 050420Z AUTO 23006KT 200V270 9999NDV SCT025/// BKN059/// 12/09 Q1009
11862011-10-0412EKAH 040620Z AUTO 26007KT 220V310 9999NDV NCD 12/09 Q1011
11852011-10-0316EKAH 030120Z AUTO 17003KT 2700NDV BR OVC080/// 16/14 Q1016
11842011-09-308EKAH 300550Z AUTO 00000KT 2800NDV R10R/0800VP1500D R28L/P1500N BR SCT006/// 08/07 Q1027
11832011-09-2914EKAH 290620Z AUTO 28005KT 1800NDV BR OVC002/// 14/13 Q1029
11822011-09-2813EKAH 280520Z AUTO 25006KT 210V300 6000NDV OVC004/// 13/12 Q1029
11812011-09-278EKAH 270520Z AUTO 26004KT 9999NDV NCD 08/07 Q1027
11802011-09-2620EKAH 261220Z AUTO 22008KT 130V260 9999NDV FEW120/// 20/13 Q1018
11792011-09-2417EKAH 241420Z AUTO 19006KT 130V230 9999NDV FEW024/// FEW160/// 17/11 Q1016
11782011-09-2311EKAH 230520Z AUTO 25010KT 230V300 9999NDV BKN140/// 11/08 Q1012
11772011-09-2212EKAH 220550Z AUTO 24005KT 200V270 9999NDV NCD 12/10 Q1008
11762011-09-2114EKAH 210720Z AUTO 22002KT 5000NDV DZ FEW012/// BKN030/// 14/13 Q1015 RERA
11752011-09-2013EKAH 200620Z AUTO 20008KT 160V250 9999NDV DZ SCT008/// BKN088/// 13/12 Q1014
11742011-09-1912EKAH 190550Z 21005KT 170V250 9999 BKN009 12/10 Q1004
11732011-09-1714EKAH 171120Z AUTO 13011G23KT 100V170 9999NDV DZ BKN046/// 14/09 Q1010
11722011-09-1614EKAH 160920Z AUTO 29009KT 260V320 9999NDV NCD 14/07 Q1019
11712011-09-1512EKAH 150650Z AUTO 27013KT 9999NDV FEW012/// SCT046/// 12/09 Q1007
11702011-09-1412EKAH 140520Z AUTO 23008KT 190V270 9000NDV DZ BKN013/// 12/09 Q0999
11692011-09-1316EKAH 130420Z AUTO 25014G25KT 220V300 9999NDV BKN029/// 16/10 Q0996
11682011-09-1215EKAH 120520Z AUTO 20005KT 150V230 9999NDV SCT007/// BKN150/// 15/13 Q1004
11672011-09-1119EKAH 111550Z AUTO 19005KT 130V250 9999NDV NCD 19/13 Q1006
11662011-09-1018EKAH 100920Z AUTO 24007KT 180V290 9999NDV FEW009/// 18/14 Q1010
11652011-09-0910EKAH 090150Z AUTO 27007KT 9999NDV NCD 10/07 Q1004
11642011-09-0812EKAH 080720Z AUTO 25007KT 210V280 6000NDV +SHRA BKN009/// 12/10 Q0998
11632011-09-0713EKAH 070550Z AUTO 20008G20KT 120V280 9999NDV FEW029/// FEW110/// 13/11 Q0993
11622011-09-0614EKAH 060550Z AUTO 21009KT 170V260 9999NDV NCD 14/11 Q1009
11612011-09-0517EKAH 050620Z AUTO 28002KT 4200NDV -DZ BR BKN080/// 17/16 Q1007
11602011-09-0216EKAH 020920Z AUTO 24006KT 180V280 9999NDV NCD 16/07 Q1015
11592011-09-0117EKAH 011420Z AUTO 29012KT 9999NDV BKN029/// 17/10 Q1013
11582011-08-3113EKAH 310650Z AUTO 24007KT 190V280 9999NDV FEW013/// 13/09 Q1008
11572011-08-3012EKAH 300550Z AUTO 26012KT 9999NDV BKN009/// 12/10 Q1003
11562011-08-2913EKAH 290620Z AUTO 21010KT 130V270 9999NDV -SHRA BKN019/// 13/09 Q1003
11552011-08-2817EKAH 281050Z AUTO 21007KT 140V270 9999NDV BKN030/// 17/09 Q1009
11542011-08-2616EKAH 260220Z AUTO 09003KT 3100NDV BR BKN092/// 16/15 Q1014
11532011-08-2516EKAH 250550Z AUTO 33002KT 3700NDV -SHRA BR OVC002/// 16/14 Q1015
11522011-08-2417EKAH 240620Z AUTO 13007KT 100V180 9999NDV OVC037/// 17/13 Q1014
11512011-08-2314EKAH 230650Z AUTO 29003KT 9999NDV NCD 14/12 Q1021
11502011-08-2216EKAH 220550Z AUTO 29008KT 4900NDV BR BKN013/// 16/14 Q1013
11492011-08-2118EKAH 211820Z AUTO 17005KT 130V220 9999NDV FEW044/// SCT110/// BKN140/// 18/15 Q1012
11482011-08-1915EKAH 190120Z AUTO 09003KT 9999NDV -RA FEW076/// BKN100/// 15/13 Q1011
11472011-08-1821EKAH 181250Z AUTO 24007KT 190V290 9999NDV FEW046/// 21/10 Q1015
11462011-08-1716EKAH 170650Z AUTO 19005KT 140V250 9999NDV -SHRA FEW011/// SCT032/// BKN091/// 16/14 Q1013
11452011-08-1613EKAH 160550Z AUTO 25006KT 220V280 9999NDV NCD 13/11 Q1016
11442011-08-1418EKAH 141320Z AUTO 13006KT 090V170 9999NDV -SHRA BKN071/// 18/14 Q1008
11432011-08-1317EKAH 131950Z AUTO 12007KT 090V160 9999NDV OVC015/// 17/13 Q1011
11422011-08-1211EKAH 112320Z AUTO 36002KT 9999NDV BKN045/// 11/09 Q1008
11412011-08-1114EKAH 111450Z AUTO 07006KT 9999NDV FEW014/// BKN056/// 14/11 Q1006
11402011-08-1014EKAH 101850Z AUTO 26007KT 9999NDV SCT029/// BKN150/// 14/08 Q1011
11392011-08-0813EKAH 082050Z AUTO 20003KT 9999NDV NCD 13/11 Q0997
11382011-08-0721EKAH 071050Z AUTO 25012KT 210V300 9999NDV FEW048/// 21/10 Q0998
11372011-08-0620EKAH 061750Z AUTO 13004KT 9999NDV FEW048/// BKN060/// 20/11 Q1004
11362011-08-0423EKAH 041050Z AUTO 12012KT 090V170 9999NDV FEW140/// 23/14 Q1015
11352011-08-0220EKAH 021950Z AUTO 00000KT 9999NDV NCD 20/15 Q1022
11342011-08-0124EKAH 011520Z AUTO 13006KT 100V160 9999NDV BKN025/// BKN065/// BKN094/// 24/17 Q1017
11332011-07-3023EKAH 300850Z AUTO 01011KT 330V050 9999NDV NCD 23/12 Q1011
11322011-07-2925EKAH 291350Z AUTO 01010KT 330V030 9999NDV NCD 25/17 Q1012
11312011-07-2215EKAH 220550Z AUTO 32015KT 8000NDV -RA BKN005/// BKN030/// 15/13 Q1000
11302011-07-1819EKAH 181050Z AUTO 18012G22KT 120V230 9999NDV FEW024/// SCT048/// SCT080/// 19/12 Q0997
11292011-07-1716EKAH 171050Z AUTO 16009G20KT 130V210 7000NDV RA BKN004/// 16/15 Q0996
11282011-07-1621EKAH 161620Z AUTO 16010KT 120V210 9999NDV FEW140/// 21/11 Q1005
11272011-07-1516EKAH 151750Z AUTO 28006KT 9999NDV OVC006/// 16/13 Q1008
11262011-07-1312EKAH 122320Z AUTO 00000KT 9999NDV BKN170/// 12/08 Q1017
11252011-07-0816EKAH 080520Z AUTO 03001KT 9999NDV FEW067/// BKN110/// 16/14 Q1009
11242011-07-0521EKAH 051750Z AUTO 16003KT 9999NDV NCD 21/15 Q1015
11232011-07-0320EKAH 031920Z AUTO 34008KT 9999NDV BKN026/// 20/17 Q1011
11222011-07-0216EKAH 021050Z AUTO 33010KT 7000NDV -DZ BKN003/// 16/15 Q1007
11212011-07-0116EKAH 011720Z AUTO 29015KT 9999NDV BKN023/// 16/10 Q1014
11202011-06-2714EKAH 262220Z AUTO 00000KT 9999NDV R10R/0500VP1500D R28L/P1500N FG VV001 14/12 Q1022
11192011-06-268EKAH 252250Z AUTO 00000KT 9999NDV NCD 08/05 Q1019
11182011-06-2515EKAH 250750Z AUTO 30018KT 9999NDV SCT033/// 15/05 Q1017
11172011-06-2410EKAH 240220Z AUTO 26007KT 9999NDV BKN120/// 10/07 Q1011
11162011-06-2313EKAH 230220Z AUTO 26007KT 220V290 9999NDV BKN008/// BKN180/// 13/11 Q1004
11152011-06-2215EKAH 220220Z AUTO 22005KT 180V260 9999NDV BKN009/// BKN052/// 15/13 Q1008
11142011-06-2113EKAH 210220Z AUTO 26010KT 220V290 9999NDV OVC033/// 13/08 Q1007
11132011-06-2013EKAH 200250Z AUTO 29015KT 6000NDV BKN010/// 13/10 Q1004
11122011-06-1918EKAH 191120Z AUTO 23008KT 180V300 9999NDV FEW028/// 18/08 Q0999
11112011-06-1415EKAH 141850Z AUTO 29014KT 9999NDV SCT036/// 15/06 Q1016
11102011-06-1015EKAH 101920Z AUTO 28008KT 9999NDV NCD 15/02 Q1015
11092011-06-0819EKAH 081850Z AUTO 36004KT 7000NDV SCT040/// BKN100/// 19/16 Q1003
11082011-06-0720EKAH 071350Z AUTO 00000KT 9999NDV BKN020/// 20/14 Q1005
11072011-06-0523EKAH 051220Z AUTO 09010KT 9999NDV NCD 23/10 Q1014
11062011-06-0423EKAH 041550Z AUTO 18008KT 130V230 9999NDV NCD 23/10 Q1020
11052011-06-0322EKAH 031250Z AUTO 02004KT 310V070 9999NDV NCD 22/09 Q1032
11042011-06-0221EKAH 021350Z AUTO 30009KT 260V340 9999NDV BKN034/// 21/11 Q1031
11032011-05-3111EKAH 312020Z AUTO 30010KT 9999NDV FEW130/// BKN170/// BKN220/// 11/07 Q1018
11022011-05-2812EKAH 281050Z AUTO 21009G20KT 140V290 9999NDV DZ FEW021/// BKN032/// BKN050/// 12/08 Q1009
11012011-05-2617EKAH 261520Z AUTO 13009KT 090V190 9999NDV BKN088/// 17/08 Q1005
11002011-05-2316EKAH 231920Z AUTO 21009G23KT 150V290 9999NDV BKN093/// 16/06 Q1014
10992011-05-2215EKAH 221520Z AUTO 23009KT 180V270 9999NDV BKN013/// 15/12 Q1011
10982011-05-2014EKAH 201020Z AUTO 17008KT 130V250 9999NDV FEW028/// 14/05 Q1019
10972011-05-1815EKAH 181920Z AUTO 21006KT 130V250 9999NDV BKN025/// OVC042/// 15/10 Q1011
10962011-05-1711EKAH 171920Z AUTO 27014KT 9999NDV BKN041/// 11/05 Q1013
10952011-05-1612EKAH 161450Z AUTO 17006KT 130V220 9999NDV -SHRA BKN008/// 12/10 Q1009
10942011-05-1514EKAH 151350Z AUTO 29012KT 9999NDV FEW043/// SCT066/// SCT110/// 14/05 Q1012
10932011-05-1113EKAH 111920Z AUTO 01001KT 9999NDV NCD 13/08 Q1018
10922011-05-1017EKAH 101950Z AUTO 15003KT 9999NDV SCT110/// BKN140/// 17/08 Q1025
10912011-05-0915EKAH 091850Z AUTO 14007KT 110V170 9999NDV NCD 15/05 Q1028
10902011-05-048EKAH 041920Z AUTO 28006KT 9999NDV BKN086/// 08/01 Q1021
10892011-05-033EKAH 031920Z AUTO 36002KT 9999NDV NCD 03/01 Q1017
10882011-05-028EKAH 021820Z AUTO 02006KT 9999NDV NCD 08/M04 Q1020
10872011-05-0110EKAH 010750Z AUTO 07006KT 040V120 9999NDV BKN037/// 10/03 Q1019
10862011-04-2811EKAH 282020Z AUTO 03007KT 9999NDV NCD 11/05 Q1024
10852011-04-278EKAH 262150Z AUTO 32002KT 9999NDV NCD 08/05 Q1023
10842011-04-2613EKAH 261850Z AUTO 36003KT 9999NDV SCT220/// 13/06 Q1022
10832011-04-2114EKAH 211850Z AUTO 19002KT 9999NDV NCD 14/04 Q1019
10822011-04-2013EKAH 201850Z AUTO 00000KT 9999NDV SCT095/// 13/07 Q1019
10812011-04-1912EKAH 191820Z AUTO 14006KT 110V170 9999NDV FEW051/// FEW058/// 12/06 Q1020
10802011-04-1710EKAH 171850Z AUTO 28010KT 9999NDV NCD 10/04 Q1024
10792011-04-1610EKAH 161020Z AUTO 26009KT 230V300 4700NDV BR OVC008/// 10/08 Q1020
10782011-04-1511EKAH 151920Z AUTO 28006KT 9999NDV OVC066/// 11/02 Q1020
10772011-04-137EKAH 131850Z 32004KT 9999 BKN022 07/04 Q1016
10762011-04-128EKAH 121020Z 30022KT 9999 -SHRA BKN025 OVC040 08/03 Q1005
10752011-04-1111EKAH 111850Z AUTO 25005KT 9999NDV NCD 11/M02 Q1011
10742011-04-1014EKAH 101820Z AUTO 19002KT 9999NDV NCD 14/03 Q1023
10732011-04-0911EKAH 091750Z AUTO 00000KT 9999NDV NCD 11/M01 Q1021
10722011-04-049EKAH 041820Z AUTO 26005KT 230V290 9999NDV NCD 09/M02 Q1016
10712011-04-0212EKAH 021920Z AUTO 17008KT 130V220 4500NDV BR NCD 12/09 Q1012
10702011-04-018EKAH 010620Z AUTO 28018KT 9999NDV BKN009/// BKN027/// 08/05 Q1009
10692011-03-293EKAH 282320Z AUTO 26007KT 230V290 9999NDV FEW045/// SCT190/// 03/00 Q1012
10682011-03-284EKAH 281820Z AUTO 29008KT 9999NDV BKN180/// 04/M04 Q1012
10672011-03-261EKAH 261750Z AUTO 17003KT 9999NDV NCD 01/M07 Q1019
10662011-03-247EKAH 232320Z AUTO 30019G32KT 9999NDV BKN010/// 07/04 Q1029
10652011-03-235EKAH 222250Z AUTO 30016KT 9999NDV NCD 05/01 Q1033
10642011-03-227EKAH 221950Z 30019KT CAVOK 07/02 Q1032
10632011-03-2113EKAH 211420Z AUTO 27016KT 230V290 9999NDV BKN028/// 13/05 Q1028
10622011-03-205EKAH 201950Z AUTO 24006KT 200V280 9999NDV NCD 05/01 Q1030
10612011-03-171EKAH 162250Z AUTO 10012KT 9999NDV SCT038/// BKN051/// 01/M03 Q1022
10602011-03-162EKAH 161950Z AUTO 11014KT 9999NDV BKN055/// 02/M04 Q1023
10592011-03-144EKAH 141850Z AUTO 01005KT 1500NDV BR BKN003/// 04/03 Q1023
10582011-03-136EKAH 131950Z AUTO 13002KT 2300NDV BR BKN050/// 06/04 Q1008
10572011-03-126EKAH 121050Z AUTO 21006KT 160V270 9999NDV OVC013/// 06/03 Q1008
10562011-03-113EKAH 111950Z AUTO 24008KT 190V280 9999NDV SCT025/// 03/00 Q1008
10552011-03-091EKAH 091850Z AUTO 24009KT 190V270 9999NDV NCD 01/M01 Q1004 10190195
10542011-03-071EKAH 071920Z AUTO 22004KT 200V260 9999NDV NCD 01/M07 Q1032
10532011-03-063EKAH 061120Z AUTO 36009KT 9999NDV NCD 03/M08 Q1032
10522011-03-051EKAH 051950Z AUTO 29008KT 9999NDV NCD 01/M05 Q1023
10512011-03-031EKAH 032020Z AUTO 23004KT 1500NDV BR OVC001/// 01/M00 Q1035
10502011-03-02-1EKAH 020750Z 09001KT 9999 OVC009 M01/M03 Q1043
10492011-03-010EKAH 012020Z AUTO 00000KT 9999NDV OVC016/// 00/M04 Q1043
10482011-02-27-1EKAH 272020Z AUTO 08009KT 8000NDV BKN011/// M01/M03 Q1022
10472011-02-24-2EKAH 241950Z AUTO 16009KT 120V190 9999NDV OVC130/// M02/M08 Q1029 99010095
10462011-02-23-4EKAH 231920Z AUTO 15008KT 100V180 9999NDV OVC061/// M04/M10 Q1027 99090095
10452011-02-22-3EKAH 221920Z AUTO 14007KT 110V170 9999NDV OVC024/// M03/M08 Q1027 99090095
10442011-02-20-10EKAH 201950Z AUTO 00000KT 9999NDV NCD M10/M13 Q1028 99090095
10432011-02-18-3EKAH 181950Z AUTO 09003KT 9999NDV NCD M03/M08 Q1025 99090095
10422011-02-105EKAH 102050Z AUTO 27014KT 9999NDV BKN016/// 05/02 Q1003
10412011-02-093EKAH 091920Z AUTO 19003KT 9999NDV OVC075/// 03/01 Q1021
10402011-02-085EKAH 081850Z 29016KT 9999 BKN020 05/01 Q1015
10392011-02-076EKAH 071920Z AUTO 21011G26KT 140V250 7000NDV OVC009/// 06/04 Q0995
10382011-02-064EKAH 061120Z AUTO 24006KT 200V320 9999NDV OVC004/// 04/03 Q1013
10372011-02-058EKAH 051150Z AUTO 28022G39KT 250V310 9999NDV SCT027/// SCT100/// 08/02 Q1000
10362011-02-024EKAH 021850Z AUTO 23010KT 190V280 5000NDV -SHRA OVC007/// 04/03 Q1013
10352011-02-013EKAH 011820Z AUTO 24009KT 200V270 4400NDV BR OVC004/// 03/02 Q1014
10342011-01-312EKAH 311850Z AUTO 24007KT 200V270 7000NDV OVC017/// 02/00 Q1021
10332011-01-304EKAH 301420Z AUTO 25003KT 9999NDV NCD 04/M05 Q1023
10322011-01-291EKAH 291950Z AUTO 30008KT 9999NDV NCD 01/M01 Q1018
10312011-01-27-6EKAH 272020Z AUTO 23001KT 9999NDV NCD M06/M08 Q1027
10302011-01-22-1EKAH 221420Z AUTO 28007KT 0350NDV R10R/0600V0800N R28L/0750V1200U FZFG VV001 M01/M01 Q1029
10292011-01-20-2EKAH 201920Z AUTO 28004KT 4700NDV BR NCD M02/M03 Q1032 99010075
10282011-01-190EKAH 192020Z AUTO 35005KT 320V030 9999NDV SCT009/// M00/M01 Q1026
10272011-01-183EKAH 181920Z AUTO 28007KT 9999NDV OVC007/// 03/02 Q1021
10262011-01-166EKAH 161820Z AUTO 23009KT 180V270 7000NDV OVC006/// 06/05 Q1013 99220555
10252011-01-122EKAH 121950Z AUTO 23005KT 200V270 5000NDV BKN004/// 02/01 Q1006 99820268
10242011-01-103EKAH 092250Z AUTO 24010G20KT 200V280 9999NDV NCD 03/00 Q1008 99290185
10232011-01-092EKAH 091150Z AUTO 21007G18KT 150V300 9999NDV FEW010/// SCT029/// 02/00 Q1001 99390143
10222011-01-07-1EKAH 071950Z AUTO 13004KT 100V160 4500NDV BR OVC100/// M01/M02 Q1009 99710154
10212011-01-050EKAH 042250Z AUTO 21008KT 150V260 2400NDV -SN BKN004/// 00/M00 Q1008 99590330
10202011-01-040EKAH 042050Z AUTO 21007KT 160V250 2500NDV -SN OVC004/// 00/M00 Q1008 28590330
10192011-01-03-8EKAH 030650Z AUTO 25002KT 9999NDV NCD M08/M09 Q1018 99320065
10182011-01-02-3EKAH 022020Z AUTO 30004KT 9999NDV NCD M03/M06 Q1018 99320167
10172011-01-010EKAH 012020Z AUTO 29009KT 9999NDV NCD M00/M03 Q1011 99710264
10162010-12-303EKAH 302020Z AUTO 26012KT 4500NDV BR OVC002/// 03/02 Q1014 99310162
10152010-12-28-2EKAH 281720Z AUTO 12006KT 090V160 9999NDV OVC022/// M02/M07 Q1028 99450134
10142010-12-26-5EKAH 261950Z AUTO 25005KT 9999NDV OVC026/// M05/M09 Q1018 99410167
10132010-12-25-7EKAH 251150Z AUTO 33013KT 2500NDV -SN BKN016/// M07/M09 Q1021 99590245
10122010-12-23-3EKAH 231920Z AUTO 04016KT 9999NDV BKN010/// M03/M05 Q1015 99420434
10112010-12-21-15EKAH 211850Z AUTO 02001KT 9999NDV NCD M15/M17 Q1011 99810170
10102010-12-20-6EKAH 200950Z AUTO 30005KT 3500NDV -SN OVC043/// M06/M07 Q0999 28490137
10092010-12-19-3EKAH 182350Z AUTO 04005KT 2700NDV -SHSN BKN019/// BKN031/// OVC038/// M03/M04 Q1005 99920344
10082010-12-18-2EKAH 180950Z AUTO 11012KT 2300NDV -SN BKN009/// M02/M04 Q1002 99490331
10072010-12-16-3EKAH 152320Z AUTO 21005KT 160V240 9999NDV BKN022/// OVC033/// M03/M07 Q1015 99010080
10062010-12-15-7EKAH 152020Z AUTO 22002KT 9000NDV FEW200/// M07/M08 Q1020 99010080
10052010-12-14-3EKAH 141920Z AUTO 35009KT 320V020 9999NDV BKN011/// M03/M05 Q1030 99010080
10042010-12-13-3EKAH 132220Z AUTO 05012KT 9999NDV OVC014/// M03/M06 Q1028 99010080
10032010-12-12-6EKAH 121920Z AUTO 31005KT 9999NDV NCD M06/M08 Q1023 99920073
10022010-12-07-4EKAH 071920Z AUTO 27001KT 0300NDV R10R/P1500 R28L/0500V0900N FZFG VV001 M04/M04 Q1007 99820245
10012010-12-06-1EKAH 061850Z AUTO 22005KT 200V260 9999NDV NCD M01/M02 Q0999 99450137
10002010-12-050EKAH 051950Z AUTO 27005KT 2200NDV BR OVC003/// M00/M01 Q0993 28850232
9992010-12-03-9EKAH 032020Z AUTO 00000KT 0550NDV R10R/P1500 R28L/P1500 FZFG BKN074/// M09/M10 Q1007 99990275
9982010-12-02-3EKAH 021950Z AUTO 02007KT 9999NDV BKN021/// BKN230/// M03/M06 Q1009 99450363
9972010-12-01-2EKAH 011850Z AUTO 09016KT 9999NDV BKN026/// M02/M06 Q1023 28950265
9962010-11-30-4EKAH 292320Z AUTO 06011KT 9999NDV BKN032/// M04/M08 Q1024 99990251
9952010-11-29-4EKAH 292020Z AUTO 06013KT 9999NDV SCT022/// M04/M07 Q1023 99990252
9942010-11-28-3EKAH 280650Z AUTO 03007KT 9999NDV OVC010/// M03/M04 Q1013 99810229
9932010-11-26-2EKAH 262020Z AUTO 06012KT 6000NDV -SN FEW009/// BKN019/// M02/M03 Q1006 99490238
9922010-11-25-2EKAH 252020Z AUTO 04008KT 9999NDV OVC058/// M02/M04 Q1005 99591066
9912010-11-230EKAH 232050Z AUTO 02014KT 2500NDV -SN OVC006/// M00/M01 Q1000 99590534
9902010-11-203EKAH 202120Z AUTO 05001KT 9999NDV OVC011/// 03/02 Q1018
9892010-11-184EKAH 172350Z AUTO 08017KT 9999NDV SCT058/// BKN082/// 04/00 Q1019
9882010-10-1410EKAH 132250Z AUTO 25009KT 9999NDV OVC022/// 10/06 Q1012
9872010-10-132EKAH 122250Z AUTO 05001KT 0200NDV R10R/0450V0800D R28L/0375VP1500D FG VV001 02/01 Q1020
9862010-10-122EKAH 112250Z AUTO 17001KT 1200NDV R10R/P1500N R28L/P1500N BR NCD 02/00 Q1020
9852010-10-119EKAH 102250Z AUTO 03006KT 360V060 9999NDV BKN016/// 09/06 Q1022
9842010-10-106EKAH 092250Z AUTO 17001KT 0150NDV R10R/0375VP1500U R28L/P1500U FG NCD 06/05 Q1026
9832010-10-0914EKAH 091250Z AUTO 10011KT 9999NDV NCD 14/07 Q1028
9822010-10-0812EKAH 080720Z AUTO 11007KT 4800NDV BR BKN007/// 12/10 Q1029
9812010-10-0714EKAH 062250Z AUTO 17009KT 140V210 3300NDV -RA BKN002/// 14/13 Q1015 RERA
9802010-10-0613EKAH 052250Z AUTO 15010KT 100V180 9999NDV OVC021/// 13/10 Q1011
9792010-10-0514EKAH 042250Z AUTO 15010G21KT 100V190 9999NDV FEW160/// BKN190/// 14/09 Q1009
9782010-10-0413EKAH 032250Z AUTO 14011G21KT 110V190 9999NDV FEW160/// BKN180/// 13/10 Q1010
9772010-10-0312EKAH 022220Z AUTO 14012G23KT 100V200 9999NDV BKN050/// 12/08 Q1015
9762010-10-0210EKAH 012250Z AUTO 14010KT 090V180 9999NDV BKN031/// 10/05 Q1018
9752010-10-019EKAH 302250Z AUTO 12005KT 9999NDV BKN031/// 09/03 Q1021
9742010-09-3011EKAH 301750Z AUTO 13007KT 090V160 9999NDV BKN030/// 11/05 Q1021
9732010-09-297EKAH 282250Z AUTO 04001KT 9999NDV NCD 07/02 Q1022
9722010-09-2810EKAH 272250Z AUTO 05012KT 9999NDV NCD 10/05 Q1015
9712010-09-2712EKAH 262250Z AUTO 06009KT 9999NDV OVC010/// 12/10 Q1013
9702010-09-2613EKAH 252250Z AUTO 02006KT 340V050 9999NDV OVC004/// 13/12 Q1008
9692010-09-2514EKAH 242250Z AUTO 29008KT 250V320 9999NDV -SHRA BKN007/// BKN030/// 14/12 Q0999
9682010-09-2413EKAH 232250Z AUTO 17001KT 0750NDV R10R/0900VP1500N R28L/P1500 FG BKN082/// BKN210/// 13/11 Q1006
9672010-09-2313EKAH 222250Z AUTO 16003KT 9999NDV FEW034/// BKN052/// 13/11 Q1017
9662010-09-228EKAH 212250Z AUTO 25004KT 9999NDV NCD 08/06 Q1022
9652010-09-2113EKAH 202250Z AUTO 26005KT 9999NDV BKN015/// BKN046/// 13/11 Q1005
9642010-09-2011EKAH 192250Z AUTO 16001KT 9999NDV OVC050/// 11/09 Q1009
9632010-09-199EKAH 182250Z AUTO 25010KT 200V280 9999NDV FEW050/// 09/06 Q1007
9622010-09-1810EKAH 172250Z AUTO 27015KT 9999NDV SCT018/// 10/07 Q1002
9612010-09-1711EKAH 162250Z AUTO 26012KT 9999NDV SCT120/// 11/08 Q0998
9602010-09-1611EKAH 152250Z AUTO 26016G28KT 210V290 9999NDV -SHRA BKN010/// BKN037/// 11/09 Q0989
9592010-09-1513EKAH 142250Z AUTO 25006KT 210V300 9999NDV BKN160/// 13/11 Q0999
9582010-09-1414EKAH 132250Z AUTO 19007KT 130V250 9999NDV SCT050/// BKN066/// BKN140/// 14/11 Q1015
9572010-09-1314EKAH 122250Z AUTO 26002KT 5000NDV DZ BR OVC077/// 14/13 Q1019
9562010-09-1216EKAH 112250Z AUTO 19006KT 120V240 5000NDV OVC035/// 16/15 Q1016
9552010-09-1113EKAH 102250Z AUTO 22002KT 0300NDV R10R/P1500N R28L/P1500N FG FEW004/// SCT084/// 13/12 Q1017
9542010-09-1015EKAH 092250Z AUTO 08012KT 9999NDV -SHRA BKN015/// 15/12 Q101
9532010-09-0915EKAH 082220Z AUTO 11014KT 9999NDV BKN013/// 15/12 Q1016
9522010-09-0814EKAH 072250Z AUTO 12011KT 090V160 9999NDV NCD 14/10 Q1018
9512010-09-0711EKAH 062250Z AUTO 13004KT 9999NDV FEW054/// 11/07 Q1023
9502010-09-066EKAH 052250Z AUTO 00000KT 9999NDV BKN160/// 06/04 Q1028
9492010-09-055EKAH 042250Z AUTO 00000KT 9999NDV NCD 05/03 Q1027
9482010-09-047EKAH 032250Z AUTO 27002KT 0450NDV R10R/0600VP1500U R28L/0400N FG BKN002/// 07/05 Q1020
9472010-09-038EKAH 022250Z AUTO 29005KT 9999NDV NCD 08/05 Q1021
9462010-09-0211EKAH 012250Z AUTO 28005KT 9999NDV SCT016/// 11/09 Q1017
9452010-09-0112EKAH 312250Z AUTO 27007KT 9999NDV NCD 12/10 Q1017
9442010-08-319EKAH 302250Z AUTO 29005KT 9999NDV NCD 09/07 Q1019
9432010-08-3012EKAH 292250Z AUTO 04007KT 9999NDV -SHRA SCT023/// BKN059/// 12/10 Q1006 RESHRA
9422010-08-2910EKAH 282250Z AUTO 25006KT 9999NDV NCD 10/06 Q1008
9412010-08-288EKAH 272250Z AUTO 00000KT 4500NDV BR NCD 08/07 Q1006
9402010-08-278EKAH 262250Z AUTO 00000KT 9999NDV NCD 08/06 Q1006
9392010-08-2612EKAH 252250Z AUTO 26011KT 230V290 9999NDV FEW041/// 12/07 Q1009
9382010-08-2513EKAH 242250Z AUTO 24010G21KT 160V280 9999NDV -RA BKN018/// BKN110/// 13/10 Q0997
9372010-08-2416EKAH 232250Z AUTO 21015G29KT 170V270 9999NDV BKN023/// 16/12 Q0988
9362010-08-2314EKAH 222250Z AUTO 27003KT 9999NDV NCD 14/11 Q1009
9352010-08-2218EKAH 212250Z AUTO 22004KT 180V260 9999NDV BKN009/// BKN037/// 18/17 Q1014
9342010-08-2118EKAH 202250Z AUTO 20006KT 150V260 9999NDV SCT073/// BKN140/// 18/15 Q1016
9332010-08-2014EKAH 192250Z AUTO 23004KT 190V260 9999NDV NCD 14/11 Q1016
9322010-08-1915EKAH 182250Z AUTO 23007KT 170V280 9999NDV SCT018/// BKN064/// 15/11 Q1001
9312010-08-1816EKAH 172250Z AUTO 20008KT 130V260 9999NDV OVC009/// 16/14 Q0997
9302010-08-1717EKAH 162250Z AUTO 15004KT 9999NDV SCT046/// 17/15 Q1010
9292010-08-1619EKAH 152250Z AUTO 08010KT 9999NDV FEW079/// SCT091/// 19/17 Q1014
9282010-08-1516EKAH 142250Z AUTO 32008KT 9999NDV SCT100/// BKN130/// 16/14 Q1018
9272010-08-1414EKAH 132250Z AUTO 00000KT 1300NDV R10R/P1500N R28L/0400VP1500U BCFG NCD 14/12 Q1020
9262010-08-1316EKAH 122250Z AUTO 36001KT 4200NDV -RA BR OVC002/// 16/15 Q1013
9252010-08-1213EKAH 112250Z AUTO 14002KT 0550NDV R10R/P1500N R28L/P1500N FG SCT044/// 13/12 Q1013
9242010-08-1119EKAH 102250Z AUTO 14011KT 100V180 9999NDV FEW060/// SCT075/// BKN140/// 19/15 Q1010
9232010-08-1014EKAH 092250Z AUTO 23003KT 9999NDV BKN043/// 14/11 Q1015
9222010-08-0916EKAH 082250Z AUTO 29005KT 9999NDV OVC083/// 16/14 Q1012
9212010-08-0815EKAH 072250Z AUTO 00000KT 3600NDV BR FEW230/// 15/13 Q1015
9202010-08-0713EKAH 062250Z AUTO 15001KT 9999NDV NCD 13/11 Q1019
9192010-08-0616EKAH 052250Z AUTO 23004KT 200V260 9999NDV SCT090/// 16/14 Q1012
9182010-08-0515EKAH 042250Z AUTO 16003KT 9999NDV FEW250/// 15/13 Q1005
9172010-08-0411EKAH 032250Z AUTO 25003KT 9999NDV NCD 11/08 Q1011
9162010-08-0315EKAH 022250Z AUTO 29003KT 9999NDV FEW038/// 15/13 Q1013
9152010-08-0216EKAH 012050Z 28001KT CAVOK 16/14 Q1013
9142010-08-0117EKAH 312250Z AUTO 20005KT 150V260 9999NDV -SHRA OVC007/// 17/16 Q1011
9132010-07-3115EKAH 302250Z AUTO 25011KT 220V280 9999NDV BKN029/// 15/11 Q1011
9122010-07-3016EKAH 292250Z AUTO 26011KT 230V290 9000NDV DZ OVC008/// 16/14 Q1001
9112010-07-2917EKAH 282250Z AUTO 28002KT 9999NDV SCT045/// SCT150/// BKN170/// 17/15 Q1007
9102010-07-2818EKAH 272050Z AUTO 28007KT 9999NDV FEW045/// 18/12 Q1015
9092010-07-2715EKAH 262250Z AUTO 28004KT 9999NDV NCD 15/12 Q1013
9082010-07-2614EKAH 252250Z AUTO 28006KT 9999NDV NCD 14/10 Q1011
9072010-07-2514EKAH 242250Z AUTO 30006KT 9999NDV NCD 14/10 Q1014
9062010-07-2417EKAH 232250Z AUTO 28003KT 9999NDV BKN100/// 17/13 Q1017
9052010-07-2318EKAH 222250Z AUTO 29007KT 9999NDV BKN035/// 18/14 Q1014
9042010-07-2222EKAH 212250Z AUTO 19002KT 9999NDV FEW053/// BKN110/// BKN130/// 22/17 Q1008
9032010-07-2120EKAH 202250Z AUTO 15006KT 120V190 9999NDV NCD 20/15 Q1014
9022010-07-2019EKAH 192220Z AUTO 17003KT 9999NDV BKN110/// 19/13 Q1021
9012010-07-1912EKAH 182250Z AUTO 22003KT 9999NDV NCD 12/09 Q1025
9002010-07-1814EKAH 172250Z AUTO 26005KT 220V290 9999NDV NCD 14/11 Q1020
8992010-07-1717EKAH 162250Z AUTO 00000KT 9999NDV NCD 17/14 Q1016
8982010-07-1617EKAH 152250Z AUTO 19003KT 9999NDV NCD 17/12 Q1016
8972010-07-1522EKAH 142250Z AUTO 13011KT 100V170 9999NDV SCT095/// 22/15 Q1008
8962010-07-1416EKAH 132250Z AUTO 25003KT 9999NDV OVC024/// 16/12 Q1012
8952010-07-1320EKAH 122250Z AUTO 17005KT 110V210 9999NDV SCT100/// 20/18 Q1008
8942010-07-1219EKAH 112250Z AUTO 16001KT 0100NDV R10R/1200VP1500D R28L/0450V1100N FG VV001 19/17 Q1018
8932010-07-1119EKAH 102250Z AUTO 10002KT 9999NDV NCD 19/16 Q1019
8922010-07-1018EKAH 092250Z AUTO 14006KT 110V170 9999NDV NCD 18/14 Q1018
8912010-07-0918EKAH 082250Z AUTO 14004KT 8000NDV BKN031/// 18/16 Q1019
8902010-07-0817EKAH 072250Z AUTO 16003KT 9999NDV BKN071/// BKN170/// 17/12 Q1020
8892010-07-0712EKAH 062220Z AUTO 27008KT 9999NDV NCD 12/08 Q1019
8882010-07-0613EKAH 052250Z AUTO 28009KT 9999NDV BKN200/// 13/10 Q1017
8872010-07-0514EKAH 042250Z AUTO 26001KT 9999NDV BKN180/// BKN230/// 14/11 Q1017
8862010-07-0422EKAH 032250Z AUTO 12002KT 9999NDV -RA BKN081/// 22/15 Q1018
8852010-07-0320EKAH 022250Z AUTO 16004KT 130V200 9999NDV NCD 20/18 Q1017
8842010-07-0216EKAH 012250Z AUTO 14004KT 110V170 9999NDV OVC170/// 16/13 Q1017
8832010-07-0111EKAH 302250Z AUTO 27010KT 9999NDV NCD 11/09 Q1018
8822010-06-3016EKAH 292250Z AUTO 14002KT 9999NDV SCT100/// 16/12 Q1016
8812010-06-2918EKAH 282120Z AUTO 17004KT 130V210 9999NDV NCD 18/14 Q1019
8802010-06-2814EKAH 272250Z AUTO 16003KT 2900NDV BR NCD 14/12 Q1022
8792010-06-2710EKAH 262250Z AUTO 27005KT 9999NDV NCD 10/08 Q1021
8782010-06-2613EKAH 252150Z AUTO 27008KT 9999NDV FEW021/// 13/09 Q1015
8772010-06-2516EKAH 242250Z AUTO 25004KT 9999NDV BKN058/// 16/12 Q1015
8762010-06-2412EKAH 232250Z AUTO 33001KT 9000NDV NCD 12/10 Q1019
8752010-06-2312EKAH 222250Z AUTO 26008KT 220V290 9999NDV BKN012/// 12/09 Q1022
8742010-06-2211EKAH 212220Z AUTO 00000KT 9999NDV NCD 11/08 Q1021
8732010-06-218EKAH 202250Z AUTO 29004KT 9999NDV FEW021/// SCT023/// 08/07 Q1015
8722010-06-207EKAH 192250Z AUTO 28004KT 0200NDV R10R/0700VP1500D R28L/0450V0700N FG BKN002/// 07/05 Q1002
8712010-06-199EKAH 182250Z AUTO 27009KT 9999NDV NCD 09/07 Q1001
8702010-06-1811EKAH 172220Z AUTO 26009KT 220V300 9999NDV OVC012/// 11/09 Q1015
8692010-06-179EKAH 162250Z AUTO 25005KT 230V290 9999NDV NCD 09/06 Q1024
8682010-06-169EKAH 152250Z AUTO 27001KT 9999NDV NCD 09/05 Q1026
8672010-06-159EKAH 142250Z AUTO 27009KT 9999NDV NCD 09/06 Q1017
8662010-06-149EKAH 132250Z AUTO 25007KT 210V280 9999NDV NCD 09/07 Q1013
8652010-06-1311EKAH 122250Z AUTO 28017KT 9999NDV OVC014/// 11/08 Q1004
8642010-06-1211EKAH 112250Z AUTO 26013KT 9999NDV BKN022/// 11/08 Q1001
8632010-06-1114EKAH 102250Z AUTO 10006KT 8000NDV OVC003/// 14/13 Q1007
8622010-06-1014EKAH 092250Z AUTO 05006KT 0450NDV R10R/0900N R28L/0900N FG VV001 14/14 Q1011
8612010-06-0913EKAH 082250Z AUTO 11003KT 4500NDV BR OVC140/// 13/11 Q10
8602010-06-0814EKAH 072250Z AUTO 32001KT 3200NDV BR BKN026/// BKN042/// 14/12 Q1007
8592010-06-0714EKAH 062250Z AUTO 00000KT 9999NDV BKN092/// 14/11 Q1009
8582010-06-0611EKAH 052250Z AUTO 26006KT 9999NDV NCD 11/08 Q1017
8572010-06-0511EKAH 042250Z AUTO 00000KT 9999NDV FEW054/// 11/09 Q1020
8562010-06-049EKAH 032250Z AUTO 27005KT 9999NDV NCD 09/07 Q1019
8552010-06-0312EKAH 022220Z AUTO 31010KT 9999NDV NCD 12/06 Q1020
8542010-06-0213EKAH 012250Z AUTO 36001KT 9999NDV OVC075/// 13/08 Q1017
8532010-06-0110EKAH 312250Z AUTO 31004KT 9999NDV NCD 10/07 Q1016
8522010-05-3111EKAH 302250Z AUTO 05012KT 9999NDV -SHRA BKN054/// BKN110/// 11/09 Q1007
8512010-05-3011EKAH 292220Z AUTO 13003KT 9999NDV OVC094/// 11/08 Q1014
8502010-05-298EKAH 282250Z AUTO 25008KT 9999NDV BKN067/// 08/06 Q1012
8492010-05-286EKAH 272250Z AUTO 17002KT 9999NDV NCD 06/03 Q1010
8482010-05-278EKAH 262250Z AUTO 31005KT 9999NDV BKN051/// 08/03 Q1009
8472010-05-266EKAH 252250Z AUTO 27010KT 9999NDV NCD 06/03 Q1008
8462010-05-257EKAH 242250Z AUTO 28014KT 9999NDV SCT027/// 07/03 Q1003
8452010-05-2410EKAH 232250Z AUTO 27012KT 9999NDV NCD 10/06 Q1011
8442010-05-2314EKAH 222250Z AUTO 26006KT 9999NDV NCD 14/11 Q1021
8432010-05-2214EKAH 212250Z AUTO 33005KT 7000NDV FEW100/// 14/12 Q1025
8422010-05-2111EKAH 202250Z AUTO 28006KT 9999NDV NCD 11/08 Q1026
8412010-05-2013EKAH 192220Z AUTO 32005KT 9999NDV FEW057/// 13/10 Q1025
8402010-05-1911EKAH 182250Z AUTO 31007KT 9999NDV FEW048/// SCT068/// BKN099/// 11/07 Q1021
8392010-05-189EKAH 172250Z AUTO 28009KT 9999NDV BKN013/// 09/06 Q1019
8382010-05-179EKAH 162250Z AUTO 28013KT 250V310 9999NDV OVC011/// 09/06 Q1011
8372010-05-1611EKAH 152250Z AUTO 11006KT 080V140 2900NDV DZ BR BKN001/// 11/10 Q0999
8362010-05-157EKAH 142250Z AUTO 31006KT 9999NDV BKN140/// 07/03 Q1011
8352010-05-147EKAH 132250Z AUTO 31006KT 9999NDV OVC014/// 07/05 Q1012
8342010-05-137EKAH 122250Z AUTO 33005KT 2200NDV BR OVC002/// 07/06 Q1008
8332010-05-121EKAH 112250Z AUTO 12001KT 9999NDV BKN140/// 01/M01 Q1014
8322010-05-112EKAH 102250Z AUTO 33002KT 9999NDV NCD 02/M01 Q1011
8312010-05-104EKAH 092250Z AUTO 26007KT 220V290 9999NDV NCD 04/01 Q1007
8302010-05-095EKAH 082250Z AUTO 29003KT 9999NDV -DZ OVC017/// 05/04 Q1011
8292010-05-088EKAH 072250Z AUTO 07015KT 9999NDV OVC035/// 08/02 Q1014
8282010-05-078EKAH 062250Z AUTO 07014KT 9999NDV FEW029/// BKN140/// 08/01 Q1015
8272010-05-063EKAH 052220Z AUTO 00000KT 3600NDV BR FEW045/// 03/01 Q1020
8262010-05-053EKAH 042250Z AUTO 29010KT 9999NDV FEW025/// 03/00 Q1018
8252010-05-045EKAH 032250Z AUTO 28004KT 9999NDV BKN089/// 05/02 Q1016
8242010-05-030EKAH 022250Z AUTO 00000KT 9999NDV NCD 00/M01 Q1015
8232010-05-024EKAH 012250Z AUTO 27008KT 9999NDV NCD 04/02 Q1008
8222010-05-018EKAH 302250Z AUTO 26012KT 9999NDV BKN011/// 08/06 Q1004
8212010-04-3012EKAH 292250Z AUTO 30003KT 9000NDV BKN140/// 12/08 Q1005
8202010-04-2913EKAH 282250Z AUTO 21006KT 170V250 9999NDV BKN094/// BKN140/// 13/07 Q1016
8192010-04-288EKAH 272250Z AUTO 29012KT 9999NDV BKN012/// 08/05 Q1023
8182010-04-279EKAH 262250Z AUTO 29012KT 2400NDV BR FEW008/// 09/07 Q1019
8172010-04-268EKAH 252250Z AUTO 12006KT 9999NDV NCD 08/03 Q1024
8162010-04-253EKAH 242250Z AUTO 16004KT 9999NDV NCD 03/00 Q1027
8152010-04-242EKAH 232250Z AUTO 27009KT 9999NDV NCD 02/00 Q1016
8142010-04-233EKAH 222250Z AUTO 25006KT 220V280 9999NDV NCD 03/00 Q1013
8132010-04-221EKAH 212250Z AUTO 27005KT 9999NDV NCD 01/M01 Q1012
8122010-04-211EKAH 202250Z AUTO 29006KT 4500NDV -RA BR OVC015/// 01/01 Q1007
8112010-04-200EKAH 192250Z AUTO 28003KT 9999NDV NCD 00/M03 Q1016
8102010-04-193EKAH 182220Z AUTO 29009KT 9999NDV NCD 03/M01 Q1014
8092010-04-186EKAH 172250Z AUTO 24009KT 210V280 9999NDV OVC049/// 06/04 Q1012
8082010-04-174EKAH 162250Z AUTO 27009KT 240V300 9999NDV NCD 04/01 Q1019
8072010-04-166EKAH 152250Z AUTO 29014KT 9999NDV NCD 06/03 Q1015
8062010-04-151EKAH 142250Z AUTO 00000KT 9999NDV NCD 01/M01 Q1022
8052010-04-148EKAH 132250Z AUTO 10010KT 9999NDV NCD 08/03 Q1023
8042010-04-131EKAH 122250Z AUTO 23001KT 9999NDV NCD 01/M01 Q1025
8032010-04-124EKAH 112250Z AUTO 19002KT 9999NDV NCD 04/02 Q1032
8022010-04-115EKAH 102250Z AUTO 04008KT 9999NDV NCD 05/03 Q1032
8012010-04-104EKAH 092250Z AUTO 28007KT 9999NDV NCD 04/03 Q1027
8002010-04-096EKAH 082250Z AUTO 26007KT 230V290 9999NDV FEW011/// BKN017/// BKN076/// 06/04 Q1024
7992010-04-085EKAH 072250Z AUTO 14008KT 9999NDV FEW130/// 05/02 Q1022
7982010-04-077EKAH 062250Z AUTO 15004KT 130V190 9999NDV BKN051/// 07/04 Q1025
7972010-04-061EKAH 052250Z AUTO 22004KT 9999NDV NCD 01/M00 Q1025
7962010-04-055EKAH 042250Z AUTO 16001KT 1100NDV R10R/P1500N R28L/P1500N BR FEW002/// BKN018/// 05/04 Q1012
7952010-04-045EKAH 032250Z AUTO 12013KT 090V160 9999NDV SCT053/// 05/M00 Q1013
7942010-04-034EKAH 022250Z AUTO 15005KT 130V190 9999NDV FEW068/// 04/00 Q1014
7932010-04-025EKAH 012250Z AUTO 21008G18KT 160V240 9999NDV FEW013/// BKN026/// 05/02 Q1007
7922010-04-015EKAH 312250Z AUTO 13007KT 100V160 9999NDV FEW057/// 05/03 Q0998
7912010-03-317EKAH 302250Z AUTO 13011KT 100V160 6000NDV FEW008/// BKN023/// BKN093/// 07/05 Q0995
7902010-03-30-1EKAH 292250Z AUTO 23001KT 9999NDV NCD M01/M02 Q1005
7892010-03-296EKAH 282250Z AUTO 20007KT 140V250 9999NDV BKN010/// 06/04 Q0997
7882010-03-287EKAH 272320Z AUTO 26007KT 220V290 9000NDV BKN008/// 07/05 Q0999
7872010-03-276EKAH 262350Z AUTO 30012KT 7000NDV RA BKN043/// 06/05 Q1001
7862010-03-266EKAH 252350Z AUTO 14006KT 100V190 4100NDV -SHRA BR SCT036/// BKN080/// BKN120/// 06/04 Q1006
7852010-03-254EKAH 242350Z AUTO 14009KT 110V170 9999NDV BKN140/// BKN180/// 04/02 Q1014
7842010-03-243EKAH 232350Z AUTO 25007KT 220V280 9999NDV NCD 03/01 Q1017
7832010-03-237EKAH 222350Z AUTO 19004KT 130V230 9999NDV BKN050/// 07/03 Q1015
7822010-03-225EKAH 212350Z AUTO 27006KT 9999NDV OVC005/// 05/04 Q1017
7812010-03-216EKAH 202350Z AUTO 21003KT 1500NDV +DZ BR BKN001/// 06/05 Q1000
7802010-03-204EKAH 192350Z AUTO 21007KT 170V250 5000NDV SCT210/// 04/03 Q1007
7792010-03-198EKAH 182320Z AUTO 18005KT 140V220 7000NDV FEW088/// BKN130/// 08/05 Q1011
7782010-03-184EKAH 172350Z AUTO 24005KT 200V280 4700NDV BR BKN048/// 04/02 Q1016
7772010-03-173EKAH 162350Z AUTO 24010KT 210V270 9999NDV OVC004/// 03/02 Q1019
7762010-03-16-4EKAH 152350Z AUTO 24003KT 9999NDV NCD M04/M05 Q1014
7752010-03-15-2EKAH 142350Z AUTO 25006KT 9999NDV NCD M02/M03 Q1013
7742010-03-142EKAH 132350Z AUTO 30014KT 9999NDV NCD 02/M01 Q1009
7732010-03-130EKAH 122350Z AUTO 27004KT 210V310 5000NDV BKN004/// BKN066/// M00/M01 Q1012
7722010-03-123EKAH 112350Z AUTO 29009KT 2000NDV BR BKN001/// 03/03 Q1010
7712010-03-112EKAH 102350Z AUTO 24007KT 210V270 5000NDV BKN007/// 02/01 Q1023
7702010-03-10-2EKAH 092350Z AUTO 28003KT 1200NDV R10R/P1500N R28L/P1500N BR BKN001/// M02/M02 Q1031
7692010-03-09-2EKAH 082350Z AUTO 25005KT 0450NDV R10R/0700V1000D R28L/0600V0900D FZFG VV001 M02/M02 Q1027
7682010-03-08-7EKAH 072350Z AUTO 28001KT 9999NDV FEW001/// M07/M08 Q1030 9909//95
7672010-03-07-4EKAH 062350Z AUTO 28007KT 9999NDV NCD M04/M10 Q1033 9909//95
7662010-03-06-3EKAH 052350Z AUTO 08010KT 9999NDV NCD M03/M08 Q1022 9909//95
7652010-03-05-8EKAH 042350Z AUTO 27004KT 9999NDV NCD M08/M11 Q1023 990///95
7642010-03-04-5EKAH 032350Z AUTO 24002KT 9999NDV SCT100/// M05/M06 Q1017 99090095
7632010-03-030EKAH 022350Z AUTO 27015KT 9999NDV FEW110/// M00/M02 Q1013 99190095
7622010-03-021EKAH 012350Z AUTO 29011KT 9999NDV SCT012/// 01/M01 Q1004 99190195
7612010-03-011EKAH 282350Z AUTO 03012KT 6000NDV -SN BKN004/// 01/00 Q0982 99190195
7602010-02-282EKAH 272350Z AUTO 23005KT 180V290 9999NDV OVC014/// 02/00 Q0995 99190195
7592010-02-272EKAH 262350Z AUTO 18004KT 130V220 1600NDV -DZ BR OVC002/// 02/01 Q0991 99190095
7582010-02-263EKAH 252350Z AUTO 17005KT 130V230 2500NDV -RA BR BKN001/// 03/02 Q0992 99910195
7572010-02-25-1EKAH 242350Z AUTO 11012KT 080V140 9999NDV OVC007/// M01/M02 Q1002 99810244
7562010-02-24-13EKAH 232350Z AUTO 23001KT 9999NDV NCD M13/M14 Q1004 99190172
7552010-02-23-1EKAH 222350Z AUTO 05007KT 2800NDV BR BKN003/// M01/M02 Q0989 99850264
7542010-02-22-14EKAH 212350Z AUTO 08003KT 9999NDV SCT160/// M14/M16 Q1000 99450195
7532010-02-21-4EKAH 202350Z AUTO 33016G26KT 300V360 9999NDV BKN007/// M04/M05 Q0990 99550167
7522010-02-201EKAH 192350Z AUTO 14007KT 110V170 0650NDV R10R/1300VP1500D R28L/1200VP1500D -SN BKN002/// 01/00 Q0988 99520295
7512010-02-190EKAH 182350Z AUTO 22004KT 180V260 1600NDV BR BKN003/// BKN020/// 00/M01 Q0995 99520138
7502010-02-18-1EKAH 172350Z AUTO 11015KT 6000NDV OVC010/// M01/M03 Q1001 99510195
7492010-02-17-2EKAH 162350Z AUTO 14005KT 110V170 5000NDV -SN FEW010/// BKN046/// M02/M03 Q1006 990///95
7482010-02-16-2EKAH 152350Z AUTO 18005KT 110V220 9999NDV -SHSN SCT014/// BKN040/// M02/M05 Q1008 99490160
7472010-02-15-5EKAH 142350Z AUTO 00000KT 7000NDV BKN007/// OVC057/// M05/M06 Q1015 99590259
7462010-02-14-3EKAH 132350Z AUTO 03005KT 9999NDV -SN OVC008/// M03/M05 Q1017 99420172
7452010-02-12-13EKAH 112350Z AUTO 32001KT 9999NDV NCD M13/M14 Q1021 99190195
7442010-02-11-7EKAH 102350Z AUTO 03004KT 9999NDV NCD M07/M09 Q1021 99190195
7432010-02-10-6EKAH 092350Z AUTO 01004KT 7000NDV BKN014/// BKN088/// M06/M07 Q1014 99090095
7422010-02-09-6EKAH 082350Z AUTO 04002KT 6000NDV OVC009/// M06/M07 Q1013 99190182
7412010-02-08-5EKAH 072350Z AUTO 03004KT 360V070 9999NDV OVC007/// M05/M06 Q1023 99190179
7402010-02-07-2EKAH 062350Z AUTO 08007KT 9999NDV OVC007/// M02/M03 Q1027 99710167
7392010-02-06-1EKAH 052350Z AUTO 11012KT 8000NDV NCD M01/M03 Q1018 99190195
7382010-02-05-1EKAH 042350Z AUTO 12011KT 4100NDV BR OVC003/// M01/M01 Q1018 99710182
7372010-02-04-1EKAH 032350Z AUTO 28007KT 9999NDV OVC023/// M01/M04 Q1008 99720175
7362010-02-030EKAH 022350Z AUTO 30014KT 6000NDV -SHSN OVC002/// 00/M00 Q0984 99950338
7352010-02-02-6EKAH 012350Z AUTO 21004KT 170V270 6000NDV -SN FEW022/// FEW028/// BKN053/// M06/M07 Q1005 99420181
7342010-02-010EKAH 312350Z AUTO 22005KT 180V270 9999NDV -SG OVC009/// 00/M01 Q0995 99590137
7332010-01-31-7EKAH 302350Z AUTO 14004KT 2600NDV -SN OVC035/// M07/M08 Q0993 99710195
7322010-01-30-4EKAH 292350Z AUTO 05011KT 9999NDV BKN010/// M04/M06 Q0986 99550239
7312010-01-29-6EKAH 282350Z AUTO 24006KT 9999NDV NCD M06/M06 Q0987 99710274
7302010-01-282EKAH 272350Z AUTO 34012KT 310V010 9999NDV FEW075/// BKN094/// 02/M02 Q0994 28590250
7292010-01-27-7EKAH 262350Z AUTO 23006KT 7000NDV BKN120/// BKN200/// M07/M08 Q1037 99010095
7282010-01-26-13EKAH 252350Z AUTO 28002KT 9999NDV NCD M13/M15 Q1042 99410195
7272010-01-25-3EKAH 242350Z AUTO 11012KT 9999NDV NCD M03/M07 Q1035 99190195
7262010-01-24-2EKAH 232350Z AUTO 12011KT 090V150 9999NDV FEW020/// BKN180/// M02/M06 Q1034 99190195
7252010-01-23-2EKAH 222350Z AUTO 13007KT 090V170 8000NDV -SN BKN010/// M02/M04 Q1033 99190095
7242010-01-22-1EKAH 212350Z AUTO 13010KT 090V160 9999NDV OVC019/// M01/M05 Q1032 99420161
7232010-01-21-1EKAH 202350Z AUTO 10011KT 9999NDV SCT013/// BKN041/// BKN098/// M01/M04 Q1027 28410176
7222010-01-200EKAH 192350Z AUTO 05007KT 4000NDV -SN OVC005/// 00/M01 Q1026 99310195
7212010-01-19-1EKAH 182350Z AUTO 00000KT 1400NDV R10R/P1500N R28L/P1500N BR FEW002/// BKN030/// M01/M02 Q1023 99290168
7202010-01-18-1EKAH 172350Z AUTO 04003KT 6000NDV OVC010/// M01/M03 Q1019 99090095
7192010-01-17-2EKAH 162350Z AUTO 13016G28KT 070V170 8000NDV BKN008/// M02/M04 Q1018 99090095
7182010-01-160EKAH 152350Z AUTO 12009KT 090V150 9999NDV OVC026/// M00/M03 Q1030 99090095
7172010-01-150EKAH 142350Z AUTO 12009KT 9999NDV OVC008/// M00/M02 Q1021 99190195
7162010-01-141EKAH 132350Z AUTO 12017G28KT 9999NDV BKN014/// 01/M02 Q1017 28520295
7152010-01-130EKAH 122350Z AUTO 10012KT 2100NDV BR BKN001/// 00/M00 Q1020 99520065
7142010-01-12-4EKAH 112350Z AUTO 04008KT 9999NDV BKN210/// M04/M06 Q1025 99450164
7132010-01-11-3EKAH 102350Z AUTO 03011KT 360V070 9999NDV NCD M03/M05 Q1028 99450142
7122010-01-100EKAH 092350Z AUTO 07023G33KT 9999NDV BKN016/// M00/M03 Q1030 99350050
7112010-01-09-8EKAH 082350Z AUTO 04005KT 9999NDV NCD M08/M10 Q1032 99420295
7102010-01-08-5EKAH 072350Z AUTO 06004KT 030V090 9999NDV NCD M05/M07 Q1020 99590231
7092010-01-07-4EKAH 062350Z AUTO 03007KT 9999NDV -SN OVC007/// M04/M05 Q1009 99590245
7082010-01-060EKAH 052350Z AUTO 15005KT 130V200 5000NDV -SN BKN006/// M00/M01 Q1003 99590233
7072010-01-05-1EKAH 042350Z AUTO 21002KT 1700NDV SN FEW002/// FEW009/// OVC013/// M01/M01 Q1005 99710268
7062010-01-04-3EKAH 032350Z AUTO 22009KT 200V270 9999NDV BKN027/// M03/M05 Q1015 99490252
7052010-01-03-6EKAH 022350Z AUTO 04007KT 9999NDV -SHSN BKN030/// M06/M08 Q1023 99510162
7042010-01-02-4EKAH 012350Z AUTO 05006KT 010V080 9999NDV OVC018/// M04/M07 Q1009 99490258
7032010-01-01-4EKAH 312350Z AUTO 36002KT 9999NDV BKN021/// M04/M05 Q1003 99450248
7022009-12-31-9EKAH 302350Z AUTO 01002KT 9999NDV NCD M09/M10 Q1006 99950234
7012009-12-300EKAH 292350Z AUTO 03007KT 9999NDV BKN017/// 00/M01 Q1005 99920269
7002009-12-29-1EKAH 282350Z AUTO 26008KT 9999NDV NCD M01/M03 Q1005 99190095
6992009-12-284EKAH 272350Z AUTO 21008KT 150V270 7000NDV BKN006/// BKN025/// 04/02 Q0993 99910295
6982009-12-272EKAH 262350Z AUTO 22006KT 180V260 1300NDV R10R/P1500N R28L/P1500N BR VV002 02/02 Q0997 99190095
6972009-12-260EKAH 240950Z 16012KT 110V210 6000 SCT005 BKN009 M00/M01 Q1000 99920264
6962009-12-250EKAH 240950Z 16012KT 110V210 6000 SCT005 BKN009 M00/M01 Q1000 99920264
6952009-12-242EKAH 231950Z 22008KT 160V270 8000 BKN011 02/M00 Q0997 99920571
6942009-12-230EKAH 222350Z AUTO 25006KT 3300NDV BR BKN004/// BKN022/// 00/M00 Q0985 99590430
6932009-12-22-1EKAH 212350Z AUTO 14003KT 7000NDV BKN007/// M01/M02 Q0997 99950257
6922009-12-21-3EKAH 202350Z AUTO 11004KT 6000NDV -SN BKN010/// M03/M05 Q0997 99950346
6912009-12-20-7EKAH 192350Z AUTO 21001KT 9999NDV BKN028/// M07/M08 Q1002 99920251
6902009-12-19-6EKAH 182350Z AUTO 01003KT 9999NDV NCD M06/M08 Q1014 99920267
6892009-12-18-1EKAH 172350Z AUTO 05008KT 9999NDV BKN021/// M01/M04 Q1019 99920159
6882009-12-17-1EKAH 162350Z AUTO 07024G36KT 0900NDV R10R/P1500N R28L/1200VP1500D -SN OVC009/// M01/M02 Q1013 99590224
6872009-12-161EKAH 152350Z AUTO 28001KT 1100NDV R10R/P1500N R28L/P1500D -SN OVC005/// 01/00 Q1012
6862009-12-150EKAH 142350Z AUTO 23003KT 9000NDV OVC035/// M00/M01 Q1023
6852009-12-142EKAH 132320Z AUTO 04003KT 9999NDV OVC016/// 02/00 Q1026
6842009-12-130EKAH 122350Z AUTO 34003KT 9999NDV BKN085/// M00/M02 Q1031
6832009-12-123EKAH 112350Z AUTO 34003KT 9999NDV OVC023/// 03/01 Q1032
6822009-12-114EKAH 102350Z AUTO 01004KT 7000NDV OVC046/// 04/03 Q1026
6812009-12-106EKAH 092350Z AUTO 16006KT 130V210 3600NDV BR BKN004/// 06/05 Q1022
6802009-12-095EKAH 082350Z AUTO 12006KT 7000NDV BKN037/// 05/04 Q1019
6792009-12-087EKAH 072150Z AUTO 15006KT 110V210 4700NDV BR OVC003/// 07/06 Q1010
6782009-12-078EKAH 062350Z AUTO 18006KT 120V250 9999NDV BKN003/// BKN056/// 08/07 Q1001
6772009-12-065EKAH 052350Z AUTO 14010KT 100V180 2900NDV BR OVC003/// 05/04 Q1008
6762009-12-055EKAH 042350Z AUTO 13007KT 090V160 8000NDV OVC012/// 05/03 Q1010
6752009-12-046EKAH 032350Z AUTO 13011KT 6000NDV BKN008/// 06/04 Q1005
6742009-12-032EKAH 022350Z AUTO 13005KT 090V170 9999NDV BKN012/// 02/01 Q1010 99310176
6732009-12-02-5EKAH 012350Z AUTO 28002KT 1000NDV R10R/0800V1300N R28L/0700VP1500U FZBCFG NCD M05/M05 Q1014 99710195
6722009-12-012EKAH 302350Z AUTO 30007KT 9999NDV NCD 02/01 Q1001
6712009-11-308EKAH 292350Z AUTO 17006KT 130V210 9999NDV FEW035/// SCT046/// BKN110/// 08/06 Q0995
6702009-11-295EKAH 282350Z AUTO 19001KT 9999NDV FEW017/// SCT034/// BKN059/// 05/04 Q0993
6692009-11-285EKAH 272350Z AUTO 21006KT 150V260 9999NDV NCD 05/03 Q0994
6682009-11-277EKAH 262350Z AUTO 22009G19KT 160V270 9999NDV BKN030/// 07/05 Q0995
6672009-11-269EKAH 252350Z AUTO 22011G22KT 170V260 9999NDV BKN180/// 09/06 Q0993
6662009-11-259EKAH 242350Z AUTO 21005KT 140V260 3200NDV +DZ BKN004/// 09/08 Q0998
6652009-11-248EKAH 232350Z AUTO 22007KT 190V270 9999NDV -SHRA BKN021/// BKN063/// 08/06 Q0988
6642009-11-239EKAH 222350Z AUTO 20012KT 140V240 9999NDV -SHRA BKN012/// 09/07 Q0994
6632009-11-229EKAH 212350Z AUTO 16008KT 130V200 3500NDV BR OVC002/// 09/08 Q1013
6622009-11-2111EKAH 202350Z AUTO 24009KT 210V290 9999NDV BKN021/// 11/09 Q1014
6612009-11-2010EKAH 192350Z AUTO 22008KT 160V270 9999NDV BKN019/// 10/07 Q1011
6602009-11-199EKAH 182350Z AUTO 26011KT 220V290 9999NDV BKN034/// 09/05 Q1006
6592009-11-188EKAH 172350Z AUTO 22008KT 160V260 9999NDV FEW024/// 08/06 Q1004
6582009-11-179EKAH 162350Z AUTO 17010KT 140V220 5000NDV OVC003/// 09/08 Q1002
6572009-11-168EKAH 152350Z AUTO 13005KT 090V170 4700NDV DZ BR OVC003/// 08/07 Q1008
6562009-11-159EKAH 142350Z AUTO 16007KT 110V210 8000NDV FEW003/// 09/08 Q1003
6552009-11-1411EKAH 132350Z AUTO 17008KT 130V210 1800NDV -SHRA BR BKN001/// 11/10 Q1004 RESHRA
6542009-11-135EKAH 122350Z AUTO 12008KT 080V150 9999NDV BKN012/// OVC028/// 05/03 Q1010
6532009-11-125EKAH 112350Z AUTO 11010KT 9999NDV OVC018/// 05/03 Q1010
6522009-11-117EKAH 102350Z AUTO 09011KT 9999NDV OVC005/// 07/06 Q1009
6512009-11-105EKAH 092350Z AUTO 04010KT 010V070 9999NDV -RA OVC007/// 05/04 Q1014
6502009-11-097EKAH 082350Z AUTO 09011KT 9999NDV OVC018/// 07/03 Q1019
6492009-11-088EKAH 072350Z AUTO 13006KT 6000NDV -SHRA OVC017/// 08/06 Q1004
6482009-11-078EKAH 062350Z AUTO 16006KT 130V200 2800NDV BR BKN005/// BKN069/// 08/07 Q1001
6472009-11-066EKAH 052350Z AUTO 04009KT 2100NDV -SHRA BR OVC001/// 06/05 Q1001
6462009-11-054EKAH 042350Z AUTO 11012KT 9999NDV DZ BKN015/// 04/02 Q0992
6452009-11-045EKAH 032350Z AUTO 12017G31KT 8000NDV BKN013/// 05/03 Q0993
6442009-11-039EKAH 022350Z AUTO 16005KT 120V220 0800NDV R10R/P1500VP1500U R28L/0450VP1500U FG VV001 09/08 Q1001
6432009-11-026EKAH 012350Z AUTO 14015G28KT 090V180 7000NDV -SHRA BKN067/// 06/03 Q1001
6422009-11-016EKAH 312350Z AUTO 14008KT 100V190 9999NDV BKN017/// 06/02 Q1024
6412009-10-317EKAH 302350Z AUTO 16002KT 9999NDV BKN035/// 07/01 Q1032
6402009-10-306EKAH 292350Z AUTO 12004KT 9999NDV BKN024/// 06/02 Q1033
6392009-10-297EKAH 282350Z AUTO 10012KT 4100NDV BR FEW009/// BKN011/// OVC014/// 07/05 Q1020
6382009-10-286EKAH 272350Z AUTO 27002KT 7000NDV SCT100/// BKN120/// 06/05 Q1021
6372009-10-279EKAH 262350Z AUTO 31006KT 290V350 9999NDV OVC011/// 09/08 Q1014
6362009-10-2611EKAH 252350Z AUTO 19007KT 150V240 8000NDV -RA FEW006/// SCT055/// BKN075/// BKN160/// 11/10 Q1007
6352009-10-258EKAH 242250Z AUTO 13009KT 100V170 7000NDV FEW010/// SCT014/// BKN018/// BKN027/// 08/06 Q1013
6342009-10-249EKAH 232250Z AUTO 12006KT 9999NDV FEW024/// OVC048/// 09/05 Q1018
6332009-10-239EKAH 222250Z AUTO 11010KT 9999NDV FEW010/// BKN026/// BKN033/// 09/07 Q1014
6322009-10-227EKAH 212250Z AUTO 11013KT 9999NDV FEW015/// BKN018/// BKN021/// 07/04 Q1015
6312009-10-217EKAH 202250Z AUTO 13008KT 100V170 9999NDV FEW022/// 07/04 Q1017
6302009-10-2010EKAH 192250Z AUTO 21005KT 170V250 6000NDV FEW008/// BKN011/// 10/08 Q1014
6292009-10-198EKAH 182250Z AUTO 22006KT 190V270 9999NDV BKN049/// 08/06 Q1015
6282009-10-184EKAH 172250Z AUTO 30005KT 280V340 9999NDV NCD 04/02 Q1023
6272009-10-179EKAH 162250Z AUTO 01019G35KT 9999NDV FEW036/// SCT080/// BKN095/// BKN110/// 09/03 Q1018
6262009-10-160EKAH 152250Z AUTO 27001KT 9999NDV BKN150/// M00/M02 Q1020
6252009-10-154EKAH 142250Z AUTO 02010KT 9999NDV NCD 04/M01 Q1031
6242009-10-141EKAH 132250Z AUTO 28005KT 9999NDV FEW044/// 01/M02 Q1031
6232009-10-133EKAH 122250Z AUTO 28007KT 9999NDV -RA FEW046/// SCT070/// BKN100/// 03/02 Q1021
6222009-10-128EKAH 112250Z AUTO 05009KT 020V080 9999NDV -SHRA FEW033/// BKN055/// 08/05 Q1007
6212009-10-119EKAH 102250Z AUTO 09006KT 9999NDV FEW021/// BKN130/// 09/06 Q1015
6202009-10-104EKAH 092250Z AUTO 00000KT 9999NDV FEW026/// BKN140/// 04/02 Q1022
6192009-10-097EKAH 082250Z AUTO 28019G29KT 9999NDV NCD 07/02 Q1012
6182009-10-088EKAH 072220Z AUTO 27006KT 9999NDV BKN200/// 08/05 Q1009
6172009-10-0713EKAH 062250Z AUTO 22010KT 140V270 2400NDV SHRA SCT004/// BKN006/// 13/12 Q1000
6162009-10-067EKAH 052250Z AUTO 14002KT 9999NDV BKN080/// 07/06 Q1014
6152009-10-059EKAH 042250Z AUTO 28016G26KT 9999NDV NCD 09/04 Q1004
6142009-10-0411EKAH 032250Z AUTO 24015G27KT 200V280 9999NDV FEW025/// 11/07 Q0986
6132009-10-037EKAH 022250Z AUTO 22004KT 190V250 9999NDV FEW075/// BKN130/// BKN150/// 07/04 Q1008
6122009-10-025EKAH 012250Z AUTO 26006KT 9999NDV FEW038/// 05/03 Q1007
6112009-10-0110EKAH 302250Z AUTO 25010KT 9999NDV FEW012/// SCT041/// BKN180/// BKN240/// 10/08 Q1004
6102009-09-307EKAH 292250Z AUTO 28008KT 9999NDV SCT055/// 07/04 Q1015
6092009-09-2911EKAH 282250Z AUTO 28012KT 9999NDV FEW029/// SCT050/// 11/08 Q1010
6082009-09-2815EKAH 272250Z AUTO 25009KT 210V280 9999NDV FEW016/// BKN021/// 15/12 Q1017
6072009-09-2714EKAH 262250Z AUTO 26006KT 230V290 9999NDV FEW019/// OVC022/// 14/11 Q1025
6062009-09-2614EKAH 252250Z AUTO 26009KT 220V290 9999NDV FEW009/// SCT020/// BKN027/// BKN032/// 14/12 Q1023
6052009-09-2512EKAH 242250Z AUTO 27009KT 9999NDV FEW028/// 12/10 Q1019
6042009-09-2411EKAH 232250Z AUTO 25010KT 9999NDV NCD 11/08 Q1017
6032009-09-2315EKAH 222250Z AUTO 26012KT 220V300 9999NDV FEW025/// BKN050/// 15/11 Q1015
6022009-09-2215EKAH 212250Z AUTO 23008KT 190V270 9999NDV OVC031/// 15/11 Q1020
6012009-09-219EKAH 202250Z AUTO 24006KT 220V280 9999NDV NCD 09/07 Q1020
6002009-09-2011EKAH 192250Z AUTO 15004KT 9999NDV NCD 11/09 Q1018
5992009-09-199EKAH 182250Z AUTO 14004KT 9999NDV NCD 09/08 Q1023
5982009-09-187EKAH 172250Z AUTO 00000KT 9999NDV R10R/P1500N R28L/0800VP1500D NCD 07/05 Q1023
5972009-09-179EKAH 162250Z AUTO 27003KT 9999NDV NCD 09/07 Q1019
5962009-09-168EKAH 152250Z AUTO 03001KT 6000NDV R10R/1000VP1500D R28L/0250VP1500D FEW001/// 08/07 Q1024
5952009-09-159EKAH 142250Z AUTO 02002KT 9999NDV R10R/P1500N R28L/0800VP1500D NCD 09/07 Q1030
5942009-09-1413EKAH 132250Z AUTO 04007KT 9999NDV NCD 13/10 Q1024
5932009-09-1313EKAH 122250Z AUTO 28010KT 9999NDV NCD 13/10 Q1016
5922009-09-1210EKAH 112250Z AUTO 27003KT 9999NDV R10R/P1500N R28L/0900VP1500D NCD 10/09 Q1028
5912009-09-1110EKAH 102250Z AUTO 28004KT 9999NDV NCD 10/08 Q1032
5902009-09-1012EKAH 092250Z AUTO 27005KT 9000NDV NCD 12/10 Q1029
5892009-09-0918EKAH 082250Z AUTO 18006KT 120V240 9999NDV NCD 18/14 Q1020
5882009-09-0816EKAH 072250Z AUTO 23004KT 190V270 9999NDV FEW021/// SCT031/// BKN040/// 16/15 Q1020
5872009-09-0715EKAH 062250Z AUTO 23004KT 180V290 9999NDV BKN049/// 15/12 Q1018
5862009-09-0613EKAH 052250Z AUTO 28015KT 9999NDV FEW038/// 13/08 Q1011
5852009-09-0514EKAH 042250Z AUTO 21009G21KT 170V270 9999NDV FEW012/// BKN016/// BKN024/// 14/12 Q0996
5842009-09-0414EKAH 032250Z AUTO 22010G21KT 150V290 9999NDV FEW012/// SCT019/// BKN029/// 14/12 Q0989
5832009-09-0315EKAH 022250Z AUTO 15003KT 9999NDV SCT130/// BKN150/// 15/13 Q1008
5822009-09-0215EKAH 012250Z AUTO 19004KT 140V240 9999NDV -SHRA SCT080/// BKN100/// 15/14 Q1007
5812009-09-0117EKAH 312250Z AUTO 16005KT 120V200 9999NDV FEW024/// OVC050/// 17/15 Q1014
5802009-08-3113EKAH 302250Z AUTO 21004KT 170V280 9999NDV BKN055/// 13/11 Q1015
5792009-08-3012EKAH 292250Z AUTO 23006KT 200V270 9999NDV FEW230/// 12/10 Q1012
5782009-08-2913EKAH 282250Z AUTO 22010KT 180V280 9999NDV BKN180/// BKN240/// 13/09 Q1004
5772009-08-2818EKAH 272250Z AUTO 21005KT 170V250 9999NDV BKN055/// 18/15 Q1011
5762009-08-2716EKAH 262250Z AUTO 21003KT 9999NDV FEW055/// BKN150/// 16/14 Q1014
5752009-08-2615EKAH 252250Z AUTO 30009KT 9999NDV -RA FEW011/// BKN033/// BKN042/// 15/13 Q1009 RERA
5742009-08-2517EKAH 242250Z AUTO 13011KT 090V160 9999NDV NCD 17/12 Q1012
5732009-08-2413EKAH 232250Z AUTO 12003KT 9999NDV NCD 13/12 Q1021
5722009-08-2312EKAH 222250Z AUTO 22001KT 9999NDV NCD 12/09 Q1024
5712009-08-2215EKAH 212250Z AUTO 25005KT 230V290 9999NDV SCT150/// BKN210/// 15/12 Q1018
5702009-08-2119EKAH 202220Z AUTO 24003KT 3800NDV +SHRA FEW011/// SCT040/// BKN060/// BKN095/// 19/18 Q1017
5692009-08-2017EKAH 192220Z AUTO 15009KT 110V180 9999NDV BKN085/// 17/14 Q1023
5682009-08-1912EKAH 182250Z AUTO 27003KT 9999NDV NCD 12/09 Q1021
5672009-08-1814EKAH 172250Z AUTO 27009KT 9999NDV ///////// 14/12 Q1009
5662009-08-1716EKAH 162250Z 24009KT 200V270 9999 FEW018 BKN040 16/13 Q1008
5652009-08-1617EKAH 152250Z 23009KT 190V280 9999 -SHRA BKN011 17/15 Q1008
5642009-08-1514EKAH 142250Z AUTO 25006KT 9999NDV ///////// 14/09 Q1016
5632009-08-1413EKAH 132250Z AUTO 27012KT 9999NDV NCD 13/09 Q1012
5622009-08-1314EKAH 122250Z AUTO 26007KT 230V290 9999NDV SCT070/// BKN085/// 14/11 Q1008
5612009-08-1215EKAH 112250Z AUTO 27012KT 9999NDV FEW022/// BKN130/// 15/11 Q1011
5602009-08-1115EKAH 102250Z AUTO 27004KT 230V290 9000NDV FEW100/// BKN120/// OVC130/// 15/13 Q1013
5592009-08-1017EKAH 092250Z AUTO 29002KT 7000NDV BKN160/// 17/15 Q1017
5582009-08-0920EKAH 082250Z AUTO 14004KT 110V170 9999NDV -SHRA BKN100/// BKN120/// 20/16 Q1020
5572009-08-0816EKAH 072250Z AUTO 14004KT 9999NDV NCD 16/13 Q1022
5562009-08-0716EKAH 062250Z AUTO 13004KT 0700NDV R10R/P1500N R28L/P1500N FG NCD 16/14 Q1025
5552009-08-0613EKAH 052250Z AUTO 11002KT 2400NDV FG NCD 13/11 Q1025
5542009-08-0513EKAH 042250Z AUTO 11002KT 0300NDV R10R/P1500N R28L/0400VP1500D FG NCD 13/11 Q1024
5532009-08-0416EKAH 032250Z AUTO 00000KT 9999NDV DZ FEW042/// BKN080/// BKN100/// 16/13 Q1018
5522009-08-0317EKAH 022250Z 13004KT 9999 FEW025 SCT060 OVC100 17/15 Q1010
5512009-08-0217EKAH 012250Z 10004KT CAVOK 17/13 Q1014
5502009-08-0113EKAH 312120Z 26007KT 230V290 CAVOK 13/08 Q1020
5492009-07-3114EKAH 302250Z 23009G20KT 180V280 CAVOK 14/10 Q1015
5482009-07-3018EKAH 292250Z AUTO 13010KT 100V160 9999NDV -SHRA FEW080/// BKN095/// 18/14 Q1015
5472009-07-2914EKAH 282250Z AUTO 22003KT 9999NDV SCT200/// 14/10 Q1020
5462009-07-2815EKAH 272250Z AUTO 20005KT 160V240 9999NDV -RA SCT050/// BKN085/// 15/14 Q1009
5452009-07-2715EKAH 262250Z AUTO 19003KT 9999NDV BKN120/// OVC140/// 15/10 Q1014
5442009-07-2614EKAH 252250Z AUTO 27012KT 9999NDV NCD 14/10 Q1014
5432009-07-2513EKAH 242250Z AUTO 25006KT 9999NDV NCD 13/12 Q1009
5422009-07-2415EKAH 232250Z AUTO 27007KT 9999NDV NCD 15/13 Q1005
5412009-07-2315EKAH 222250Z AUTO 23003KT 9999NDV BKN210/// 15/13 Q1005
5402009-07-2213EKAH 212150Z AUTO 00000KT 9999NDV NCD 13/09 Q1008
5392009-07-2113EKAH 202220Z AUTO 26008KT 220V280 9999NDV FEW220/// 13/11 Q1009
5382009-07-2014EKAH 192250Z AUTO 24004KT 210V270 9999NDV NCD 14/11 Q1009
5372009-07-1915EKAH 182250Z AUTO 22005KT 170V270 9999NDV FEW050/// 15/13 Q1005
5362009-07-1820EKAH 172250Z AUTO 12004KT 090V150 9999NDV BKN045/// OVC055/// 20/16 Q1008
5352009-07-1714EKAH 162250Z AUTO 00000KT 9999NDV NCD 14/11 Q1018
5342009-07-1616EKAH 152250Z AUTO 20003KT 9999NDV NCD 16/12 Q1017
5332009-07-1516EKAH 142250Z AUTO 15002KT 1500NDV FG SCT095/// 16/14 Q1013
5322009-07-1413EKAH 132250Z AUTO 09003KT 9999NDV SCT095/// 13/10 Q1012
5312009-07-1316EKAH 122250Z AUTO 14006KT 110V170 9999NDV -SHRA FEW017/// BKN090/// 16/14 Q1007 RESHRA
5302009-07-1214EKAH 112250Z AUTO 27009KT 9999NDV FEW070/// 14/11 Q1009
5292009-07-1114EKAH 102250Z AUTO 28010KT 9999NDV FEW032/// SCT039/// OVC060/// 14/10 Q1004
5282009-07-1012EKAH 092250Z AUTO 22004KT 170V260 9999NDV NCD 12/09 Q1003
5272009-07-0915EKAH 082250Z AUTO 26011KT 9999NDV BKN060/// 15/12 Q1000
5262009-07-0814EKAH 072250Z AUTO 22003KT 9999NDV NCD 14/12 Q1001
5252009-07-0716EKAH 062250Z AUTO 25007KT 9999NDV BKN190/// 16/14 Q1003
5242009-07-0614EKAH 052250Z AUTO 00000KT 9999NDV NCD 14/11 Q1007
5232009-07-0518EKAH 042250Z AUTO 27009KT 240V310 9999NDV NCD 18/15 Q1008
5222009-07-0420EKAH 032250Z AUTO 17004KT 150V210 9999NDV NCD 20/16 Q1011
5212009-07-0314EKAH 022250Z AUTO 12001KT 9999NDV NCD 14/12 Q1019
5202009-07-0216EKAH 012250Z AUTO 27003KT 9999NDV NCD 16/12 Q1023
5192009-07-0117EKAH 302250Z AUTO 00000KT 9999NDV NCD 17/14 Q1023
5182009-06-3018EKAH 292250Z AUTO 16002KT 9999NDV NCD 18/16 Q1022
5172009-06-2916EKAH 282250Z AUTO 00000KT 9999NDV NCD 16/11 Q1020
5162009-06-2815EKAH 272250Z AUTO 22001KT 9999NDV NCD 15/13 Q1021
5152009-06-2717EKAH 262250Z AUTO 10005KT 9999NDV FEW044/// 17/11 Q1023
5142009-06-2620EKAH 252250Z AUTO 08015G25KT 9999NDV OVC110/// 20/11 Q1021
5132009-06-2514EKAH 242250Z AUTO 05003KT 9999NDV NCD 14/12 Q1024
5122009-06-2413EKAH 232250Z AUTO 34004KT 3300NDV BR NCD 13/11 Q1028
5112009-06-2311EKAH 222250Z AUTO 29004KT 9999NDV NCD 11/09 Q1029
5102009-06-229EKAH 212250Z AUTO 00000KT 9999NDV NCD 09/06 Q1023
5092009-06-2110EKAH 202250Z AUTO 26007KT 9999NDV NCD 10/07 Q1017
5082009-06-2011EKAH 192250Z AUTO 26010KT 230V290 9999NDV -RA FEW016/// BKN055/// 11/09 Q1010
5072009-06-1911EKAH 182250Z AUTO 25007KT 200V270 9999NDV NCD 11/08 Q////
5062009-06-1814EKAH 172250Z AUTO 16008G18KT 120V220 9999NDV SCT130/// BKN140/// 14/09 Q1014
5052009-06-178EKAH 162250Z AUTO 29007KT 9999NDV NCD 08/05 Q1020
5042009-06-159EKAH 142250Z AUTO 26011KT 230V290 9999NDV NCD 09/07 Q1012
5032009-06-148EKAH 132250Z AUTO 28012KT 9999NDV NCD 08/06 Q1016
5022009-06-1312EKAH 122250Z AUTO 30012KT 9999NDV FEW017/// SCT028/// BKN120/// 12/10 Q1010
5012009-06-1210EKAH 112250Z AUTO 30012KT 6000NDV RA FEW003/// SCT026/// BKN039/// 10/10 Q1007
5002009-06-1112EKAH 102250Z AUTO 25010KT 200V290 9999NDV SCT012/// BKN031/// BKN036/// 12/10 Q1008
4992009-06-1012EKAH 092250Z AUTO 12006KT 9000NDV SCT005/// OVC007/// 12/11 Q1007
4982009-06-095EKAH 082250Z AUTO 00000KT 9999NDV FEW210/// 05/03 Q1012
4972009-06-0810EKAH 072250Z AUTO 12003KT 9999NDV FEW055/// OVC070/// 10/07 Q1008
4962009-06-076EKAH 062250Z AUTO 00000KT 9999NDV NCD 06/05 Q1007
4952009-06-064EKAH 052250Z AUTO 28002KT 9999NDV FEW065/// 04/03 Q1010
4942009-06-055EKAH 042250Z AUTO 27006KT 9999NDV NCD 05/04 Q1004
4932009-05-3111EKAH 302150Z 31002KT CAVOK 11/08 Q1031
4922009-05-308EKAH 292250Z AUTO 36002KT //// NCD 08/05 Q1035
4912009-05-2910EKAH 282250Z AUTO 34006KT 310V010 //// NCD 10/07 Q1027
4902009-05-2811EKAH 272250Z AUTO 21008KT 160V270 //// FEW021/// SCT042/// BKN060/// OVC080/// 11/08 Q1012
4892009-05-2712EKAH 262250Z AUTO 27012KT 230V290 //// FEW016/// SCT020/// OVC024/// 12/08 Q1006
4882009-05-2612EKAH 252250Z AUTO 14003KT //// BKN160/// 12/09 Q////
4872009-05-2511EKAH 242250Z AUTO 30009KT //// ///////// 11/08 Q1018
4862009-05-2410EKAH 232250Z AUTO 28003KT //// ///////// 10/08 Q1018
4852009-05-239EKAH 222150Z 26009KT 230V290 9999 FEW030 09/06 Q1011
4842009-05-2212EKAH 212020Z 29011KT 8000 -TSRA FEW003 SCT020CB BKN058 12/10 Q1008
4832009-05-218EKAH 202250Z AUTO 23001KT //// NCD 08/06 Q1018
4822009-05-2010EKAH 192250Z AUTO 00000KT //// FEW080/// BKN110/// BKN140/// 10/08 Q1020
4812009-05-199EKAH 182250Z AUTO 19003KT 7000NDV SCT100/// 09/07 Q1020
4802009-05-1810EKAH 172250Z AUTO 14009KT 110V190 9000NDV -RA FEW006/// SCT010/// BKN020/// BKN065/// 10/09 Q1015 RERA
4792009-05-179EKAH 162250Z AUTO 13004KT 100V160 9999NDV FEW009/// OVC018/// 09/08 Q1018
4782009-05-169EKAH 152250Z AUTO 12004KT 9999NDV NCD 09/05 Q1014
4772009-05-157EKAH 142250Z AUTO 10002KT 9999NDV FEW031/// 07/05 Q1019
4762009-05-145EKAH 132250Z AUTO 00000KT 3100NDV BR NCD 05/04 Q1023
4752009-05-135EKAH 122250Z AUTO 00000KT 9999NDV NCD 05/02 Q1027
4742009-05-126EKAH 112250Z AUTO 33005KT 9999NDV NCD 06/04 Q1026
4732009-05-116EKAH 102250Z AUTO 28007KT 9999NDV FEW120/// 06/04 Q1021
4722009-05-109EKAH 092250Z AUTO 00000KT 9999NDV FEW050/// SCT120/// BKN140/// 09/06 Q1015
4712009-05-098EKAH 082250Z AUTO 24009G19KT 200V280 9999NDV FEW043/// SCT070/// BKN090/// BKN100/// 08/05 Q1010
4702009-05-086EKAH 072250Z AUTO 20003KT 9999NDV NCD 06/05 Q1012
4692009-05-077EKAH 062250Z AUTO 26008KT 220V280 9999NDV FEW110/// BKN130/// BKN170/// 07/04 Q1010
4682009-05-069EKAH 052250Z AUTO 23006KT 180V280 9999NDV -SHRA FEW016/// SCT021/// BKN028/// BKN070/// 09/07 Q1005
4672009-05-059EKAH 042250Z AUTO 22008KT 180V270 9999NDV SCT037/// BKN043/// BKN110/// 09/05 Q1014
4662009-05-046EKAH 032250Z AUTO 31008KT 9999NDV -RA FEW026/// BKN045/// OVC055/// 06/05 Q1015 RERA
4652009-05-0311EKAH 022250Z AUTO 30007KT 9999NDV SCT050/// BKN080/// 11/08 Q1024
4642009-05-027EKAH 012250Z AUTO 15004KT 9999NDV NCD 07/05 Q1026
4632009-05-018EKAH 302250Z AUTO 00000KT 8000NDV NCD 08/06 Q1025
4622009-04-298EKAH 282250Z AUTO 29002KT 6000NDV NCD 08/06 Q1005
4612009-04-287EKAH 272220Z AUTO 17002KT 1300NDV R10R/P1500N R28L/P1500N BR NCD 07/04 Q1006
4602009-04-2712EKAH 262250Z AUTO 15006KT 120V190 9999NDV NCD 12/06 Q1004
4592009-04-2610EKAH 252250Z AUTO 16001KT 9999NDV NCD 10/04 Q1014
4582009-04-257EKAH 242250Z AUTO 11003KT 9999NDV NCD 07/03 Q1023
4572009-04-248EKAH 232250Z AUTO 17003KT 9999NDV BKN050/// 08/04 Q1026
4562009-04-236EKAH 222250Z AUTO 32008KT 5000NDV NCD 06/05 Q1022
4552009-04-229EKAH 212150Z AUTO 18006KT 140V220 9999NDV NCD 09/05 Q1021
4542009-04-216EKAH 202250Z AUTO 29005KT 5000NDV NCD 06/04 Q1027
4532009-04-205EKAH 192250Z AUTO 20004KT 170V230 9999NDV NCD 05/02 Q1028
4522009-04-195EKAH 182250Z AUTO 16005KT 9999NDV NCD 05/03 Q1026
4512009-04-183EKAH 172250Z AUTO 32002KT 9999NDV NCD 03/01 Q1015
4502009-04-177EKAH 162250Z AUTO 11007KT 9999NDV NCD 07/M00 Q1016
4492009-04-168EKAH 152250Z AUTO 12012KT 9999NDV BKN150/// 08/02 Q1021
4482009-04-1510EKAH 142250Z AUTO 12003KT 4000NDV BR BKN150/// 10/07 Q1015
4472009-04-148EKAH 132250Z AUTO 14004KT 5000NDV BKN180/// 08/05 Q1012
4462009-04-136EKAH 122250Z AUTO 18003KT 6000NDV NCD 06/04 Q1015
4452009-04-128EKAH 112250Z AUTO 12008KT 100V160 9999NDV NCD 08/05 Q1016
4442009-04-119EKAH 102250Z AUTO 12010KT 100V160 9999NDV NCD 09/04 Q1015
4432009-04-106EKAH 092250Z AUTO 17004KT 150V210 8000NDV NCD 06/03 Q1017
4422009-04-098EKAH 082250Z AUTO 24004KT 200V270 4400NDV BR FEW011/// SCT039/// BKN070/// 08/07 Q1010
4412009-04-089EKAH 072250Z AUTO 16005KT 060V210 9999NDV -SHRA BKN085/// BKN100/// 09/03 Q1010
4402009-04-077EKAH 062250Z AUTO 14004KT 110V170 9999NDV OVC042/// 07/03 Q1015
4392009-04-064EKAH 052250Z AUTO 26006KT 9999NDV NCD 04/01 Q1022
4382009-04-058EKAH 042250Z AUTO 26009KT 3300NDV BR BKN007/// BKN009/// 08/06 Q1017
4372009-04-041EKAH 032250Z AUTO 13001KT 0150NDV R10R/0300V0400N R28L/0250V0550N FZFG VV001 01/M00 Q1018
4362009-04-034EKAH 022250Z AUTO 22002KT 0250NDV R10R/0450N R28L/0500N FG VV001 04/03 Q1024
4352009-04-022EKAH 012250Z AUTO 21001KT 0150NDV R10R/0375N R28L/0350V0650N FG VV001 02/01 Q1028
4342009-04-017EKAH 312250Z AUTO 26007KT 230V290 9000NDV BKN008/// BKN010/// 07/05 Q1020
4332009-03-316EKAH 302250Z AUTO 23010KT 180V270 9999NDV FEW014/// BKN040/// 06/03 Q1017
4322009-03-301EKAH 292250Z AUTO 21003KT 0150NDV R10R/0300N R28L/0325V0600U FZFG VV001 01/00 Q1013
4312009-03-294EKAH 282350Z AUTO 01004KT 3600NDV BR BKN050/// OVC070/// 04/03 Q1000
4302009-03-285EKAH 272350Z AUTO 20005KT 150V240 8000NDV SCT018/// BKN021/// 05/03 Q0993
4292009-03-275EKAH 262350Z AUTO 18007KT 140V240 2900NDV RA FEW003/// SCT005/// BKN007/// BKN011/// 05/04 Q0989
4282009-03-26-2EKAH 252350Z AUTO 13005KT 9999NDV NCD M02/M07 Q1004
4272009-03-25-6EKAH 242350Z AUTO 00000KT 9999NDV NCD M06/M09 Q1006
4262009-03-240EKAH 232350Z AUTO 32005KT 9999NDV FEW050/// BKN070/// 00/M01 Q0994
4252009-03-235EKAH 222350Z AUTO 28020G33KT 9999NDV FEW030/// SCT040/// 05/01 Q1004
4242009-03-225EKAH 212350Z AUTO 27011KT 240V300 6000NDV FEW014/// 05/02 Q1014
4232009-03-211EKAH 202350Z AUTO 26008KT 230V290 9999NDV NCD 01/00 Q1028
4222009-03-20-2EKAH 192350Z AUTO 00000KT 9999NDV NCD M02/M04 Q1034
4212009-03-190EKAH 182350Z AUTO 28003KT 4400NDV BR NCD 00/M00 Q1026
4202009-03-182EKAH 172350Z AUTO 30011KT 9999NDV NCD 02/M01 Q1031
4192009-03-176EKAH 162350Z AUTO 26010KT 8000NDV FEW004/// SCT009/// BKN011/// 06/06 Q1023
4182009-03-16-1EKAH 152350Z AUTO 23002KT 0250NDV R10R/0325V0600U R28L/0550V0800N FZFG VV001 M01/M01 Q1030
4172009-03-155EKAH 142350Z AUTO 13005KT 110V170 1600NDV -RA BR BKN002/// 05/05 Q1010
4162009-03-144EKAH 132350Z AUTO 25006KT 9999NDV FEW010/// OVC037/// 04/02 Q1017
4152009-03-134EKAH 122350Z AUTO 30011KT 9999NDV FEW006/// BKN008/// 04/03 Q1009
4142009-03-12-3EKAH 112350Z AUTO 26001KT 0700NDV R10R/0700VP1500D R28L/P1500N FZFG NCD M03/M03 Q1019
4132009-03-113EKAH 102350Z AUTO 29003KT 1600NDV BR FEW001/// SCT027/// BKN031/// 03/02 Q1007
4122009-03-100EKAH 092350Z AUTO 24004KT 3300NDV BR FEW120/// 00/M00 Q1002
4112009-03-092EKAH 082350Z AUTO 20006KT 140V240 8000NDV FEW007/// 02/01 Q0996
4102009-03-082EKAH 072350Z AUTO 15004KT 3600NDV BR FEW130/// BKN150/// 02/02 Q1005
4092009-03-072EKAH 062350Z AUTO 10007KT 3600NDV BR SCT005/// BKN007/// OVC009/// 02/02 Q1004
4082009-03-064EKAH 052350Z AUTO 08011KT 9000NDV -DZ BKN085/// BKN100/// 04/02 Q0998
4072009-03-055EKAH 042350Z AUTO 12011KT 090V150 5000NDV BKN009/// BKN011/// 05/03 Q0996
4062009-03-045EKAH 032350Z AUTO 16007KT 120V240 9999NDV OVC060/// 05/01 Q1004
4052009-03-034EKAH 022350Z AUTO 25007KT 210V290 9999NDV FEW013/// BKN016/// OVC022/// 04/02 Q1012
4042009-03-023EKAH 012350Z AUTO 14009KT 110V170 9999NDV SCT024/// BKN028/// OVC060/// 03/01 Q1010
4032009-03-012EKAH 282350Z AUTO 13005KT 100V170 9999NDV FEW017/// BKN020/// 02/01 Q1014
4022009-02-280EKAH 272350Z AUTO 05005KT 9999NDV FEW130/// BKN160/// 00/M02 Q1014
4012009-02-273EKAH 262350Z AUTO 30010KT 9999NDV FEW008/// 03/02 Q1004
4002009-02-264EKAH 252350Z AUTO 25008KT 220V280 9999NDV SCT055/// BKN075/// 04/02 Q1010
3992009-02-256EKAH 242350Z AUTO 26008KT 230V290 9999NDV BKN004/// OVC006/// 06/05 Q1020
3982009-02-24-4EKAH 232350Z AUTO 27005KT 0350NDV R10R/P1500N R28L/0400VP1500D FZBCFG BKN001/// M04/M04 Q1020
3972009-02-233EKAH 222350Z AUTO 32010KT 9999NDV NCD 03/01 Q1005
3962009-02-222EKAH 212350Z AUTO 25009KT 1100NDV R10R/P1500U R28L/P1500N BR BKN001/// 02/02 Q1014 99690248
3952009-02-21-1EKAH 202350Z AUTO 36002KT 9999NDV OVC010/// M01/M02 Q1029 99190095
3942009-02-20-1EKAH 192350Z AUTO 09006KT 5000NDV BKN004/// OVC006/// M01/M01 Q1021 99590325
3932009-02-191EKAH 182350Z AUTO 00000KT 1100NDV R10R/P1500N R28L/P1500U -SN BR OVC002/// 01/00 Q1023 99590352
3922009-02-18-7EKAH 172350Z AUTO 27002KT 9999NDV FEW130/// BKN150/// M07/M08 Q1029 99710265
3912009-02-17-1EKAH 162350Z AUTO 11007KT 9999NDV BKN011/// BKN015/// M01/M02 Q1021 99690234
3902009-02-160EKAH 152350Z AUTO 13005KT 090V150 6000NDV -SG BKN004/// OVC006/// 00/M00 Q1017 99550154
3892009-02-15-3EKAH 142350Z AUTO 26005KT 9999NDV NCD M03/M04 Q1022
3882009-02-14-2EKAH 132350Z AUTO 01007KT 9999NDV NCD M02/M04 Q1021
3872009-02-13-6EKAH 122350Z AUTO 27001KT 8000NDV NCD M06/M07 Q1016
3862009-02-12-1EKAH 112350Z AUTO 34009KT 310V010 9999NDV OVC023/// M01/M05 Q1011 99520161
3852009-02-110EKAH 102350Z AUTO 36005KT 9999NDV OVC100/// 00/M01 Q1001
3842009-02-101EKAH 092350Z AUTO 14005KT 100V200 1800NDV -SHRA BR BKN002/// 01/01 Q0999 88CLRD//
3832009-02-09-1EKAH 082350Z AUTO 23005KT 190V260 9999NDV FEW010/// M01/M01 Q0999 99510156
3822009-02-081EKAH 072350Z AUTO 28006KT 5000NDV FEW065/// BKN140/// BKN170/// 01/01 Q0989
3812009-02-072EKAH 062350Z AUTO 14007KT 110V180 0500NDV R10R/P1500U R28L/0400N FG VV001 02/02 Q0992
3802009-02-062EKAH 052350Z AUTO 15005KT 110V190 2200NDV -RA BR OVC002/// 02/01 Q0993 99550354
3792009-02-052EKAH 042350Z AUTO 25004KT 210V280 0500NDV R10R/1000U R28L/P1500D FG VV002 02/01 Q0998
3782009-02-041EKAH 032350Z AUTO 12007KT 7000NDV BKN007/// OVC009/// 01/M01 Q1002
3772009-02-032EKAH 022350Z AUTO 11018G29KT 9999NDV BKN016/// BKN047/// 02/M02 Q1014
3762009-02-02-1EKAH 012350Z AUTO 09013KT 9999NDV FEW019/// M01/M04 Q1025
3752009-02-011EKAH 312350Z AUTO 08010KT 9999NDV SCT031/// BKN036/// 01/M05 Q1027 99190095
3742009-01-310EKAH 302350Z AUTO 09006KT 9999NDV BKN008/// OVC010/// 00/M01 Q1030
3732009-01-30-2EKAH 292350Z AUTO 18004KT 130V230 4600NDV BR OVC004/// M02/M03 Q1029
3722009-01-280EKAH 272350Z AUTO 21002KT 9999NDV BKN018/// OVC021/// 00/M02 Q1020
3712009-01-271EKAH 262350Z AUTO 20001KT 9999NDV OVC022/// 01/M01 Q1013
3702009-01-262EKAH 252350Z AUTO 13004KT 090V170 9999NDV OVC013/// 02/M00 Q1005
3692009-01-253EKAH 242350Z AUTO 24006KT 200V280 9999NDV SCT029/// BKN034/// 03/02 Q0991
3682009-01-243EKAH 232350Z AUTO 11015KT 070V130 2900NDV R10R/1400VP1500U R28L/0350VP1500N -RA BKN004/// BKN007/// 03/02 Q0974
3672009-01-231EKAH 222350Z AUTO 15010KT 110V200 3300NDV -RASN SCT005/// BKN007/// 01/01 Q0989
3662009-01-222EKAH 212350Z AUTO 17005KT 130V220 2400NDV BR BKN003/// BKN005/// 02/01 Q1007
3652009-01-214EKAH 202350Z AUTO 18007KT 140V230 9999NDV SCT019/// OVC022/// 04/02 Q1001
3642009-01-204EKAH 192350Z AUTO 16010KT 110V200 8000NDV SCT004/// OVC006/// 04/03 Q0983
3632009-01-193EKAH 182350Z AUTO 26009KT 9999NDV -SHRA FEW011/// SCT023/// BKN038/// BKN060/// 03/02 Q0992
3622009-01-181EKAH 172350Z AUTO 16008KT 120V200 1900NDV -PL BR BKN003/// OVC005/// 01/00 Q1008
3612009-01-171EKAH 162350Z AUTO 16011KT 130V210 9999NDV BKN014/// OVC017/// 01/M02 Q1022
3602009-01-16-1EKAH 152350Z AUTO 12008KT 9999NDV FEW014/// M01/M02 Q1027
3592009-01-15-1EKAH 142350Z AUTO 32003KT 0150NDV R10R/0450N R28L/0550V0650N FZFG NCD M01/M01 Q1016
3582009-01-145EKAH 132350Z AUTO 20005KT 160V250 3300NDV BR SCT001/// BKN003/// BKN006/// 05/04 Q1008
3572009-01-133EKAH 122350Z AUTO 22010KT 150V290 5000NDV SCT005/// BKN007/// 03/02 Q1005
3562009-01-125EKAH 112350Z AUTO 23014G28KT 190V280 9999NDV FEW085/// BKN180/// 05/M01 Q1013
3552009-01-111EKAH 102350Z AUTO 20010KT 140V260 9000NDV FEW240/// 01/M01 Q1022
3542009-01-105EKAH 092350Z AUTO 26009KT 230V290 9999NDV FEW009/// BKN011/// 05/03 Q1026
3532009-01-095EKAH 082350Z AUTO 27012KT 240V300 9999NDV BKN017/// 05/03 Q1020
3522009-01-08-7EKAH 072350Z AUTO 00000KT 9999NDV NCD M07/M09 Q1025
3512009-01-072EKAH 062220Z 25014KT 200V270 9999 OVC007 02/01 Q1007 99410195
3502009-01-06-4EKAH 052350Z AUTO 24006KT 210V270 9999NDV FEW038/// M04/M06 Q1026
3492009-01-05-5EKAH 042350Z AUTO 04007KT 9999NDV NCD M05/M09 Q1020
3482009-01-04-2EKAH 032350Z AUTO 00000KT 5000NDV BKN070/// M02/M03 Q1013
3472009-01-03-1EKAH 022350Z AUTO 25012KT 220V280 9999NDV BKN033/// M01/M04 Q1023
3462009-01-02-8EKAH 012350Z AUTO 27002KT 9999NDV SCT085/// M08/M09 Q1029
3452009-01-01-4EKAH 312350Z AUTO 27004KT 2900NDV BR NCD M04/M04 Q1022
3442008-12-31-1EKAH 302350Z AUTO 18003KT 9000NDV BKN008/// M01/M03 Q1033
3432008-12-30-1EKAH 292350Z AUTO 14003KT 2100NDV BR FEW012/// SCT016/// M01/M02 Q1038
3422008-12-291EKAH 282350Z AUTO 10006KT 9999NDV BKN007/// OVC009/// 01/M01 Q1040
3412008-12-282EKAH 272350Z AUTO 07006KT 9999NDV OVC010/// 02/00 Q1039
3402008-12-271EKAH 262350Z AUTO 25005KT 220V280 9999NDV OVC023/// 01/M01 Q1042
3392008-12-26-3EKAH 252350Z AUTO 00000KT 9999NDV SCT014/// M03/M03 Q1046
3382008-12-253EKAH 242320Z AUTO 04008KT 9999NDV BKN013/// OVC017/// 03/01 Q1035
3372008-12-245EKAH 232350Z AUTO 24006KT 210V270 2200NDV BR FEW001/// SCT007/// BKN047/// 05/05 Q1026
3362008-12-233EKAH 222350Z AUTO 29008KT 9999NDV NCD 03/01 Q1026
3352008-12-227EKAH 212350Z AUTO 26013G23KT 9999NDV BKN070/// 07/05 Q1011
3342008-12-216EKAH 202350Z AUTO 30021G34KT 9999NDV NCD 06/02 Q1014
3332008-12-205EKAH 192350Z AUTO 19009KT 130V260 9999NDV -DZ BKN050/// BKN065/// OVC080/// 05/03 Q1008
3322008-12-196EKAH 182350Z AUTO 20007KT 150V270 2000NDV BR BKN001/// OVC003/// 06/05 Q1009
3312008-12-181EKAH 172350Z AUTO 19004KT 150V230 0300NDV R10R/0700V1000U R28L/0350V0650D FG NCD 01/01 Q1012
3302008-12-174EKAH 162350Z AUTO 17005KT 120V220 5000NDV FEW007/// BKN034/// 04/03 Q1011
3292008-12-164EKAH 152350Z AUTO 14003KT 3100NDV BR FEW002/// BKN004/// BKN006/// 04/03 Q1020
3282008-12-154EKAH 142350Z AUTO 10011KT 8000NDV BKN009/// BKN011/// 04/02 Q1019
3272008-12-144EKAH 142150Z AUTO 11012KT 8000NDV BKN010/// 04/02 Q1018
3262008-12-101EKAH 092250Z AUTO 28004KT 7000NDV BKN160/// 01/00 Q1008
3252008-12-074EKAH 072050Z AUTO 22003KT 7000NDV OVC034/// 04/04 Q1019
3242008-12-054EKAH 050050Z AUTO 14008KT 090V180 9000NDV -RA FEW008/// BKN010/// OVC013/// 04/03 Q0985
3232008-12-04-1EKAH 040050Z AUTO 25006KT 3100NDV BR NCD M01/M01 Q0995
3222008-12-032EKAH 030050Z AUTO 24004KT 210V290 8000NDV FEW006/// BKN200/// 02/01 Q0997
3212008-12-023EKAH 020050Z AUTO 36004KT 2300NDV -SHRA BR SCT007/// OVC009/// 03/03 Q0999
3202008-12-013EKAH 010050Z AUTO 04002KT 2400NDV BR FEW010/// SCT015/// BKN021/// 03/03 Q1001
3192008-11-302EKAH 300050Z AUTO 25003KT 3300NDV BR OVC065/// 02/01 Q0995
3182008-11-295EKAH 290050Z AUTO 13007KT 090V170 9999NDV FEW008/// BKN010/// BKN013/// 05/03 Q1001
3172008-11-288EKAH 280050Z AUTO 21009G20KT 150V260 7000NDV -RA FEW007/// SCT009/// BKN012/// BKN018/// 08/07 Q1001
3162008-11-278EKAH 270050Z AUTO 25013G24KT 9999NDV FEW012/// BKN015/// 08/06 Q1009
3152008-11-26-1EKAH 260050Z AUTO 23007KT 9999NDV SCT180/// BKN240/// M01/M02 Q1014
3142008-11-250EKAH 250050Z AUTO 31006KT 9999NDV -SN FEW030/// SCT038/// OVC050/// 00/M00 Q0998
3132008-11-24-5EKAH 240050Z AUTO 29002KT 8000NDV NCD M05/M05 Q0991
3122008-11-232EKAH 230050Z AUTO 33009KT 300V360 9999NDV -SHRA FEW030/// SCT043/// BKN055/// 02/M02 Q1000
3112008-11-22-1EKAH 220050Z AUTO 28010KT 9999NDV BKN150/// M01/M06 Q0991
3102008-11-211EKAH 210050Z AUTO 29011KT 9999NDV NCD 01/M04 Q0993
3092008-11-209EKAH 200050Z AUTO 29018G29KT 9999NDV FEW024/// BKN044/// BKN170/// 09/06 Q0991
3082008-11-192EKAH 182250Z 29008KT 9999 NSC 02/M02 Q1003
3072008-11-186EKAH 180050Z AUTO 20008KT 160V260 9999NDV FEW018/// SCT023/// BKN180/// 06/04 Q1013
3062008-11-170EKAH 170050Z AUTO 27004KT 9999NDV NCD 00/M02 Q1026
3052008-11-166EKAH 161250Z AUTO 27015KT 9999NDV FEW025/// 06/03 Q1011
3042008-11-1511EKAH 150050Z AUTO 25012KT 220V280 9999NDV FEW014/// SCT018/// OVC034/// 11/09 Q1011
3032008-11-148EKAH 140050Z AUTO 20008KT 150V250 3800NDV -RA FEW006/// SCT011/// BKN014/// BKN031/// 08/07 Q1016
3022008-11-135EKAH 130050Z AUTO 25008KT 220V280 9999NDV FEW028/// SCT035/// 05/04 Q1013
3012008-11-128EKAH 120050Z AUTO 21008KT 150V270 9999NDV -SHRA FEW025/// BKN047/// BKN065/// 08/06 Q1002
3002008-11-119EKAH 110050Z AUTO 24008KT 190V280 9999NDV -RA FEW043/// BKN049/// 09/07 Q1000
2992008-11-109EKAH 100750Z AUTO 20011G25KT 120V260 9999NDV -SHRA FEW028/// SCT048/// BKN080/// BKN130/// 09/07 Q0998 RESHRA
2982008-11-099EKAH 090750Z AUTO 16012KT 110V200 7000NDV SCT008/// BKN010/// 09/07 Q1008
2972008-11-089EKAH 080750Z AUTO 17006KT 100V220 3000NDV BR NCD 09/08 Q1018
2962008-11-078EKAH 070750Z AUTO 12011KT 1900NDV -RA BR FEW003/// BKN005/// OVC008/// 08/07 Q1016
2952008-11-067EKAH 060750Z AUTO 10014KT 9999NDV FEW013/// BKN065/// BKN085/// 07/05 Q1023
2942008-11-057EKAH 050750Z AUTO 09011KT 0700NDV R10R/1100N R28L/P1500U FG BKN001/// 07/06 Q1025
2932008-11-048EKAH 040750Z AUTO 10004KT 070V130 1600NDV BR BKN001/// 08/07 Q1023
2922008-11-038EKAH 030750Z AUTO 10005KT 9999NDV BKN007/// 08/06 Q1023
2912008-11-02-2EKAH 020750Z AUTO 27001KT 9999NDV NCD M02/M03 Q1022
2902008-11-01-4EKAH 010750Z AUTO 24001KT 9999NDV FEW110/// M04/M05 Q1017
2892008-10-312EKAH 310750Z AUTO 29007KT 9999NDV BKN170/// 02/01 Q1006
2882008-10-300EKAH 300750Z AUTO 20002KT 6000NDV BKN150/// M00/M01 Q1001
2872008-10-292EKAH 290750Z AUTO 19004KT 160V220 9999NDV NCD 02/02 Q1006
2862008-10-286EKAH 280750Z AUTO 25009KT 210V280 9999NDV FEW055/// 06/04 Q1001
2852008-10-278EKAH 270750Z AUTO 24005KT 200V280 9999NDV NCD 08/05 Q1000
2842008-10-2612EKAH 260920Z AUTO 22007KT 160V290 9999NDV -RA FEW005/// SCT016/// BKN020/// BKN038/// 12/11 Q1007
2832008-10-2510EKAH 251750Z AUTO 21010G23KT 150V280 9999NDV SCT023/// BKN029/// 10/06 Q1021
2822008-10-2411EKAH 241750Z AUTO 24004KT 210V280 9999NDV BKN055/// 11/09 Q1020
2812008-10-2311EKAH 231750Z AUTO 22014G27KT 150V260 9999NDV FEW018/// BKN025/// BKN029/// 11/07 Q1019
2802008-10-227EKAH 221750Z AUTO 24005KT 210V280 9999NDV FEW100/// 07/05 Q1017
2792008-10-219EKAH 211750Z AUTO 25011KT 190V280 9999NDV FEW039/// 09/06 Q1004
2782008-10-2013EKAH 201750Z AUTO 22011G22KT 170V280 9999NDV OVC019/// 13/09 Q1003
2772008-10-0510EKAH 051720Z AUTO 26011KT 9999NDV FEW032/// 10/06 Q0997
2762008-09-2311EKAH 231850Z AUTO 01004KT 9999NDV NCD 11/10 Q1024
2752008-09-2213EKAH 221850Z AUTO 03006KT 360V060 9999NDV FEW023/// SCT029/// BKN035/// 13/09 Q1023
2742008-09-2111EKAH 211850Z AUTO 08001KT 9999NDV BKN055/// 11/09 Q1027
2732008-09-2011EKAH 201850Z AUTO 31003KT 9999NDV NCD 11/07 Q1030
2722008-09-1911EKAH 191850Z AUTO 19002KT 9999NDV FEW070/// BKN090/// OVC110/// 11/07 Q1029
2712008-09-187EKAH 181850Z AUTO 00000KT 9999NDV NCD 07/05 Q1028
2702008-09-179EKAH 171850Z AUTO 28002KT 9999NDV OVC050/// 09/07 Q1027
2692008-09-169EKAH 161850Z 01004KT 330V060 9999 -SHRA FEW020 SCT060 09/08 Q1027
2682008-09-1512EKAH 151850Z 04004KT 9999 FEW025 BKN050 12/08 Q1029
2672008-09-1410EKAH 141850Z 36002KT 9999 FEW020 10/07 Q1031
2662008-09-139EKAH 131850Z 31002KT CAVOK 09/06 Q1028
2652008-09-1214EKAH 121850Z 11016KT 9999 BKN045 14/03 Q1025
2642008-09-1115EKAH 111850Z 10005KT CAVOK 15/12 Q1019
2632008-09-1013EKAH 101850Z 25002KT CAVOK 13/11 Q1014
2622008-09-0917EKAH 091850Z 22004KT 170V250 9999 SCT030 BKN060 17/16 Q1016
2612008-09-0816EKAH 081850Z 18003KT 9999 FEW020 SCT080 16/15 Q1011
2602008-09-0716EKAH 071850Z 14003KT CAVOK 16/15 Q1010
2592008-09-0618EKAH 061850Z AUTO 17003KT 9999NDV FEW075/// 18/16 Q1005
2582008-09-0514EKAH 051850Z AUTO 14004KT 9999NDV FEW130/// BKN140/// 14/14 Q1005
2572008-09-0413EKAH 041850Z AUTO VRB07KT 9999NDV SCT065/// BKN080/// BKN110/// 13/13 Q1001
2562008-09-0315EKAH 031850Z AUTO 21009KT 180V260 9999NDV FEW065/// BKN080/// BKN120/// 15/14 Q0999
2552008-09-0216EKAH 021850Z AUTO 17009KT 130V220 6000NDV -RA FEW005/// SCT007/// BKN010/// BKN014/// 16/15 Q1002
2542008-09-0118EKAH 011850Z AUTO 22007KT 170V260 9999NDV DZ FEW013/// SCT017/// BKN024/// BKN037/// 18/17 Q1010
2532008-08-3118EKAH 311850Z AUTO 13007KT 100V170 9999NDV BKN230/// 18/12 Q1018
2522008-08-307EKAH 300620Z AUTO 30001KT 9999NDV NCD 07/07 Q1022
2512008-08-2913EKAH 290650Z AUTO 30011KT 9999NDV NCD 13/13 Q1012
2502008-08-2813EKAH 280650Z AUTO 27013KT 230V300 9999NDV FEW045/// SCT130/// BKN150/// 13/11 Q1012
2492008-08-2717EKAH 270650Z AUTO 22006KT 180V290 7000NDV FEW005/// SCT009/// BKN011/// OVC014/// 17/16 Q1014
2482008-08-2617EKAH 260650Z AUTO 22006KT 170V260 9999NDV FEW006/// BKN008/// BKN019/// 17/17 Q1013
2472008-08-2514EKAH 250650Z AUTO 19006KT 130V230 9999NDV SCT028/// 14/13 Q1013
2462008-08-2414EKAH 240650Z AUTO 02003KT 9999NDV FEW019/// BKN090/// 14/14 Q1009
2452008-08-2315EKAH 230650Z AUTO 03004KT 7000NDV FEW065/// BKN110/// BKN120/// 15/15 Q1007
2442008-08-2215EKAH 220650Z AUTO 25006KT 200V280 8000NDV FEW002/// SCT004/// BKN006/// 15/15 Q1011
2432008-08-2116EKAH 210650Z AUTO 25008KT 220V280 9999NDV FEW011/// SCT014/// BKN017/// OVC022/// 16/15 Q1009
2422008-08-2016EKAH 200650Z AUTO 20009KT 140V250 9999NDV -SHRA FEW008/// SCT012/// BKN015/// BKN065/// 16/16 Q1001 RESHRA
2412008-08-1917EKAH 190650Z AUTO 19005KT 150V230 4200NDV BR FEW010/// BKN070/// BKN110/// 17/16 Q1005
2402008-08-1814EKAH 180650Z AUTO 16002KT 9999NDV NCD 14/12 Q1008
2392008-08-1715EKAH 170650Z AUTO 32003KT 9999NDV NCD 15/15 Q1011
2382008-08-1613EKAH 160650Z AUTO 31004KT 9999NDV FEW045/// 13/13 Q1013
2372008-08-1514EKAH 150650Z AUTO 20003KT 2000NDV BR FEW022/// BKN075/// 14/14 Q1013
2362008-08-1417EKAH 141850Z AUTO 26009KT 9999NDV NCD 17/10 Q1011
2352008-08-1315EKAH 131850Z AUTO 19007G19KT 150V270 9999NDV FEW050/// 15/14 Q0999
2342008-08-1217EKAH 120250Z AUTO 20001KT 9999NDV NCD 17/16 Q1001
2332008-08-1115EKAH 110250Z AUTO 20006KT 120V260 9999NDV NCD 15/15 Q0999
2322008-08-1015EKAH 100250Z AUTO 18008KT 120V230 5000NDV DZ NCD 15/15 Q1002
2312008-08-0916EKAH 090250Z AUTO 27011KT 9999NDV NCD 16/15 Q1003
2302008-08-0817EKAH 080020Z AUTO 34004KT 4800NDV BR NCD 17/17 Q////
2292008-08-0717EKAH 062020Z AUTO 18006KT 130V240 3100NDV -SHRA BR SCT002/// BKN004/// OVC006/// 17/17 Q1011
2282008-08-0615EKAH 060250Z AUTO 00000KT 9999NDV R10R/0400V0900N R28L/P1500N FEW070/// 15/14 Q1015
2272008-08-0416EKAH 040250Z AUTO 12004KT 070V150 9999NDV -RA FEW009/// BKN013/// BKN022/// 16/13 Q0999
2262008-08-0323EKAH 031450Z AUTO 25009KT 210V280 9999NDV FEW055/// BKN075/// 23/10 Q1007
2252008-08-0222EKAH 021450Z AUTO 24005KT 170V280 9999NDV FEW070/// BKN100/// 22/14 Q1012
2242008-08-0125EKAH 010950Z AUTO 12013KT 090V150 9999NDV NCD 25/14 Q1015
2232008-07-3123EKAH 311950Z 11003KT CAVOK 23/10 Q1020
2222008-07-3021EKAH 301950Z AUTO 20001KT 9999NDV NCD 21/16 Q1023
2212008-07-2924EKAH 291950Z AUTO 13009KT 100V160 9999NDV NCD 24/11 Q1021
2202008-07-2823EKAH 281950Z 10005KT CAVOK 23/15 Q1021
2192008-07-2724EKAH 271950Z AUTO 09004KT 9999NDV NCD 24/11 Q1022
2182008-07-2625EKAH 261950Z AUTO 08006KT 9999NDV NCD 25/11 Q1021
2172008-07-2523EKAH 251950Z AUTO 08005KT 9999NDV NCD 23/18 Q1020
2162008-07-2421EKAH 241950Z AUTO 09005KT 9999NDV NCD 21/09 Q1025
2152008-07-2319EKAH 231950Z AUTO 15003KT 9999NDV NCD 19/12 Q1024
2142008-07-2219EKAH 221950Z AUTO 26008KT 230V290 9999NDV NCD 19/10 Q1019
2132008-07-2116EKAH 211950Z AUTO 32002KT 9999NDV NCD 16/09 Q1013
2122008-07-2012EKAH 201950Z AUTO 23005KT 170V270 9999NDV NCD 12/10 Q1006
2112008-07-1719EKAH 171820Z AUTO 26006KT 230V290 9999NDV FEW075/// BKN130/// 19/06 Q1008
2102008-07-1613EKAH 162050Z AUTO 27009KT 9999NDV FEW070/// 13/10 Q1010
2092008-07-1517EKAH 152050Z AUTO 26009KT 210V290 9999NDV FEW013/// BKN031/// 17/16 Q1015
2082008-07-1416EKAH 142050Z AUTO 26007KT 220V290 9999NDV SCT031/// OVC047/// 16/11 Q1017
2072008-07-1315EKAH 132050Z 22004KT 180V250 9999 FEW020 SCT080 15/12 Q1011
2062008-07-1214EKAH 121950Z 25009KT 210V290 9999 FEW022 SCT060 14/08 Q1006
2052008-07-0816EKAH 081820Z AUTO 28004KT 240V310 9999NDV BKN070/// 16/14 Q1003
2042008-07-0421EKAH 041920Z AUTO 34005KT 9999NDV NCD 21/16 Q1013
2032008-07-0219EKAH 021950Z AUTO 13005KT 9999NDV NCD 19/12 Q1015
2022008-07-0115EKAH 012020Z AUTO 15004KT 9999NDV NCD 15/13 Q1018
2012008-06-2917EKAH 291850Z AUTO 23003KT 9999NDV BKN085/// 17/13 Q1012
2002008-06-2816EKAH 280750Z AUTO 21007KT 170V260 9999NDV FEW029/// SCT150/// 16/09 Q1010
1992008-06-2713EKAH 270650Z 19003KT 9999 -RA FEW010 OVC050 13/12 Q1010
1982008-06-2615EKAH 260720Z AUTO 25008KT 210V280 9999NDV FEW011/// SCT020/// BKN025/// BKN050/// 15/13 Q1012
1972008-06-2511EKAH 250720Z AUTO 22003KT 9999NDV SCT120/// BKN130/// BKN150/// 11/06 Q1016
1962008-06-2412EKAH 240720Z AUTO 30019G30KT 260V330 9999NDV NCD 12/03 Q1017
1952008-06-2311EKAH 231920Z AUTO 27018G28KT 9999NDV FEW032/// SCT055/// 11/08 Q1012
1942008-06-0420EKAH 041820Z AUTO 07006KT 9999NDV NCD 20/07 Q1020
1932008-06-0320EKAH 031820Z AUTO 12007KT 090V150 9999NDV NCD 20/07 Q1018
1922008-06-0221EKAH 021820Z AUTO 10006KT 9999NDV NCD 21/14 Q1015
1912008-06-0121EKAH 011820Z AUTO 15004KT 110V190 9999NDV NCD 21/06 Q1018
1902008-05-3121EKAH 311820Z AUTO 13008KT 100V160 9999NDV NCD 21/09 Q1018
1892008-05-3020EKAH 301820Z AUTO 12010KT 090V150 9999NDV NCD 20/06 Q1015
1882008-05-2917EKAH 291820Z AUTO 11005KT 070V130 9999NDV NCD 17/08 Q1019
1872008-05-2816EKAH 281820Z AUTO 12012KT 100V160 9999NDV BKN210/// 16/03 Q1021
1862008-05-2612EKAH 261820Z AUTO 06005KT 9999NDV FEW080/// 12/06 Q1019
1852008-05-194EKAH 190520Z AUTO 28002KT 9999NDV FEW060/// BKN090/// 04/02 Q1013
1842008-05-189EKAH 181850Z AUTO 36004KT 330V030 9999NDV NCD 09/04 Q1012
1832008-05-179EKAH 171850Z AUTO 02009KT 9999NDV FEW230/// 09/06 Q1006
1822008-05-1612EKAH 161850Z AUTO 27008KT 9999NDV NCD 12/08 Q1005
1812008-05-1516EKAH 151850Z AUTO 29006KT 9999NDV NCD 16/08 Q1007
1802008-05-1413EKAH 141850Z AUTO 21003KT 9999NDV OVC055/// 13/M00 Q1014
1792008-05-1312EKAH 131850Z 20003KT CAVOK 12/03 Q1022
1782008-05-1212EKAH 121850Z AUTO 02009KT 350V050 9999NDV NCD 12/06 Q1022
1772008-05-1119EKAH 111850Z AUTO 31004KT 9999NDV NCD 19/07 Q1021
1762008-05-1018EKAH 101850Z AUTO 16003KT 9999NDV NCD 18/09 Q1023
1752008-05-0916EKAH 091850Z AUTO 18004KT 150V210 9999NDV NCD 16/05 Q1021
1742008-05-0816EKAH 081850Z AUTO 13002KT 9999NDV NCD 16/06 Q1020
1732008-05-0717EKAH 071820Z AUTO 15003KT 9999NDV NCD 17/07 Q1021
1722008-05-0614EKAH 061850Z AUTO 20002KT 9999NDV NCD 14/04 Q1027
1712008-05-0514EKAH 051850Z AUTO 20001KT 9999NDV NCD 14/04 Q1030
1702008-05-0411EKAH 041850Z AUTO 15002KT 9999NDV FEW240/// 11/08 Q1029
1692008-05-0312EKAH 031850Z AUTO 13002KT 9999NDV NCD 12/10 Q1028
1682008-05-0210EKAH 021850Z AUTO 23003KT 9999NDV SCT060/// BKN075/// 10/09 Q1023
1672008-05-0110EKAH 011850Z AUTO 10002KT 6000NDV FEW032/// SCT038/// 10/10 Q1014
1662008-04-3011EKAH 301850Z AUTO 11012KT 080V140 9999NDV SCT085/// 11/09 Q1006
1652008-04-2910EKAH 290750Z AUTO 12003KT 1500NDV RA BR BKN001/// 10/10 Q1004
1642008-04-2814EKAH 282050Z AUTO 14008KT 100V190 9999NDV BKN070/// BKN100/// 14/05 Q1005
1632008-04-2311EKAH 231750Z AUTO 11007KT 9999NDV NCD 11/M01 Q1023
1622008-04-227EKAH 221950Z 36003KT CAVOK 07/06 Q1021
1612008-04-2010EKAH 201750Z AUTO 10007KT 9999NDV NCD 10/M01 Q1014
1602008-04-156EKAH 150820Z AUTO 26008KT 230V290 9999NDV FEW022/// SCT026/// BKN030/// 06/01 Q1017
1592008-04-145EKAH 140820Z AUTO 25003KT 9999NDV FEW011/// BKN014/// 05/02 Q1011
1582008-04-138EKAH 130820Z 19007KT 140V250 9999 SCT012 08/05 Q1009
1572008-04-125EKAH 120820Z VRB03KT 9999 FEW010 BKN014 05/03 Q1004
1562008-04-116EKAH 110820Z AUTO 09011KT 9999NDV NCD 06/M04 Q1006
1552008-04-105EKAH 100820Z AUTO 19005KT 120V270 7000NDV NCD 05/01 Q1001
1542008-04-095EKAH 090820Z AUTO 25006KT 200V280 9999NDV FEW016/// 05/01 Q1001
1532008-04-085EKAH 080820Z AUTO 36008KT 310V030 9999NDV FEW095/// BKN110/// 05/02 Q1005
1522008-04-075EKAH 070820Z AUTO 20005KT 140V250 9999NDV FEW065/// 05/M01 Q1001
1512008-04-063EKAH 060820Z AUTO 31002KT 9999NDV FEW008/// OVC031/// 03/01 Q0998
1502008-04-055EKAH 050820Z AUTO 22006KT 170V270 9999NDV FEW011/// SCT016/// BKN020/// BKN025/// 05/04 Q1008
1492008-04-046EKAH 040820Z AUTO 25008KT 200V290 9999NDV FEW240/// 06/04 Q1023
1482008-04-036EKAH 030820Z AUTO 36005KT 330V030 9999NDV FEW008/// BKN010/// BKN015/// 06/05 Q1020
1472008-04-026EKAH 020820Z AUTO 15003KT 8000NDV -DZ SCT004/// BKN006/// BKN009/// OVC012/// 06/06 Q1010
1462008-04-016EKAH 012020Z AUTO 18003KT 6000NDV -DZ FEW027/// BKN033/// BKN047/// 06/06 Q1011
1452008-03-316EKAH 311920Z AUTO 26001KT 4400NDV BR BKN055/// BKN070/// 06/06 Q1019
1442008-03-307EKAH 300820Z 15014G24KT 110V200 CAVOK 07/02 Q1008
1432008-03-295EKAH 290820Z 19007KT 130V240 4000 -RA BKN004 05/05 Q1000
1422008-03-286EKAH 282020Z AUTO 15008KT 110V220 9000NDV BKN060/// 06/04 Q1004
1412008-03-270EKAH 271920Z AUTO 16004KT 9999NDV FEW200/// M00/M02 Q1008
1402008-03-26-3EKAH 262020Z AUTO 28001KT 9999NDV NCD M03/M03 Q0999
1392008-03-250EKAH 252020Z AUTO 22004KT 210V280 9999NDV -SN FEW017/// SCT038/// BKN080/// M00/M00 Q0991
1382008-03-24-1EKAH 241920Z AUTO 26009KT 9999NDV NCD M01/M02 Q0988
1372008-03-230EKAH 231850Z 22011G22KT 180V290 9999 FEW020 BKN035 00/M03 Q0992
1362008-03-22-3EKAH 222020Z 01005KT 9999 FEW038 SCT045 M03/M10 Q0998 99910162
1352008-03-210EKAH 212020Z AUTO 08024G37KT 1800NDV -SN FEW008/// BKN011/// OVC016/// 00/00 Q0982
1342008-03-203EKAH 202020Z AUTO 17013KT 130V230 5000NDV -RA FEW005/// BKN007/// OVC009/// 03/02 Q0983
1332008-03-135EKAH 130750Z AUTO 28011KT 250V310 7000NDV -SHRA BKN025/// OVC029/// 05/05 Q0991
1322008-03-125EKAH 121950Z AUTO 26012KT 210V280 9999NDV -SHRA FEW018/// SCT027/// BKN033/// OVC045/// 05/04 Q0982
1312008-03-116EKAH 110750Z AUTO 14010KT 110V200 9999NDV FEW055/// 06/05 Q0983
1302008-03-106EKAH 101950Z AUTO 13010KT 100V160 9999NDV BKN095/// 06/05 Q0987
1292008-03-096EKAH 091950Z AUTO 20005KT 110V280 2900NDV DZ BR SCT002/// BKN004/// 06/06 Q0996
1282008-03-086EKAH 081950Z AUTO 19010KT 130V240 9999NDV FEW050/// BKN130/// 06/04 Q1001
1272008-03-076EKAH 071950Z AUTO 19009KT 140V260 7000NDV SCT011/// BKN015/// BKN019/// OVC028/// 06/05 Q1006
1262008-03-064EKAH 061950Z AUTO 27016KT 9999NDV FEW230/// 04/03 Q1009
1252008-03-053EKAH 052020Z AUTO 24015G30KT 200V280 9999NDV -DZ BKN016/// OVC020/// 03/02 Q1012
1242008-03-031EKAH 032020Z AUTO 30005KT 6000NDV SCT050/// BKN065/// 01/01 Q0999
1232008-03-024EKAH 022020Z AUTO 28021G31KT 9999NDV NCD 04/02 Q0995
1222008-03-015EKAH 011850Z AUTO 29028G43KT 9999NDV NCD 05/M01 Q0985
1202008-02-294EKAH 292020Z AUTO 20012G28KT 130V240 9999NDV -DZ FEW008/// BKN010/// OVC014/// 04/04 Q0989
1212008-02-294EKAH 292020Z AUTO 20012G28KT 130V240 9999NDV -DZ FEW008/// BKN010/// OVC014/// 04/04 Q0989
1192008-02-285EKAH 282020Z AUTO 25008KT 180V280 9999NDV BKN026/// 05/04 Q1013
1182008-02-275EKAH 272020Z AUTO 28020G31KT 9999NDV FEW025/// 05/02 Q1005
1172008-02-266EKAH 262020Z AUTO 24012G22KT 210V280 9999NDV FEW021/// BKN025/// OVC050/// 06/05 Q0992
1162008-02-255EKAH 252020Z AUTO 22008KT 160V260 9999NDV BKN120/// OVC140/// 05/04 Q1012
1152008-02-247EKAH 242020Z AUTO 26013KT 9999NDV FEW017/// BKN023/// BKN027/// OVC046/// 07/06 Q1008
1142008-02-237EKAH 232020Z AUTO 24010KT 210V270 3100NDV BR FEW003/// SCT005/// BKN008/// OVC011/// 07/06 Q1012
1132008-02-226EKAH 222020Z AUTO 27023G38KT 9999NDV FEW042/// BKN048/// BKN150/// 06/00 Q0999
1102008-02-217EKAH 212020Z AUTO 24013KT 210V280 5000NDV BKN005/// OVC007/// 07/06 Q1003
1112008-02-217EKAH 212020Z AUTO 24013KT 210V280 5000NDV BKN005/// OVC007/// 07/06 Q1003
1122008-02-217EKAH 212020Z AUTO 24013KT 210V280 5000NDV BKN005/// OVC007/// 07/06 Q1003
1092008-02-204EKAH 202020Z AUTO 20003KT 8000NDV OVC028/// 04/03 Q1016
1072008-02-196EKAH 192020Z 27009KT 8000 BKN007 OVC009 06/06 Q1020
1082008-02-196EKAH 192020Z 27009KT 8000 BKN007 OVC009 06/06 Q1020
1062008-02-186EKAH 182020Z AUTO 28016KT 9999NDV SCT011/// BKN014/// 06/05 Q1022
1052008-02-176EKAH 172020Z AUTO 29023KT 9999NDV SCT008/// BKN010/// 06/06 Q1024
1042008-02-162EKAH 162020Z AUTO 25011KT 220V280 9999NDV OVC034/// 02/M01 Q1040
1022008-02-15-3EKAH 152020Z AUTO 29005KT 9999NDV NCD M03/M05 Q1044
1032008-02-15-3EKAH 152020Z AUTO 29005KT 9999NDV NCD M03/M05 Q1044
1012008-02-14-3EKAH 142020Z AUTO 29004KT 9999NDV BKN180/// M03/M04 Q1040
1002008-02-131EKAH 132020Z 28003KT 0100 R10/0250N R28/0250N FG VV001 01/01 Q1035
992008-02-123EKAH 122020Z AUTO 22004KT 200V270 9999NDV BKN015/// 03/03 Q1037
982008-02-114EKAH 112020Z AUTO 13002KT 2900NDV BR BKN002/// OVC005/// 04/04 Q1039
972008-02-105EKAH 102020Z 29007KT 0500 R10/0600V0800U R28/0400N FG VV002 05/05 Q1034
962008-02-098EKAH 092020Z AUTO 22009KT 190V250 9999NDV FEW130/// BKN150/// 08/M03 Q1032
952008-02-086EKAH 082020Z AUTO 21004KT 160V250 9999NDV NCD 06/04 Q1033
942008-02-075EKAH 072020Z AUTO 20005KT 130V250 9999NDV BKN032/// BKN039/// 05/04 Q1031
932008-02-065EKAH 062020Z AUTO 28023G35KT 9999NDV FEW029/// SCT036/// BKN100/// BKN120/// 05/02 Q1013
922008-02-054EKAH 052020Z AUTO 17012G22KT 120V230 6000NDV -SHRA FEW003/// BKN005/// OVC007/// 04/04 Q1002
912008-02-044EKAH 042020Z AUTO 19006KT 150V230 7000NDV -RA FEW027/// BKN032/// 04/03 Q1004
902008-02-033EKAH 032020Z AUTO 17007KT 120V210 9999NDV BKN230/// 03/00 Q1010
892008-02-02-1EKAH 022020Z 23006KT 190V260 9999 FEW011 M01/M02 Q1009 99420163
882008-02-014EKAH 012020Z AUTO 24016G33KT 210V270 9999NDV FEW019/// SCT029/// BKN050/// BKN110/// 04/02 Q0979
872008-01-312EKAH 312020Z AUTO 20015G31KT 150V250 9000NDV -RA FEW008/// SCT013/// BKN017/// BKN026/// 02/02 Q0986
862008-01-302EKAH 302020Z AUTO 26009KT 230V290 9999NDV NCD 02/01 Q1014
852008-01-296EKAH 292020Z AUTO 21007KT 140V270 3700NDV BR SCT003/// OVC005/// 06/06 Q1018
842008-01-285EKAH 281950Z AUTO 24009KT 200V280 6000NDV FEW004/// BKN130/// BKN190/// 05/05 Q1025
832008-01-27-2EKAH 272020Z AUTO 24001KT 9999NDV NCD M02/M02 Q1025
812008-01-264EKAH 262020Z AUTO 28022G32KT 9999NDV FEW033/// BKN190/// 04/00 Q1013
822008-01-264EKAH 262020Z AUTO 28022G32KT 9999NDV FEW033/// BKN190/// 04/00 Q1013
802008-01-257EKAH 252020Z AUTO 26017G28KT 230V290 7000NDV -SHRA FEW011/// BKN016/// BKN021/// 07/07 Q1012
782008-01-243EKAH 242020Z AUTO 27016KT 9999NDV -SHRA FEW014/// SCT050/// BKN065/// OVC080/// 03/02 Q1015
792008-01-243EKAH 242020Z AUTO 27016KT 9999NDV -SHRA FEW014/// SCT050/// BKN065/// OVC080/// 03/02 Q1015
772008-01-236EKAH 232020Z AUTO 22008KT 160V260 2600NDV BR SCT003/// BKN005/// 06/05 Q1014
762008-01-22-3EKAH 222020Z AUTO 27003KT 9999NDV NCD M03/M03 Q1022
752008-01-212EKAH 212020Z 29008KT 9999 SCT035 BKN220 02/01 Q0998
742008-01-203EKAH 202020Z AUTO 24008KT 200V280 9999NDV NCD 03/03 Q1007
732008-01-195EKAH 192020Z AUTO 27015KT 9999NDV NCD 05/02 Q1011
712008-01-186EKAH 182020Z AUTO 18011G21KT 130V250 6000NDV -RA FEW008/// SCT031/// BKN036/// BKN043/// 06/05 Q0999
722008-01-186EKAH 182020Z AUTO 18011G21KT 130V250 6000NDV -RA FEW008/// SCT031/// BKN036/// BKN043/// 06/05 Q0999
702008-01-175EKAH 172020Z AUTO 15008KT 110V200 6000NDV FEW006/// SCT009/// BKN027/// 05/04 Q1002
692008-01-166EKAH 162020Z AUTO 23009KT 180V280 9999NDV SCT020/// BKN026/// BKN200/// 06/04 Q0994
682008-01-155EKAH 152020Z AUTO 17013G24KT 110V210 9000NDV -RA FEW006/// SCT008/// BKN010/// BKN023/// 05/05 Q0987
672008-01-144EKAH 142020Z 18009KT 140V240 9999 SCT020 BKN042 04/03 Q1001
662008-01-135EKAH 132020Z AUTO 21007G18KT 150V280 9999NDV FEW011/// BKN031/// 05/04 Q1012
652008-01-124EKAH 122020Z AUTO 28019KT 9999NDV FEW015/// BKN019/// OVC027/// 04/03 Q1000
632008-01-116EKAH 112020Z AUTO 15004KT 110V190 2600NDV -RA BKN001/// OVC003/// 06/05 Q0998
642008-01-116EKAH 112020Z AUTO 15004KT 110V190 2600NDV -RA BKN001/// OVC003/// 06/05 Q0998
622008-01-106EKAH 102020Z AUTO 19011G21KT 140V240 9999NDV OVC019/// 06/05 Q0997
612008-01-094EKAH 091950Z AUTO 22007KT 130V270 9999NDV FEW050/// 04/02 Q1004
602008-01-084EKAH 082020Z AUTO 20006KT 150V240 8000NDV SCT011/// BKN015/// BKN065/// 04/04 Q1012
592008-01-074EKAH 072020Z AUTO 17010KT 130V210 9999NDV FEW006/// SCT010/// BKN013/// OVC016/// 04/04 Q0996
582008-01-064EKAH 062020Z AUTO 20005KT 150V260 6000NDV FEW002/// SCT006/// BKN026/// 04/04 Q1008
572008-01-051EKAH 052020Z 15008KT 100V190 3000 -RASN SCT004 OVC006 01/00 Q1002 99690134
562008-01-04-1EKAH 042020Z 13017G32KT 110V170 9999 SCT014 BKN017 M01/M03 Q1018 99710170
552008-01-03-1EKAH 032020Z 12019G32KT 090V150 9999 FEW010 BKN012 M01/M02 Q1025 99420170
542008-01-022EKAH 022020Z AUTO 11012KT 090V150 9999NDV FEW021/// SCT039/// BKN046/// BKN065/// 02/M02 Q1029
532008-01-012EKAH 012020Z AUTO 09009KT 9999NDV -DZ FEW011/// BKN014/// BKN019/// 02/02 Q1030
522007-12-311EKAH 312020Z AUTO 36006KT 9999NDV OVC020/// 01/M01 Q1028
512007-12-300EKAH 302020Z AUTO 26003KT 9999NDV NCD M00/M01 Q1018
502007-12-296EKAH 282250Z AUTO 22010G20KT 160V290 6000NDV FEW007/// BKN009/// 06/06 Q1009
492007-12-286EKAH 282020Z AUTO 22010KT 160V280 9999NDV FEW008/// BKN010/// 06/06 Q1011
482007-12-276EKAH 272020Z AUTO 23010KT 180V270 3400NDV BR SCT005/// OVC007/// 06/05 Q1018
472007-12-264EKAH 262020Z AUTO 22006KT 170V260 8000NDV NCD 04/03 Q1024
462007-12-202EKAH 202020Z AUTO 27006KT 230V290 4100NDV BR BKN003/// 02/02 Q1033
452007-12-193EKAH 192150Z AUTO 28009KT 240V300 9999NDV BKN008/// OVC010/// 03/02 Q1037
442007-12-18-2EKAH 182150Z AUTO 31005KT 290V350 2000NDV BR FEW002/// BKN004/// OVC006/// M02/M02 Q1041
432007-12-170EKAH 172150Z AUTO 33005KT 300V360 3000NDV BR SCT007/// OVC009/// 00/M00 Q1043
422007-12-16-5EKAH 162150Z 31001KT 5000 BR FEW001 M05/M05 Q1043
412007-12-15-2EKAH 152150Z AUTO 29003KT 0100NDV R10R/0350V0450N R28L/0250N FZFG NCD M02/M02 Q1042
402007-12-143EKAH 142150Z AUTO 24003KT 8000NDV OVC036/// 03/03 Q1039
392007-12-132EKAH 132150Z 26006KT 230V290 9999 BKN038 02/01 Q1041
382007-12-123EKAH 122150Z AUTO 05003KT 9999NDV OVC019/// 03/01 Q1042
372007-12-113EKAH 112150Z AUTO 02008KT 350V050 9999NDV SCT009/// BKN011/// 03/03 Q1031
362007-12-105EKAH 102120Z AUTO 00000KT 1900NDV BR FEW002/// BKN013/// 05/04 Q1010
352007-12-094EKAH 092150Z AUTO 19003KT 7000NDV BKN015/// BKN018/// 04/04 Q0992
342007-12-084EKAH 082150Z AUTO 22006KT 170V270 6000NDV RA SCT008/// BKN011/// BKN014/// 04/04 Q0993
332007-12-076EKAH 072150Z AUTO 23007KT 180V270 9999NDV FEW017/// SCT022/// BKN038/// 06/06 Q0981
322007-12-067EKAH 062150Z AUTO 17010KT 120V260 3900NDV BR BKN002/// BKN004/// 07/07 Q0992
312007-12-059EKAH 052120Z AUTO 22009KT 160V260 9000NDV FEW006/// BKN012/// OVC015/// 09/09 Q0997
302007-12-044EKAH 041920Z AUTO 23007KT 200V260 9999NDV BKN110/// 04/04 Q1009
292007-12-034EKAH 032150Z AUTO 29009KT 9999NDV -SHRA SCT024/// BKN050/// 04/03 Q0988
282007-12-025EKAH 022120Z 12009KT 080V170 9999 -RA FEW005 BKN012 05/05 Q0977
272007-12-015EKAH 012120Z AUTO 23008KT 170V270 9999NDV FEW021/// 05/05 Q0994
262007-11-306EKAH 302120Z AUTO 15006KT 110V210 7000NDV -DZ BKN003/// OVC006/// 06/06 Q0999
252007-11-295EKAH 292120Z AUTO 25010KT 190V280 9999NDV FEW024/// BKN041/// BKN190/// 05/05 Q0992
242007-11-286EKAH 282120Z AUTO 20009KT 140V250 1500NDV BR BKN001/// BKN003/// 06/05 Q1007
232007-11-27-4EKAH 272120Z AUTO 24003KT 9999NDV BKN170/// M04/M04 Q1024
222007-11-261EKAH 262120Z AUTO 31012KT 9999NDV NCD 01/M06 Q1016
212007-11-252EKAH 252120Z AUTO 33016KT 9999NDV FEW034/// SCT045/// BKN070/// 02/01 Q1005
202007-11-245EKAH 242120Z AUTO 21012G24KT 160V250 7000NDV -SHRA FEW006/// BKN008/// BKN012/// 05/05 Q1002
192007-11-233EKAH 232120Z AUTO 01013KT 350V050 9999NDV SCT024/// BKN029/// 03/00 Q1017
182007-11-227EKAH 221220Z AUTO 19006KT 140V230 3600NDV BR BKN003/// OVC005/// 07/07 Q1005
172007-11-215EKAH 212120Z AUTO 16009KT 130V210 2900NDV DZ BR FEW005/// BKN007/// BKN011/// 05/04 Q1007
162007-11-205EKAH 202020Z AUTO 13007KT 090V160 5000NDV SCT008/// BKN010/// 05/04 Q1018
152007-11-195EKAH 192120Z AUTO 12008KT 090V150 7000NDV BKN012/// OVC015/// 05/04 Q1017
132007-11-185EKAH 182120Z AUTO 10003KT 2700NDV BR FEW003/// BKN022/// 05/05 Q1018
142007-11-185EKAH 182120Z AUTO 10003KT 2700NDV BR FEW003/// BKN022/// 05/05 Q1018
102007-11-176EKAH 172120Z AUTO 23006KT 190V270 5000NDV NCD 06/05 Q1019
112007-11-176EKAH 172120Z AUTO 23006KT 190V270 5000NDV NCD 06/05 Q1019
122007-11-176EKAH 172120Z AUTO 23006KT 190V270 5000NDV NCD 06/05 Q1019
82007-11-167EKAH 162120Z AUTO 28011KT 9999NDV FEW006/// BKN008/// BKN014/// OVC020/// 07/07 Q1020
92007-11-167EKAH 162120Z AUTO 28011KT 9999NDV FEW006/// BKN008/// BKN014/// OVC020/// 07/07 Q1020
72007-11-150EKAH 152120Z AUTO 26001KT 7000NDV BKN160/// BKN220/// M00/M00 Q1021
62007-11-141EKAH 142120Z AUTO 35004KT 9999NDV FEW029/// OVC034/// 01/M01 Q1022
52007-11-131EKAH 131920Z AUTO 04007KT 9999NDV FEW037/// BKN042/// 01/M01 Q1007
42007-11-120EKAH 122120Z AUTO 30008KT 9999NDV NCD M00/M00 Q1011
32007-11-110EKAH 112050Z AUTO 24002KT 9999NDV BKN200/// M00/M02 Q1001
22007-11-089EKAH 081120Z AUTO 23008KT 180V270 9999NDV FEW036/// BKN080/// 09/07 Q1002
12007-11-076EKAH 072050Z AUTO 31013KT 9999NDV NCD 06/04 Q1004